Check out our new PWSWeather beta!
PWSweather.com
Personal Weather Stations
Station Observations
PWSTHORN2
Thornton, Nh Usa, Thornton, NH 03285

Thornton, Nh UsaThornton, NH 03285

Lat: 43.8870699, Lon: -71.6632763

Elevation: 640

Station Type: Ambient WS 2080

Latest ConditionsUpdated 4:40:01 PM EST Monday, Feb 24, 2020
Currently Today's Max Today's Min Today's Average
Temperature 46.9°F8.3°C 59.0°F15.0°C 13.6°F-10.2°C 33.2°F0.7°C
Dew Point 22.0°F-5.6°C 32.8°F0.4°C -7.7°F-22.1°C 9.8°F-12.3°C
Winds 0.7 mph NE1.1 kmh NE 10.7 mph -17.2 kmh - - 1.4 mph 2.3 kmh
Wind Gusts 3.8 mph6.1 kmh 14.5 mph23.3 kmh - -
Humidity 37% 37% 37% 37%
Pressure 29.08 in984.8 mb 29.22 in989.5 mb 29.07 in984.4 mb -
Hour Temp Dew Point Humidity Winds Wind Gusts Pressure Precip Precip Rate Daily Precip Total
04:40 PM 46.9°F8.3°C 22.0°F-5.6°C 37% 0.7 mph NE1.1 kmh NE 3.8 mph6.1 kmh 29.08 in984.8 mb 0.00 in0.0 mm 0.00 in0.0 mm 0.00 in0.0 mm
04:39 PM 46.8°F8.2°C 21.9°F-5.6°C 37% 1.6 mph NE2.6 kmh NE 3.8 mph6.1 kmh 29.08 in984.8 mb 0.00 in0.0 mm 0.00 in0.0 mm 0.00 in0.0 mm
04:38 PM 46.4°F8.0°C 21.6°F-5.8°C 37% 1.6 mph NE2.6 kmh NE 3.8 mph6.1 kmh 29.08 in984.8 mb 0.00 in0.0 mm 0.00 in0.0 mm 0.00 in0.0 mm
04:37 PM 46.2°F7.9°C 21.4°F-5.9°C 37% 1.6 mph NE2.6 kmh NE 3.8 mph6.1 kmh 29.08 in984.8 mb 0.00 in0.0 mm 0.00 in0.0 mm 0.00 in0.0 mm
04:36 PM 46.0°F7.8°C 21.2°F-6.0°C 37% 1.6 mph NE2.6 kmh NE 3.8 mph6.1 kmh 29.08 in984.8 mb 0.00 in0.0 mm 0.00 in0.0 mm 0.00 in0.0 mm
04:35 PM 46.0°F7.8°C 21.2°F-6.0°C 37% 2.2 mph NE3.5 kmh NE 3.8 mph6.1 kmh 29.08 in984.8 mb 0.00 in0.0 mm 0.00 in0.0 mm 0.00 in0.0 mm
04:34 PM 46.0°F7.8°C 21.2°F-6.0°C 37% 2.2 mph NE3.5 kmh NE 3.8 mph6.1 kmh 29.08 in984.8 mb 0.00 in0.0 mm 0.00 in0.0 mm 0.00 in0.0 mm
04:33 PM 46.0°F7.8°C 21.2°F-6.0°C 37% 2.2 mph NE3.5 kmh NE 3.8 mph6.1 kmh 29.08 in984.8 mb 0.00 in0.0 mm 0.00 in0.0 mm 0.00 in0.0 mm
04:32 PM 46.0°F7.8°C 21.2°F-6.0°C 37% 3.1 mph NE5.0 kmh NE 3.8 mph6.1 kmh 29.07 in984.4 mb 0.00 in0.0 mm 0.00 in0.0 mm 0.00 in0.0 mm
04:31 PM 46.0°F7.8°C 21.2°F-6.0°C 37% 3.1 mph NE5.0 kmh NE 3.8 mph6.1 kmh 29.08 in984.8 mb 0.00 in0.0 mm 0.00 in0.0 mm 0.00 in0.0 mm
04:30 PM 46.2°F7.9°C 21.4°F-5.9°C 37% 3.1 mph NE5.0 kmh NE 3.8 mph6.1 kmh 29.08 in984.8 mb 0.00 in0.0 mm 0.00 in0.0 mm 0.00 in0.0 mm
04:29 PM 46.2°F7.9°C 21.4°F-5.9°C 37% 3.1 mph NE5.0 kmh NE 3.8 mph6.1 kmh 29.08 in984.8 mb 0.00 in0.0 mm 0.00 in0.0 mm 0.00 in0.0 mm
04:28 PM 46.4°F8.0°C 21.6°F-5.8°C 37% 3.1 mph NE5.0 kmh NE 3.8 mph6.1 kmh 29.08 in984.8 mb 0.00 in0.0 mm 0.00 in0.0 mm 0.00 in0.0 mm
04:27 PM 46.4°F8.0°C 21.6°F-5.8°C 37% 2.2 mph NE3.5 kmh NE 3.8 mph6.1 kmh 29.07 in984.4 mb 0.00 in0.0 mm 0.00 in0.0 mm 0.00 in0.0 mm
04:26 PM 46.6°F8.1°C 21.7°F-5.7°C 37% 3.1 mph NE5.0 kmh NE 4.5 mph7.2 kmh 29.08 in984.8 mb 0.00 in0.0 mm 0.00 in0.0 mm 0.00 in0.0 mm
04:25 PM 46.8°F8.2°C 21.9°F-5.6°C 37% 2.2 mph NE3.5 kmh NE 4.5 mph7.2 kmh 29.08 in984.8 mb 0.00 in0.0 mm 0.00 in0.0 mm 0.00 in0.0 mm
04:24 PM 46.9°F8.3°C 22.0°F-5.6°C 37% 3.1 mph NE5.0 kmh NE 4.5 mph7.2 kmh 29.07 in984.4 mb 0.00 in0.0 mm 0.00 in0.0 mm 0.00 in0.0 mm
04:23 PM 47.1°F8.4°C 22.2°F-5.4°C 37% 3.1 mph NE5.0 kmh NE 4.5 mph7.2 kmh 29.08 in984.8 mb 0.00 in0.0 mm 0.00 in0.0 mm 0.00 in0.0 mm
04:22 PM 47.3°F8.5°C 22.4°F-5.3°C 37% 3.1 mph NE5.0 kmh NE 4.5 mph7.2 kmh 29.07 in984.4 mb 0.00 in0.0 mm 0.00 in0.0 mm 0.00 in0.0 mm
04:21 PM 47.3°F8.5°C 22.4°F-5.3°C 37% 3.1 mph NE5.0 kmh NE 4.5 mph7.2 kmh 29.08 in984.8 mb 0.00 in0.0 mm 0.00 in0.0 mm 0.00 in0.0 mm
04:20 PM 47.5°F8.6°C 22.5°F-5.3°C 37% 2.2 mph NE3.5 kmh NE 4.5 mph7.2 kmh 29.08 in984.8 mb 0.00 in0.0 mm 0.00 in0.0 mm 0.00 in0.0 mm
04:19 PM 47.7°F8.7°C 22.7°F-5.2°C 37% 2.2 mph NE3.5 kmh NE 4.5 mph7.2 kmh 29.07 in984.4 mb 0.00 in0.0 mm 0.00 in0.0 mm 0.00 in0.0 mm
04:18 PM 48.0°F8.9°C 23.0°F-5.0°C 37% 3.1 mph NE5.0 kmh NE 4.5 mph7.2 kmh 29.07 in984.4 mb 0.00 in0.0 mm 0.00 in0.0 mm 0.00 in0.0 mm
04:17 PM 48.4°F9.1°C 23.3°F-4.8°C 37% 2.2 mph NE3.5 kmh NE 4.5 mph7.2 kmh 29.07 in984.4 mb 0.00 in0.0 mm 0.00 in0.0 mm 0.00 in0.0 mm
04:16 PM 48.9°F9.4°C 23.8°F-4.6°C 37% 3.1 mph NE5.0 kmh NE 4.5 mph7.2 kmh 29.07 in984.4 mb 0.00 in0.0 mm 0.00 in0.0 mm 0.00 in0.0 mm
04:15 PM 48.9°F9.4°C 23.8°F-4.6°C 37% 3.1 mph NE5.0 kmh NE 4.5 mph7.2 kmh 29.07 in984.4 mb 0.00 in0.0 mm 0.00 in0.0 mm 0.00 in0.0 mm
04:14 PM 49.3°F9.6°C 24.1°F-4.4°C 37% 3.1 mph NE5.0 kmh NE 4.5 mph7.2 kmh 29.07 in984.4 mb 0.00 in0.0 mm 0.00 in0.0 mm 0.00 in0.0 mm
04:13 PM 49.6°F9.8°C 24.4°F-4.2°C 37% 3.1 mph NE5.0 kmh NE 4.5 mph7.2 kmh 29.07 in984.4 mb 0.00 in0.0 mm 0.00 in0.0 mm 0.00 in0.0 mm
04:12 PM 50.0°F10.0°C 24.8°F-4.0°C 37% 3.1 mph NE5.0 kmh NE 4.5 mph7.2 kmh 29.08 in984.8 mb 0.00 in0.0 mm 0.00 in0.0 mm 0.00 in0.0 mm
04:11 PM 50.9°F10.5°C 25.6°F-3.6°C 37% 3.1 mph NE5.0 kmh NE 4.5 mph7.2 kmh 29.08 in984.8 mb 0.00 in0.0 mm 0.00 in0.0 mm 0.00 in0.0 mm
04:10 PM 51.3°F10.7°C 25.9°F-3.4°C 37% 3.8 mph NE6.1 kmh NE 4.5 mph7.2 kmh 29.07 in984.4 mb 0.00 in0.0 mm 0.00 in0.0 mm 0.00 in0.0 mm
04:09 PM 51.6°F10.9°C 26.2°F-3.2°C 37% 3.1 mph NE5.0 kmh NE 3.8 mph6.1 kmh 29.08 in984.8 mb 0.00 in0.0 mm 0.00 in0.0 mm 0.00 in0.0 mm
04:08 PM 52.0°F11.1°C 26.5°F-3.1°C 37% 2.2 mph NE3.5 kmh NE 3.8 mph6.1 kmh 29.08 in984.8 mb 0.00 in0.0 mm 0.00 in0.0 mm 0.00 in0.0 mm
04:07 PM 52.9°F11.6°C 27.3°F-2.6°C 37% 2.2 mph NE3.5 kmh NE 3.8 mph6.1 kmh 29.08 in984.8 mb 0.00 in0.0 mm 0.00 in0.0 mm 0.00 in0.0 mm
04:06 PM 53.2°F11.8°C 27.7°F-2.4°C 37% 2.2 mph NE3.5 kmh NE 3.8 mph6.1 kmh 29.08 in984.8 mb 0.00 in0.0 mm 0.00 in0.0 mm 0.00 in0.0 mm
04:05 PM 53.6°F12.0°C 28.0°F-2.2°C 37% 3.1 mph NE5.0 kmh NE 4.5 mph7.2 kmh 29.09 in985.1 mb 0.00 in0.0 mm 0.00 in0.0 mm 0.00 in0.0 mm
04:04 PM 53.8°F12.1°C 28.1°F-2.2°C 37% 2.2 mph NE3.5 kmh NE 6.0 mph9.7 kmh 29.08 in984.8 mb 0.00 in0.0 mm 0.00 in0.0 mm 0.00 in0.0 mm
04:03 PM 54.3°F12.4°C 28.6°F-1.9°C 37% 1.6 mph NE2.6 kmh NE 6.0 mph9.7 kmh 29.09 in985.1 mb 0.00 in0.0 mm 0.00 in0.0 mm 0.00 in0.0 mm
04:02 PM 54.5°F12.5°C 28.8°F-1.8°C 37% 1.6 mph NE2.6 kmh NE 6.0 mph9.7 kmh 29.09 in985.1 mb 0.00 in0.0 mm 0.00 in0.0 mm 0.00 in0.0 mm
04:01 PM 54.7°F12.6°C 28.9°F-1.7°C 37% 1.6 mph NE2.6 kmh NE 6.0 mph9.7 kmh 29.09 in985.1 mb 0.00 in0.0 mm 0.00 in0.0 mm 0.00 in0.0 mm
04:00 PM 55.0°F12.8°C 29.3°F-1.5°C 37% 1.6 mph NE2.6 kmh NE 6.0 mph9.7 kmh 29.09 in985.1 mb 0.00 in0.0 mm 0.00 in0.0 mm 0.00 in0.0 mm
03:59 PM 55.2°F12.9°C 29.4°F-1.4°C 37% 1.6 mph NE2.6 kmh NE 6.0 mph9.7 kmh 29.09 in985.1 mb 0.00 in0.0 mm 0.00 in0.0 mm 0.00 in0.0 mm
03:58 PM 55.2°F12.9°C 29.4°F-1.4°C 37% 2.2 mph NE3.5 kmh NE 6.0 mph9.7 kmh 29.09 in985.1 mb 0.00 in0.0 mm 0.00 in0.0 mm 0.00 in0.0 mm
03:57 PM 55.2°F12.9°C 29.4°F-1.4°C 37% 1.6 mph NE2.6 kmh NE 6.0 mph9.7 kmh 29.08 in984.8 mb 0.00 in0.0 mm 0.00 in0.0 mm 0.00 in0.0 mm
03:56 PM 55.2°F12.9°C 29.4°F-1.4°C 37% 1.6 mph NE2.6 kmh NE 6.0 mph9.7 kmh 29.09 in985.1 mb 0.00 in0.0 mm 0.00 in0.0 mm 0.00 in0.0 mm
03:55 PM 55.4°F13.0°C 29.6°F-1.3°C 37% 3.1 mph NE5.0 kmh NE 6.0 mph9.7 kmh 29.08 in984.8 mb 0.00 in0.0 mm 0.00 in0.0 mm 0.00 in0.0 mm
03:54 PM 55.6°F13.1°C 29.7°F-1.3°C 37% 4.5 mph NE7.2 kmh NE 6.0 mph9.7 kmh 29.08 in984.8 mb 0.00 in0.0 mm 0.00 in0.0 mm 0.00 in0.0 mm
03:53 PM 55.6°F13.1°C 29.7°F-1.3°C 37% 1.6 mph NE2.6 kmh NE 3.8 mph6.1 kmh 29.09 in985.1 mb 0.00 in0.0 mm 0.00 in0.0 mm 0.00 in0.0 mm
03:52 PM 55.8°F13.2°C 29.9°F-1.2°C 37% 2.2 mph NE3.5 kmh NE 3.8 mph6.1 kmh 29.09 in985.1 mb 0.00 in0.0 mm 0.00 in0.0 mm 0.00 in0.0 mm
03:51 PM 55.9°F13.3°C 30.1°F-1.1°C 37% 1.6 mph NE2.6 kmh NE 3.1 mph5.0 kmh 29.09 in985.1 mb 0.00 in0.0 mm 0.00 in0.0 mm 0.00 in0.0 mm
03:50 PM 55.9°F13.3°C 30.1°F-1.1°C 37% 1.6 mph NE2.6 kmh NE 3.1 mph5.0 kmh 29.08 in984.8 mb 0.00 in0.0 mm 0.00 in0.0 mm 0.00 in0.0 mm
03:49 PM 55.8°F13.2°C 29.9°F-1.2°C 37% 0.7 mph NE1.1 kmh NE 3.1 mph5.0 kmh 29.09 in985.1 mb 0.00 in0.0 mm 0.00 in0.0 mm 0.00 in0.0 mm
03:48 PM 55.6°F13.1°C 29.7°F-1.3°C 37% Calm Calm 3.1 mph5.0 kmh 29.09 in985.1 mb 0.00 in0.0 mm 0.00 in0.0 mm 0.00 in0.0 mm
03:47 PM 55.6°F13.1°C 29.7°F-1.3°C 37% Calm Calm 3.1 mph5.0 kmh 29.08 in984.8 mb 0.00 in0.0 mm 0.00 in0.0 mm 0.00 in0.0 mm
03:46 PM 55.6°F13.1°C 29.7°F-1.3°C 37% 0.7 mph NE1.1 kmh NE 3.1 mph5.0 kmh 29.08 in984.8 mb 0.00 in0.0 mm 0.00 in0.0 mm 0.00 in0.0 mm
03:45 PM 55.8°F13.2°C 29.9°F-1.2°C 37% 0.7 mph NE1.1 kmh NE 3.1 mph5.0 kmh 29.09 in985.1 mb 0.00 in0.0 mm 0.00 in0.0 mm 0.00 in0.0 mm
03:44 PM 55.9°F13.3°C 30.1°F-1.1°C 37% 0.7 mph NE1.1 kmh NE 3.1 mph5.0 kmh 29.08 in984.8 mb 0.00 in0.0 mm 0.00 in0.0 mm 0.00 in0.0 mm
03:43 PM 56.3°F13.5°C 30.4°F-0.9°C 37% 0.7 mph NE1.1 kmh NE 3.1 mph5.0 kmh 29.08 in984.8 mb 0.00 in0.0 mm 0.00 in0.0 mm 0.00 in0.0 mm
03:42 PM 56.3°F13.5°C 30.4°F-0.9°C 37% 2.2 mph NE3.5 kmh NE 4.5 mph7.2 kmh 29.08 in984.8 mb 0.00 in0.0 mm 0.00 in0.0 mm 0.00 in0.0 mm
03:41 PM 56.3°F13.5°C 30.4°F-0.9°C 37% 1.6 mph NE2.6 kmh NE 7.6 mph12.2 kmh 29.08 in984.8 mb 0.00 in0.0 mm 0.00 in0.0 mm 0.00 in0.0 mm
03:40 PM 56.3°F13.5°C 30.4°F-0.9°C 37% 1.6 mph NE2.6 kmh NE 7.6 mph12.2 kmh 29.08 in984.8 mb 0.00 in0.0 mm 0.00 in0.0 mm 0.00 in0.0 mm
03:39 PM 56.3°F13.5°C 30.4°F-0.9°C 37% Calm Calm 7.6 mph12.2 kmh 29.09 in985.1 mb 0.00 in0.0 mm 0.00 in0.0 mm 0.00 in0.0 mm
03:38 PM 56.3°F13.5°C 30.4°F-0.9°C 37% Calm Calm 7.6 mph12.2 kmh 29.09 in985.1 mb 0.00 in0.0 mm 0.00 in0.0 mm 0.00 in0.0 mm
03:37 PM 56.5°F13.6°C 30.5°F-0.8°C 37% Calm Calm 7.6 mph12.2 kmh 29.08 in984.8 mb 0.00 in0.0 mm 0.00 in0.0 mm 0.00 in0.0 mm
03:36 PM 56.5°F13.6°C 30.5°F-0.8°C 37% Calm Calm 7.6 mph12.2 kmh 29.08 in984.8 mb 0.00 in0.0 mm 0.00 in0.0 mm 0.00 in0.0 mm
03:35 PM 56.5°F13.6°C 30.5°F-0.8°C 37% 2.2 mph NE3.5 kmh NE 7.6 mph12.2 kmh 29.09 in985.1 mb 0.00 in0.0 mm 0.00 in0.0 mm 0.00 in0.0 mm
03:34 PM 56.5°F13.6°C 30.5°F-0.8°C 37% 0.7 mph NE1.1 kmh NE 7.6 mph12.2 kmh 29.09 in985.1 mb 0.00 in0.0 mm 0.00 in0.0 mm 0.00 in0.0 mm
03:33 PM 56.5°F13.6°C 30.5°F-0.8°C 37% 1.6 mph NE2.6 kmh NE 7.6 mph12.2 kmh 29.09 in985.1 mb 0.00 in0.0 mm 0.00 in0.0 mm 0.00 in0.0 mm
03:32 PM 56.5°F13.6°C 30.5°F-0.8°C 37% 3.1 mph NE5.0 kmh NE 7.6 mph12.2 kmh 29.09 in985.1 mb 0.00 in0.0 mm 0.00 in0.0 mm 0.00 in0.0 mm
03:31 PM 56.7°F13.7°C 30.7°F-0.7°C 37% 3.1 mph NE5.0 kmh NE 5.4 mph8.7 kmh 29.08 in984.8 mb 0.00 in0.0 mm 0.00 in0.0 mm 0.00 in0.0 mm
03:30 PM 56.5°F13.6°C 30.5°F-0.8°C 37% 2.2 mph NE3.5 kmh NE 5.4 mph8.7 kmh 29.09 in985.1 mb 0.00 in0.0 mm 0.00 in0.0 mm 0.00 in0.0 mm
03:29 PM 56.5°F13.6°C 30.5°F-0.8°C 37% 0.7 mph NE1.1 kmh NE 4.5 mph7.2 kmh 29.09 in985.1 mb 0.00 in0.0 mm 0.00 in0.0 mm 0.00 in0.0 mm
03:28 PM 56.5°F13.6°C 30.5°F-0.8°C 37% 2.2 mph NE3.5 kmh NE 5.4 mph8.7 kmh 29.09 in985.1 mb 0.00 in0.0 mm 0.00 in0.0 mm 0.00 in0.0 mm
03:27 PM 56.5°F13.6°C 30.5°F-0.8°C 37% 3.1 mph NE5.0 kmh NE 5.4 mph8.7 kmh 29.09 in985.1 mb 0.00 in0.0 mm 0.00 in0.0 mm 0.00 in0.0 mm
03:26 PM 56.5°F13.6°C 30.5°F-0.8°C 37% 1.6 mph NE2.6 kmh NE 5.4 mph8.7 kmh 29.09 in985.1 mb 0.00 in0.0 mm 0.00 in0.0 mm 0.00 in0.0 mm
03:25 PM 56.5°F13.6°C 30.5°F-0.8°C 37% 1.6 mph NE2.6 kmh NE 5.4 mph8.7 kmh 29.09 in985.1 mb 0.00 in0.0 mm 0.00 in0.0 mm 0.00 in0.0 mm
03:24 PM 56.5°F13.6°C 30.5°F-0.8°C 37% 1.6 mph NE2.6 kmh NE 6.0 mph9.7 kmh 29.09 in985.1 mb 0.00 in0.0 mm 0.00 in0.0 mm 0.00 in0.0 mm
03:23 PM 56.8°F13.8°C 30.9°F-0.6°C 37% 0.7 mph NE1.1 kmh NE 6.0 mph9.7 kmh 29.09 in985.1 mb 0.00 in0.0 mm 0.00 in0.0 mm 0.00 in0.0 mm
03:22 PM 56.8°F13.8°C 30.9°F-0.6°C 37% 2.2 mph NE3.5 kmh NE 6.9 mph11.1 kmh 29.09 in985.1 mb 0.00 in0.0 mm 0.00 in0.0 mm 0.00 in0.0 mm
03:21 PM 56.8°F13.8°C 30.9°F-0.6°C 37% 1.6 mph NE2.6 kmh NE 6.9 mph11.1 kmh 29.08 in984.8 mb 0.00 in0.0 mm 0.00 in0.0 mm 0.00 in0.0 mm
03:20 PM 56.8°F13.8°C 30.9°F-0.6°C 37% 3.1 mph NE5.0 kmh NE 6.9 mph11.1 kmh 29.09 in985.1 mb 0.00 in0.0 mm 0.00 in0.0 mm 0.00 in0.0 mm
03:19 PM 57.0°F13.9°C 31.0°F-0.6°C 37% 3.8 mph NE6.1 kmh NE 6.9 mph11.1 kmh 29.08 in984.8 mb 0.00 in0.0 mm 0.00 in0.0 mm 0.00 in0.0 mm
03:18 PM 57.0°F13.9°C 31.0°F-0.6°C 37% 3.1 mph NE5.0 kmh NE 6.9 mph11.1 kmh 29.09 in985.1 mb 0.00 in0.0 mm 0.00 in0.0 mm 0.00 in0.0 mm
03:17 PM 57.0°F13.9°C 31.0°F-0.6°C 37% 3.1 mph NE5.0 kmh NE 6.9 mph11.1 kmh 29.09 in985.1 mb 0.00 in0.0 mm 0.00 in0.0 mm 0.00 in0.0 mm
03:16 PM 57.0°F13.9°C 31.0°F-0.6°C 37% 3.1 mph NE5.0 kmh NE 8.3 mph13.4 kmh 29.09 in985.1 mb 0.00 in0.0 mm 0.00 in0.0 mm 0.00 in0.0 mm
03:15 PM 57.0°F13.9°C 31.0°F-0.6°C 37% 0.7 mph NE1.1 kmh NE 8.3 mph13.4 kmh 29.09 in985.1 mb 0.00 in0.0 mm 0.00 in0.0 mm 0.00 in0.0 mm
03:14 PM 57.0°F13.9°C 31.0°F-0.6°C 37% 4.5 mph NE7.2 kmh NE 8.3 mph13.4 kmh 29.09 in985.1 mb 0.00 in0.0 mm 0.00 in0.0 mm 0.00 in0.0 mm
03:13 PM 57.0°F13.9°C 31.0°F-0.6°C 37% 4.5 mph NE7.2 kmh NE 8.3 mph13.4 kmh 29.09 in985.1 mb 0.00 in0.0 mm 0.00 in0.0 mm 0.00 in0.0 mm
03:12 PM 57.2°F14.0°C 31.2°F-0.4°C 37% 5.4 mph NE8.7 kmh NE 8.3 mph13.4 kmh 29.09 in985.1 mb 0.00 in0.0 mm 0.00 in0.0 mm 0.00 in0.0 mm
03:11 PM 57.0°F13.9°C 31.0°F-0.6°C 37% 3.1 mph NE5.0 kmh NE 8.3 mph13.4 kmh 29.09 in985.1 mb 0.00 in0.0 mm 0.00 in0.0 mm 0.00 in0.0 mm
03:10 PM 57.0°F13.9°C 31.0°F-0.6°C 37% 2.2 mph NE3.5 kmh NE 8.3 mph13.4 kmh 29.09 in985.1 mb 0.00 in0.0 mm 0.00 in0.0 mm 0.00 in0.0 mm
03:09 PM 57.0°F13.9°C 31.0°F-0.6°C 37% 3.1 mph NE5.0 kmh NE 8.3 mph13.4 kmh 29.09 in985.1 mb 0.00 in0.0 mm 0.00 in0.0 mm 0.00 in0.0 mm
03:08 PM 57.0°F13.9°C 31.0°F-0.6°C 37% 3.1 mph NE5.0 kmh NE 9.2 mph14.8 kmh 29.09 in985.1 mb 0.00 in0.0 mm 0.00 in0.0 mm 0.00 in0.0 mm
03:07 PM 57.2°F14.0°C 31.2°F-0.4°C 37% 2.2 mph NE3.5 kmh NE 9.2 mph14.8 kmh 29.09 in985.1 mb 0.00 in0.0 mm 0.00 in0.0 mm 0.00 in0.0 mm
03:06 PM 57.4°F14.1°C 31.3°F-0.4°C 37% 5.4 mph NE8.7 kmh NE 9.2 mph14.8 kmh 29.09 in985.1 mb 0.00 in0.0 mm 0.00 in0.0 mm 0.00 in0.0 mm
03:05 PM 57.6°F14.2°C 31.5°F-0.3°C 37% 5.4 mph NE8.7 kmh NE 9.2 mph14.8 kmh 29.09 in985.1 mb 0.00 in0.0 mm 0.00 in0.0 mm 0.00 in0.0 mm
03:04 PM 57.6°F14.2°C 31.5°F-0.3°C 37% 3.8 mph NE6.1 kmh NE 9.2 mph14.8 kmh 29.09 in985.1 mb 0.00 in0.0 mm 0.00 in0.0 mm 0.00 in0.0 mm
03:03 PM 57.7°F14.3°C 31.7°F-0.2°C 37% 1.6 mph NE2.6 kmh NE 9.2 mph14.8 kmh 29.09 in985.1 mb 0.00 in0.0 mm 0.00 in0.0 mm 0.00 in0.0 mm
03:02 PM 57.7°F14.3°C 31.7°F-0.2°C 37% 3.8 mph NE6.1 kmh NE 9.2 mph14.8 kmh 29.08 in984.8 mb 0.00 in0.0 mm 0.00 in0.0 mm 0.00 in0.0 mm
03:01 PM 57.9°F14.4°C 31.8°F-0.1°C 37% 4.5 mph NE7.2 kmh NE 9.2 mph14.8 kmh 29.08 in984.8 mb 0.00 in0.0 mm 0.00 in0.0 mm 0.00 in0.0 mm
03:00 PM 57.9°F14.4°C 31.8°F-0.1°C 37% 2.2 mph NE3.5 kmh NE 9.2 mph14.8 kmh 29.08 in984.8 mb 0.00 in0.0 mm 0.00 in0.0 mm 0.00 in0.0 mm
02:59 PM 58.3°F14.6°C 32.1°F0.1°C 37% 4.5 mph NE7.2 kmh NE 9.2 mph14.8 kmh 29.09 in985.1 mb 0.00 in0.0 mm 0.00 in0.0 mm 0.00 in0.0 mm
02:58 PM 58.5°F14.7°C 32.3°F0.2°C 37% 1.6 mph NE2.6 kmh NE 8.3 mph13.4 kmh 29.09 in985.1 mb 0.00 in0.0 mm 0.00 in0.0 mm 0.00 in0.0 mm
02:57 PM 58.6°F14.8°C 32.5°F0.3°C 37% 5.4 mph NE8.7 kmh NE 8.3 mph13.4 kmh 29.09 in985.1 mb 0.00 in0.0 mm 0.00 in0.0 mm 0.00 in0.0 mm
02:56 PM 58.8°F14.9°C 32.6°F0.3°C 37% 4.5 mph NE7.2 kmh NE 7.6 mph12.2 kmh 29.09 in985.1 mb 0.00 in0.0 mm 0.00 in0.0 mm 0.00 in0.0 mm
02:55 PM 59.0°F15.0°C 32.8°F0.4°C 37% 4.5 mph NE7.2 kmh NE 7.6 mph12.2 kmh 29.09 in985.1 mb 0.00 in0.0 mm 0.00 in0.0 mm 0.00 in0.0 mm
02:54 PM 59.0°F15.0°C 32.8°F0.4°C 37% 3.1 mph NE5.0 kmh NE 8.3 mph13.4 kmh 29.09 in985.1 mb 0.00 in0.0 mm 0.00 in0.0 mm 0.00 in0.0 mm
02:53 PM 59.0°F15.0°C 32.8°F0.4°C 37% 4.5 mph NE7.2 kmh NE 8.3 mph13.4 kmh 29.08 in984.8 mb 0.00 in0.0 mm 0.00 in0.0 mm 0.00 in0.0 mm
02:52 PM 58.8°F14.9°C 32.6°F0.3°C 37% 1.6 mph NE2.6 kmh NE 8.3 mph13.4 kmh 29.08 in984.8 mb 0.00 in0.0 mm 0.00 in0.0 mm 0.00 in0.0 mm
02:51 PM 58.8°F14.9°C 32.6°F0.3°C 37% 2.2 mph NE3.5 kmh NE 8.3 mph13.4 kmh 29.09 in985.1 mb 0.00 in0.0 mm 0.00 in0.0 mm 0.00 in0.0 mm
02:50 PM 58.8°F14.9°C 32.6°F0.3°C 37% 0.7 mph NE1.1 kmh NE 9.8 mph15.8 kmh 29.08 in984.8 mb 0.00 in0.0 mm 0.00 in0.0 mm 0.00 in0.0 mm
02:49 PM 58.6°F14.8°C 32.5°F0.3°C 37% 2.2 mph NE3.5 kmh NE 9.8 mph15.8 kmh 29.08 in984.8 mb 0.00 in0.0 mm 0.00 in0.0 mm 0.00 in0.0 mm
02:48 PM 58.6°F14.8°C 32.5°F0.3°C 37% 2.2 mph NE3.5 kmh NE 9.8 mph15.8 kmh 29.08 in984.8 mb 0.00 in0.0 mm 0.00 in0.0 mm 0.00 in0.0 mm
02:47 PM 58.3°F14.6°C 32.1°F0.1°C 37% 3.8 mph NE6.1 kmh NE 10.7 mph17.2 kmh 29.09 in985.1 mb 0.00 in0.0 mm 0.00 in0.0 mm 0.00 in0.0 mm
02:46 PM 58.3°F14.6°C 32.1°F0.1°C 37% 3.1 mph NE5.0 kmh NE 10.7 mph17.2 kmh 29.09 in985.1 mb 0.00 in0.0 mm 0.00 in0.0 mm 0.00 in0.0 mm
02:45 PM 58.3°F14.6°C 32.1°F0.1°C 37% 4.5 mph NE7.2 kmh NE 10.7 mph17.2 kmh 29.09 in985.1 mb 0.00 in0.0 mm 0.00 in0.0 mm 0.00 in0.0 mm
02:44 PM 58.3°F14.6°C 32.1°F0.1°C 37% 4.5 mph NE7.2 kmh NE 10.7 mph17.2 kmh 29.09 in985.1 mb 0.00 in0.0 mm 0.00 in0.0 mm 0.00 in0.0 mm
02:43 PM 58.1°F14.5°C 32.0°F0.0°C 37% 2.2 mph NE3.5 kmh NE 10.7 mph17.2 kmh 29.09 in985.1 mb 0.00 in0.0 mm 0.00 in0.0 mm 0.00 in0.0 mm
02:42 PM 58.1°F14.5°C 32.0°F0.0°C 37% 1.6 mph NE2.6 kmh NE 10.7 mph17.2 kmh 29.09 in985.1 mb 0.00 in0.0 mm 0.00 in0.0 mm 0.00 in0.0 mm
02:41 PM 58.1°F14.5°C 32.0°F0.0°C 37% 2.2 mph NE3.5 kmh NE 10.7 mph17.2 kmh 29.08 in984.8 mb 0.00 in0.0 mm 0.00 in0.0 mm 0.00 in0.0 mm
02:40 PM 58.1°F14.5°C 32.0°F0.0°C 37% 4.5 mph NE7.2 kmh NE 10.7 mph17.2 kmh 29.08 in984.8 mb 0.00 in0.0 mm 0.00 in0.0 mm 0.00 in0.0 mm
02:39 PM 58.1°F14.5°C 32.0°F0.0°C 37% 4.5 mph NE7.2 kmh NE 10.7 mph17.2 kmh 29.09 in985.1 mb 0.00 in0.0 mm 0.00 in0.0 mm 0.00 in0.0 mm
02:38 PM 58.3°F14.6°C 32.1°F0.1°C 37% 3.8 mph NE6.1 kmh NE 10.7 mph17.2 kmh 29.09 in985.1 mb 0.00 in0.0 mm 0.00 in0.0 mm 0.00 in0.0 mm
02:37 PM 58.5°F14.7°C 32.3°F0.2°C 37% 8.3 mph NE13.4 kmh NE 10.7 mph17.2 kmh 29.09 in985.1 mb 0.00 in0.0 mm 0.00 in0.0 mm 0.00 in0.0 mm
02:36 PM 58.5°F14.7°C 32.3°F0.2°C 37% 7.6 mph NE12.2 kmh NE 10.7 mph17.2 kmh 29.09 in985.1 mb 0.00 in0.0 mm 0.00 in0.0 mm 0.00 in0.0 mm
02:35 PM 58.6°F14.8°C 32.5°F0.3°C 37% 3.8 mph NE6.1 kmh NE 10.7 mph17.2 kmh 29.09 in985.1 mb 0.00 in0.0 mm 0.00 in0.0 mm 0.00 in0.0 mm
02:34 PM 58.8°F14.9°C 32.6°F0.3°C 37% 4.5 mph NE7.2 kmh NE 10.7 mph17.2 kmh 29.09 in985.1 mb 0.00 in0.0 mm 0.00 in0.0 mm 0.00 in0.0 mm
02:33 PM 58.8°F14.9°C 32.6°F0.3°C 37% 6.9 mph NE11.1 kmh NE 10.7 mph17.2 kmh 29.09 in985.1 mb 0.00 in0.0 mm 0.00 in0.0 mm 0.00 in0.0 mm
02:32 PM 58.8°F14.9°C 32.6°F0.3°C 37% 6.0 mph NE9.7 kmh NE 10.7 mph17.2 kmh 29.09 in985.1 mb 0.00 in0.0 mm 0.00 in0.0 mm 0.00 in0.0 mm
02:31 PM 59.0°F15.0°C 32.8°F0.4°C 37% 6.9 mph NE11.1 kmh NE 10.7 mph17.2 kmh 29.10 in985.4 mb 0.00 in0.0 mm 0.00 in0.0 mm 0.00 in0.0 mm
02:30 PM 59.0°F15.0°C 32.8°F0.4°C 37% 6.9 mph NE11.1 kmh NE 9.2 mph14.8 kmh 29.09 in985.1 mb 0.00 in0.0 mm 0.00 in0.0 mm 0.00 in0.0 mm
02:29 PM 59.0°F15.0°C 32.8°F0.4°C 37% 3.8 mph NE6.1 kmh NE 9.2 mph14.8 kmh 29.09 in985.1 mb 0.00 in0.0 mm 0.00 in0.0 mm 0.00 in0.0 mm
02:28 PM 59.0°F15.0°C 32.8°F0.4°C 37% 4.5 mph NE7.2 kmh NE 9.2 mph14.8 kmh 29.10 in985.4 mb 0.00 in0.0 mm 0.00 in0.0 mm 0.00 in0.0 mm
02:27 PM 59.0°F15.0°C 32.8°F0.4°C 37% 4.5 mph NE7.2 kmh NE 9.2 mph14.8 kmh 29.09 in985.1 mb 0.00 in0.0 mm 0.00 in0.0 mm 0.00 in0.0 mm
02:26 PM 59.0°F15.0°C 32.8°F0.4°C 37% 5.4 mph NE8.7 kmh NE 9.2 mph14.8 kmh 29.10 in985.4 mb 0.00 in0.0 mm 0.00 in0.0 mm 0.00 in0.0 mm
02:25 PM 59.0°F15.0°C 32.8°F0.4°C 37% 3.8 mph NE6.1 kmh NE 9.2 mph14.8 kmh 29.10 in985.4 mb 0.00 in0.0 mm 0.00 in0.0 mm 0.00 in0.0 mm
02:24 PM 59.0°F15.0°C 32.8°F0.4°C 37% 3.8 mph NE6.1 kmh NE 9.2 mph14.8 kmh 29.10 in985.4 mb 0.00 in0.0 mm 0.00 in0.0 mm 0.00 in0.0 mm
02:23 PM 59.0°F15.0°C 32.8°F0.4°C 37% 6.0 mph NE9.7 kmh NE 9.2 mph14.8 kmh 29.09 in985.1 mb 0.00 in0.0 mm 0.00 in0.0 mm 0.00 in0.0 mm
02:22 PM 59.0°F15.0°C 32.8°F0.4°C 37% 3.8 mph NE6.1 kmh NE 9.2 mph14.8 kmh 29.09 in985.1 mb 0.00 in0.0 mm 0.00 in0.0 mm 0.00 in0.0 mm
02:21 PM 58.8°F14.9°C 32.6°F0.3°C 37% 6.0 mph NE9.7 kmh NE 9.2 mph14.8 kmh 29.10 in985.4 mb 0.00 in0.0 mm 0.00 in0.0 mm 0.00 in0.0 mm
02:20 PM 58.8°F14.9°C 32.6°F0.3°C 37% 6.0 mph ENE9.7 kmh ENE 9.8 mph15.8 kmh 29.10 in985.4 mb 0.00 in0.0 mm 0.00 in0.0 mm 0.00 in0.0 mm
02:19 PM 58.5°F14.7°C 32.3°F0.2°C 37% 3.8 mph ENE6.1 kmh ENE 9.8 mph15.8 kmh 29.09 in985.1 mb 0.00 in0.0 mm 0.00 in0.0 mm 0.00 in0.0 mm
02:18 PM 58.3°F14.6°C 32.1°F0.1°C 37% 3.8 mph E6.1 kmh E 9.8 mph15.8 kmh 29.09 in985.1 mb 0.00 in0.0 mm 0.00 in0.0 mm 0.00 in0.0 mm
02:17 PM 58.1°F14.5°C 32.0°F0.0°C 37% 3.8 mph E6.1 kmh E 9.8 mph15.8 kmh 29.10 in985.4 mb 0.00 in0.0 mm 0.00 in0.0 mm 0.00 in0.0 mm
02:16 PM 58.1°F14.5°C 32.0°F0.0°C 37% 1.6 mph E2.6 kmh E 9.8 mph15.8 kmh 29.10 in985.4 mb 0.00 in0.0 mm 0.00 in0.0 mm 0.00 in0.0 mm
02:15 PM 58.1°F14.5°C 32.0°F0.0°C 37% 3.8 mph E6.1 kmh E 9.8 mph15.8 kmh 29.10 in985.4 mb 0.00 in0.0 mm 0.00 in0.0 mm 0.00 in0.0 mm
02:14 PM 58.1°F14.5°C 32.0°F0.0°C 37% 5.4 mph ESE8.7 kmh ESE 9.8 mph15.8 kmh 29.10 in985.4 mb 0.00 in0.0 mm 0.00 in0.0 mm 0.00 in0.0 mm
02:13 PM 58.1°F14.5°C 32.0°F0.0°C 37% 4.5 mph ESE7.2 kmh ESE 9.8 mph15.8 kmh 29.10 in985.4 mb 0.00 in0.0 mm 0.00 in0.0 mm 0.00 in0.0 mm
02:12 PM 58.1°F14.5°C 32.0°F0.0°C 37% 4.5 mph ESE7.2 kmh ESE 9.8 mph15.8 kmh 29.10 in985.4 mb 0.00 in0.0 mm 0.00 in0.0 mm 0.00 in0.0 mm
02:11 PM 57.9°F14.4°C 31.8°F-0.1°C 37% 5.4 mph SE8.7 kmh SE 9.8 mph15.8 kmh 29.10 in985.4 mb 0.00 in0.0 mm 0.00 in0.0 mm 0.00 in0.0 mm
02:10 PM 57.9°F14.4°C 31.8°F-0.1°C 37% 3.1 mph SE5.0 kmh SE 8.3 mph13.4 kmh 29.10 in985.4 mb 0.00 in0.0 mm 0.00 in0.0 mm 0.00 in0.0 mm
02:09 PM 57.9°F14.4°C 31.8°F-0.1°C 37% 3.8 mph SE6.1 kmh SE 11.4 mph18.3 kmh 29.10 in985.4 mb 0.00 in0.0 mm 0.00 in0.0 mm 0.00 in0.0 mm
02:08 PM 57.9°F14.4°C 31.8°F-0.1°C 37% 6.0 mph SE9.7 kmh SE 11.4 mph18.3 kmh 29.09 in985.1 mb 0.00 in0.0 mm 0.00 in0.0 mm 0.00 in0.0 mm
02:07 PM 57.9°F14.4°C 31.8°F-0.1°C 37% 1.6 mph SE2.6 kmh SE 11.4 mph18.3 kmh 29.10 in985.4 mb 0.00 in0.0 mm 0.00 in0.0 mm 0.00 in0.0 mm
02:06 PM 57.7°F14.3°C 31.7°F-0.2°C 37% 1.6 mph SE2.6 kmh SE 12.1 mph19.5 kmh 29.10 in985.4 mb 0.00 in0.0 mm 0.00 in0.0 mm 0.00 in0.0 mm
02:05 PM 57.7°F14.3°C 31.7°F-0.2°C 37% 1.6 mph SE2.6 kmh SE 12.1 mph19.5 kmh 29.09 in985.1 mb 0.00 in0.0 mm 0.00 in0.0 mm 0.00 in0.0 mm
02:04 PM 57.6°F14.2°C 31.5°F-0.3°C 37% 2.2 mph SE3.5 kmh SE 12.1 mph19.5 kmh 29.10 in985.4 mb 0.00 in0.0 mm 0.00 in0.0 mm 0.00 in0.0 mm
02:03 PM 57.4°F14.1°C 31.3°F-0.4°C 37% 3.8 mph SE6.1 kmh SE 12.1 mph19.5 kmh 29.10 in985.4 mb 0.00 in0.0 mm 0.00 in0.0 mm 0.00 in0.0 mm
02:02 PM 57.4°F14.1°C 31.3°F-0.4°C 37% 4.5 mph SE7.2 kmh SE 14.5 mph23.3 kmh 29.10 in985.4 mb 0.00 in0.0 mm 0.00 in0.0 mm 0.00 in0.0 mm
02:01 PM 57.4°F14.1°C 31.3°F-0.4°C 37% 5.4 mph SE8.7 kmh SE 14.5 mph23.3 kmh 29.10 in985.4 mb 0.00 in0.0 mm 0.00 in0.0 mm 0.00 in0.0 mm
02:00 PM 57.4°F14.1°C 31.3°F-0.4°C 37% 5.4 mph SE8.7 kmh SE 14.5 mph23.3 kmh 29.10 in985.4 mb 0.00 in0.0 mm 0.00 in0.0 mm 0.00 in0.0 mm
01:59 PM 57.4°F14.1°C 31.3°F-0.4°C 37% 4.5 mph ESE7.2 kmh ESE 14.5 mph23.3 kmh 29.09 in985.1 mb 0.00 in0.0 mm 0.00 in0.0 mm 0.00 in0.0 mm
01:58 PM 57.4°F14.1°C 31.3°F-0.4°C 37% 5.4 mph ESE8.7 kmh ESE 14.5 mph23.3 kmh 29.10 in985.4 mb 0.00 in0.0 mm 0.00 in0.0 mm 0.00 in0.0 mm
01:57 PM 57.4°F14.1°C 31.3°F-0.4°C 37% 8.3 mph ESE13.4 kmh ESE 14.5 mph23.3 kmh 29.09 in985.1 mb 0.00 in0.0 mm 0.00 in0.0 mm 0.00 in0.0 mm
01:56 PM 57.2°F14.0°C 31.2°F-0.4°C 37% 6.9 mph ESE11.1 kmh ESE 14.5 mph23.3 kmh 29.10 in985.4 mb 0.00 in0.0 mm 0.00 in0.0 mm 0.00 in0.0 mm
01:55 PM 57.4°F14.1°C 31.3°F-0.4°C 37% 5.4 mph E8.7 kmh E 14.5 mph23.3 kmh 29.10 in985.4 mb 0.00 in0.0 mm 0.00 in0.0 mm 0.00 in0.0 mm
01:54 PM 57.4°F14.1°C 31.3°F-0.4°C 37% 6.9 mph E11.1 kmh E 14.5 mph23.3 kmh 29.10 in985.4 mb 0.00 in0.0 mm 0.00 in0.0 mm 0.00 in0.0 mm
01:53 PM 57.6°F14.2°C 31.5°F-0.3°C 37% 7.6 mph E12.2 kmh E 14.5 mph23.3 kmh 29.10 in985.4 mb 0.00 in0.0 mm 0.00 in0.0 mm 0.00 in0.0 mm
01:52 PM 57.7°F14.3°C 31.7°F-0.2°C 37% 9.8 mph ENE15.8 kmh ENE 14.5 mph23.3 kmh 29.10 in985.4 mb 0.00 in0.0 mm 0.00 in0.0 mm 0.00 in0.0 mm
01:51 PM 57.9°F14.4°C 31.8°F-0.1°C 37% 5.4 mph ENE8.7 kmh ENE 13.6 mph21.9 kmh 29.10 in985.4 mb 0.00 in0.0 mm 0.00 in0.0 mm 0.00 in0.0 mm
01:50 PM 57.9°F14.4°C 31.8°F-0.1°C 37% 6.9 mph NE11.1 kmh NE 13.6 mph21.9 kmh 29.10 in985.4 mb 0.00 in0.0 mm 0.00 in0.0 mm 0.00 in0.0 mm
01:49 PM 57.7°F14.3°C 31.7°F-0.2°C 37% 6.0 mph NE9.7 kmh NE 13.6 mph21.9 kmh 29.10 in985.4 mb 0.00 in0.0 mm 0.00 in0.0 mm 0.00 in0.0 mm
01:48 PM 57.7°F14.3°C 31.7°F-0.2°C 37% 3.1 mph NE5.0 kmh NE 13.6 mph21.9 kmh 29.10 in985.4 mb 0.00 in0.0 mm 0.00 in0.0 mm 0.00 in0.0 mm
01:47 PM 57.9°F14.4°C 31.8°F-0.1°C 37% 6.0 mph NNE9.7 kmh NNE 13.6 mph21.9 kmh 29.10 in985.4 mb 0.00 in0.0 mm 0.00 in0.0 mm 0.00 in0.0 mm
01:46 PM 57.9°F14.4°C 31.8°F-0.1°C 37% 4.5 mph NNE7.2 kmh NNE 13.6 mph21.9 kmh 29.10 in985.4 mb 0.00 in0.0 mm 0.00 in0.0 mm 0.00 in0.0 mm
01:45 PM 57.9°F14.4°C 31.8°F-0.1°C 37% 6.0 mph NNE9.7 kmh NNE 13.6 mph21.9 kmh 29.10 in985.4 mb 0.00 in0.0 mm 0.00 in0.0 mm 0.00 in0.0 mm
01:44 PM 58.1°F14.5°C 32.0°F0.0°C 37% 6.9 mph N11.1 kmh N 13.6 mph21.9 kmh 29.11 in985.8 mb 0.00 in0.0 mm 0.00 in0.0 mm 0.00 in0.0 mm
01:43 PM 58.5°F14.7°C 32.3°F0.2°C 37% 8.3 mph N13.4 kmh N 13.6 mph21.9 kmh 29.10 in985.4 mb 0.00 in0.0 mm 0.00 in0.0 mm 0.00 in0.0 mm
01:42 PM 58.5°F14.7°C 32.3°F0.2°C 37% 7.6 mph N12.2 kmh N 13.0 mph20.9 kmh 29.10 in985.4 mb 0.00 in0.0 mm 0.00 in0.0 mm 0.00 in0.0 mm
01:41 PM 58.5°F14.7°C 32.3°F0.2°C 37% 6.0 mph N9.7 kmh N 13.0 mph20.9 kmh 29.10 in985.4 mb 0.00 in0.0 mm 0.00 in0.0 mm 0.00 in0.0 mm
01:40 PM 58.5°F14.7°C 32.3°F0.2°C 37% 1.6 mph N2.6 kmh N 13.0 mph20.9 kmh 29.10 in985.4 mb 0.00 in0.0 mm 0.00 in0.0 mm 0.00 in0.0 mm
01:39 PM 58.5°F14.7°C 32.3°F0.2°C 37% 6.9 mph N11.1 kmh N 13.0 mph20.9 kmh 29.10 in985.4 mb 0.00 in0.0 mm 0.00 in0.0 mm 0.00 in0.0 mm
01:38 PM 58.6°F14.8°C 32.5°F0.3°C 37% 5.4 mph N8.7 kmh N 13.0 mph20.9 kmh 29.10 in985.4 mb 0.00 in0.0 mm 0.00 in0.0 mm 0.00 in0.0 mm
01:37 PM 58.8°F14.9°C 32.6°F0.3°C 37% 10.7 mph N17.2 kmh N 13.0 mph20.9 kmh 29.10 in985.4 mb 0.00 in0.0 mm 0.00 in0.0 mm 0.00 in0.0 mm
01:36 PM 58.8°F14.9°C 32.6°F0.3°C 37% 4.5 mph N7.2 kmh N 12.1 mph19.5 kmh 29.10 in985.4 mb 0.00 in0.0 mm 0.00 in0.0 mm 0.00 in0.0 mm
01:35 PM 58.3°F14.6°C 32.1°F0.1°C 37% 2.2 mph NNW3.5 kmh NNW 12.1 mph19.5 kmh 29.11 in985.8 mb 0.00 in0.0 mm 0.00 in0.0 mm 0.00 in0.0 mm
01:34 PM 58.1°F14.5°C 32.0°F0.0°C 37% 2.2 mph NW3.5 kmh NW 12.1 mph19.5 kmh 29.10 in985.4 mb 0.00 in0.0 mm 0.00 in0.0 mm 0.00 in0.0 mm
01:33 PM 57.9°F14.4°C 31.8°F-0.1°C 37% 0.7 mph NW1.1 kmh NW 12.1 mph19.5 kmh 29.11 in985.8 mb 0.00 in0.0 mm 0.00 in0.0 mm 0.00 in0.0 mm
01:32 PM 57.7°F14.3°C 31.7°F-0.2°C 37% 1.6 mph NW2.6 kmh NW 12.1 mph19.5 kmh 29.11 in985.8 mb 0.00 in0.0 mm 0.00 in0.0 mm 0.00 in0.0 mm
01:31 PM 57.7°F14.3°C 31.7°F-0.2°C 37% 5.4 mph NW8.7 kmh NW 12.1 mph19.5 kmh 29.11 in985.8 mb 0.00 in0.0 mm 0.00 in0.0 mm 0.00 in0.0 mm
01:30 PM 57.7°F14.3°C 31.7°F-0.2°C 37% 2.2 mph WNW3.5 kmh WNW 12.1 mph19.5 kmh 29.11 in985.8 mb 0.00 in0.0 mm 0.00 in0.0 mm 0.00 in0.0 mm
01:29 PM 57.9°F14.4°C 31.8°F-0.1°C 37% 4.5 mph WNW7.2 kmh WNW 12.1 mph19.5 kmh 29.11 in985.8 mb 0.00 in0.0 mm 0.00 in0.0 mm 0.00 in0.0 mm
01:28 PM 58.1°F14.5°C 32.0°F0.0°C 37% 9.2 mph W14.8 kmh W 12.1 mph19.5 kmh 29.11 in985.8 mb 0.00 in0.0 mm 0.00 in0.0 mm 0.00 in0.0 mm
01:27 PM 58.3°F14.6°C 32.1°F0.1°C 37% 8.3 mph W13.4 kmh W 12.1 mph19.5 kmh 29.12 in986.1 mb 0.00 in0.0 mm 0.00 in0.0 mm 0.00 in0.0 mm
01:26 PM 58.5°F14.7°C 32.3°F0.2°C 37% 5.4 mph W8.7 kmh W 12.1 mph19.5 kmh 29.12 in986.1 mb 0.00 in0.0 mm 0.00 in0.0 mm 0.00 in0.0 mm
01:25 PM 58.5°F14.7°C 32.3°F0.2°C 37% 3.8 mph W6.1 kmh W 12.1 mph19.5 kmh 29.11 in985.8 mb 0.00 in0.0 mm 0.00 in0.0 mm 0.00 in0.0 mm
01:24 PM 58.5°F14.7°C 32.3°F0.2°C 37% 3.8 mph W6.1 kmh W 12.1 mph19.5 kmh 29.11 in985.8 mb 0.00 in0.0 mm 0.00 in0.0 mm 0.00 in0.0 mm
01:23 PM 58.3°F14.6°C 32.1°F0.1°C 37% 3.1 mph WNW5.0 kmh WNW 12.1 mph19.5 kmh 29.11 in985.8 mb 0.00 in0.0 mm 0.00 in0.0 mm 0.00 in0.0 mm
01:22 PM 58.1°F14.5°C 32.0°F0.0°C 37% 1.6 mph WNW2.6 kmh WNW 12.1 mph19.5 kmh 29.11 in985.8 mb 0.00 in0.0 mm 0.00 in0.0 mm 0.00 in0.0 mm
01:21 PM 57.9°F14.4°C 31.8°F-0.1°C 37% 3.8 mph NW6.1 kmh NW 12.1 mph19.5 kmh 29.11 in985.8 mb 0.00 in0.0 mm 0.00 in0.0 mm 0.00 in0.0 mm
01:20 PM 58.1°F14.5°C 32.0°F0.0°C 37% 5.4 mph NW8.7 kmh NW 12.1 mph19.5 kmh 29.11 in985.8 mb 0.00 in0.0 mm 0.00 in0.0 mm 0.00 in0.0 mm
01:19 PM 58.1°F14.5°C 32.0°F0.0°C 37% 5.4 mph NW8.7 kmh NW 12.1 mph19.5 kmh 29.11 in985.8 mb 0.00 in0.0 mm 0.00 in0.0 mm 0.00 in0.0 mm
01:18 PM 58.5°F14.7°C 32.3°F0.2°C 37% 6.9 mph NNW11.1 kmh NNW 12.1 mph19.5 kmh 29.11 in985.8 mb 0.00 in0.0 mm 0.00 in0.0 mm 0.00 in0.0 mm
01:17 PM 58.5°F14.7°C 32.3°F0.2°C 37% 6.9 mph N11.1 kmh N 12.1 mph19.5 kmh 29.11 in985.8 mb 0.00 in0.0 mm 0.00 in0.0 mm 0.00 in0.0 mm
01:16 PM 58.5°F14.7°C 32.3°F0.2°C 37% 3.8 mph N6.1 kmh N 12.1 mph19.5 kmh 29.11 in985.8 mb 0.00 in0.0 mm 0.00 in0.0 mm 0.00 in0.0 mm
01:15 PM 58.5°F14.7°C 32.3°F0.2°C 37% 3.1 mph N5.0 kmh N 9.8 mph15.8 kmh 29.11 in985.8 mb 0.00 in0.0 mm 0.00 in0.0 mm 0.00 in0.0 mm
01:14 PM 58.5°F14.7°C 32.3°F0.2°C 37% 3.8 mph N6.1 kmh N 9.8 mph15.8 kmh 29.11 in985.8 mb 0.00 in0.0 mm 0.00 in0.0 mm 0.00 in0.0 mm
01:13 PM 58.6°F14.8°C 32.5°F0.3°C 37% 4.5 mph N7.2 kmh N 9.8 mph15.8 kmh 29.10 in985.4 mb 0.00 in0.0 mm 0.00 in0.0 mm 0.00 in0.0 mm
01:12 PM 58.6°F14.8°C 32.5°F0.3°C 37% 6.9 mph N11.1 kmh N 9.8 mph15.8 kmh 29.11 in985.8 mb 0.00 in0.0 mm 0.00 in0.0 mm 0.00 in0.0 mm
01:11 PM 58.8°F14.9°C 32.6°F0.3°C 37% 1.6 mph N2.6 kmh N 7.6 mph12.2 kmh 29.11 in985.8 mb 0.00 in0.0 mm 0.00 in0.0 mm 0.00 in0.0 mm
01:10 PM 58.6°F14.8°C 32.5°F0.3°C 37% 1.6 mph N2.6 kmh N 7.6 mph12.2 kmh 29.11 in985.8 mb 0.00 in0.0 mm 0.00 in0.0 mm 0.00 in0.0 mm
01:09 PM 58.6°F14.8°C 32.5°F0.3°C 37% 1.6 mph N2.6 kmh N 7.6 mph12.2 kmh 29.11 in985.8 mb 0.00 in0.0 mm 0.00 in0.0 mm 0.00 in0.0 mm
01:08 PM 58.5°F14.7°C 32.3°F0.2°C 37% 3.1 mph N5.0 kmh N 7.6 mph12.2 kmh 29.11 in985.8 mb 0.00 in0.0 mm 0.00 in0.0 mm 0.00 in0.0 mm
01:07 PM 58.3°F14.6°C 32.1°F0.1°C 37% 6.0 mph N9.7 kmh N 7.6 mph12.2 kmh 29.11 in985.8 mb 0.00 in0.0 mm 0.00 in0.0 mm 0.00 in0.0 mm
01:06 PM 58.5°F14.7°C 32.3°F0.2°C 37% 4.5 mph NNW7.2 kmh NNW 7.6 mph12.2 kmh 29.11 in985.8 mb 0.00 in0.0 mm 0.00 in0.0 mm 0.00 in0.0 mm
01:05 PM 58.5°F14.7°C 32.3°F0.2°C 37% 4.5 mph NNW7.2 kmh NNW 7.6 mph12.2 kmh 29.11 in985.8 mb 0.00 in0.0 mm 0.00 in0.0 mm 0.00 in0.0 mm
01:04 PM 58.5°F14.7°C 32.3°F0.2°C 37% 2.2 mph NNW3.5 kmh NNW 6.0 mph9.7 kmh 29.11 in985.8 mb 0.00 in0.0 mm 0.00 in0.0 mm 0.00 in0.0 mm
01:03 PM 58.5°F14.7°C 32.3°F0.2°C 37% 0.7 mph NW1.1 kmh NW 6.0 mph9.7 kmh 29.11 in985.8 mb 0.00 in0.0 mm 0.00 in0.0 mm 0.00 in0.0 mm
01:02 PM 58.5°F14.7°C 32.3°F0.2°C 37% 0.7 mph NW1.1 kmh NW 6.0 mph9.7 kmh 29.11 in985.8 mb 0.00 in0.0 mm 0.00 in0.0 mm 0.00 in0.0 mm
01:01 PM 58.6°F14.8°C 32.5°F0.3°C 37% 2.2 mph NW3.5 kmh NW 6.0 mph9.7 kmh 29.11 in985.8 mb 0.00 in0.0 mm 0.00 in0.0 mm 0.00 in0.0 mm
01:00 PM 58.6°F14.8°C 32.5°F0.3°C 37% 4.5 mph NW7.2 kmh NW 6.9 mph11.1 kmh 29.11 in985.8 mb 0.00 in0.0 mm 0.00 in0.0 mm 0.00 in0.0 mm
12:59 PM 58.8°F14.9°C 32.6°F0.3°C 37% 3.1 mph NW5.0 kmh NW 6.9 mph11.1 kmh 29.11 in985.8 mb 0.00 in0.0 mm 0.00 in0.0 mm 0.00 in0.0 mm
12:58 PM 58.8°F14.9°C 32.6°F0.3°C 37% 3.8 mph NW6.1 kmh NW 6.9 mph11.1 kmh 29.11 in985.8 mb 0.00 in0.0 mm 0.00 in0.0 mm 0.00 in0.0 mm
12:57 PM 58.6°F14.8°C 32.5°F0.3°C 37% 2.2 mph NW3.5 kmh NW 6.9 mph11.1 kmh 29.11 in985.8 mb 0.00 in0.0 mm 0.00 in0.0 mm 0.00 in0.0 mm
12:56 PM 58.6°F14.8°C 32.5°F0.3°C 37% 4.5 mph NW7.2 kmh NW 6.9 mph11.1 kmh 29.11 in985.8 mb 0.00 in0.0 mm 0.00 in0.0 mm 0.00 in0.0 mm
12:55 PM 58.1°F14.5°C 32.0°F0.0°C 37% 3.1 mph NW5.0 kmh NW 6.9 mph11.1 kmh 29.12 in986.1 mb 0.00 in0.0 mm 0.00 in0.0 mm 0.00 in0.0 mm
12:54 PM 57.9°F14.4°C 31.8°F-0.1°C 37% 0.7 mph NW1.1 kmh NW 6.9 mph11.1 kmh 29.11 in985.8 mb 0.00 in0.0 mm 0.00 in0.0 mm 0.00 in0.0 mm
12:53 PM 57.7°F14.3°C 31.7°F-0.2°C 37% 2.2 mph NW3.5 kmh NW 6.9 mph11.1 kmh 29.11 in985.8 mb 0.00 in0.0 mm 0.00 in0.0 mm 0.00 in0.0 mm
12:52 PM 57.6°F14.2°C 31.5°F-0.3°C 37% 3.8 mph NW6.1 kmh NW 6.9 mph11.1 kmh 29.12 in986.1 mb 0.00 in0.0 mm 0.00 in0.0 mm 0.00 in0.0 mm
12:51 PM 57.6°F14.2°C 31.5°F-0.3°C 37% 3.8 mph NW6.1 kmh NW 6.9 mph11.1 kmh 29.11 in985.8 mb 0.00 in0.0 mm 0.00 in0.0 mm 0.00 in0.0 mm
12:50 PM 57.4°F14.1°C 31.3°F-0.4°C 37% 4.5 mph NW7.2 kmh NW 6.9 mph11.1 kmh 29.11 in985.8 mb 0.00 in0.0 mm 0.00 in0.0 mm 0.00 in0.0 mm
12:49 PM 57.2°F14.0°C 31.2°F-0.4°C 37% 0.7 mph NW1.1 kmh NW 5.4 mph8.7 kmh 29.11 in985.8 mb 0.00 in0.0 mm 0.00 in0.0 mm 0.00 in0.0 mm
12:48 PM 57.0°F13.9°C 31.0°F-0.6°C 37% 2.2 mph NW3.5 kmh NW 6.9 mph11.1 kmh 29.11 in985.8 mb 0.00 in0.0 mm 0.00 in0.0 mm 0.00 in0.0 mm
12:47 PM 57.2°F14.0°C 31.2°F-0.4°C 37% 3.1 mph NW5.0 kmh NW 7.6 mph12.2 kmh 29.11 in985.8 mb 0.00 in0.0 mm 0.00 in0.0 mm 0.00 in0.0 mm
12:46 PM 57.2°F14.0°C 31.2°F-0.4°C 37% 3.1 mph NW5.0 kmh NW 7.6 mph12.2 kmh 29.12 in986.1 mb 0.00 in0.0 mm 0.00 in0.0 mm 0.00 in0.0 mm
12:45 PM 57.2°F14.0°C 31.2°F-0.4°C 37% 0.7 mph NW1.1 kmh NW 7.6 mph12.2 kmh 29.12 in986.1 mb 0.00 in0.0 mm 0.00 in0.0 mm 0.00 in0.0 mm
12:44 PM 57.4°F14.1°C 31.3°F-0.4°C 37% 2.2 mph NW3.5 kmh NW 11.4 mph18.3 kmh 29.12 in986.1 mb 0.00 in0.0 mm 0.00 in0.0 mm 0.00 in0.0 mm
12:43 PM 57.6°F14.2°C 31.5°F-0.3°C 37% 3.8 mph NW6.1 kmh NW 11.4 mph18.3 kmh 29.11 in985.8 mb 0.00 in0.0 mm 0.00 in0.0 mm 0.00 in0.0 mm
12:42 PM 57.7°F14.3°C 31.7°F-0.2°C 37% 1.6 mph NW2.6 kmh NW 11.4 mph18.3 kmh 29.11 in985.8 mb 0.00 in0.0 mm 0.00 in0.0 mm 0.00 in0.0 mm
12:41 PM 57.7°F14.3°C 31.7°F-0.2°C 37% 1.6 mph NW2.6 kmh NW 11.4 mph18.3 kmh 29.12 in986.1 mb 0.00 in0.0 mm 0.00 in0.0 mm 0.00 in0.0 mm
12:40 PM 57.6°F14.2°C 31.5°F-0.3°C 37% 1.6 mph NW2.6 kmh NW 11.4 mph18.3 kmh 29.11 in985.8 mb 0.00 in0.0 mm 0.00 in0.0 mm 0.00 in0.0 mm
12:39 PM 57.6°F14.2°C 31.5°F-0.3°C 37% 2.2 mph NW3.5 kmh NW 11.4 mph18.3 kmh 29.11 in985.8 mb 0.00 in0.0 mm 0.00 in0.0 mm 0.00 in0.0 mm
12:38 PM 57.6°F14.2°C 31.5°F-0.3°C 37% 3.8 mph NW6.1 kmh NW 11.4 mph18.3 kmh 29.11 in985.8 mb 0.00 in0.0 mm 0.00 in0.0 mm 0.00 in0.0 mm
12:37 PM 57.6°F14.2°C 31.5°F-0.3°C 37% 3.1 mph NW5.0 kmh NW 11.4 mph18.3 kmh 29.11 in985.8 mb 0.00 in0.0 mm 0.00 in0.0 mm 0.00 in0.0 mm
12:36 PM 57.4°F14.1°C 31.3°F-0.4°C 37% 1.6 mph NW2.6 kmh NW 11.4 mph18.3 kmh 29.12 in986.1 mb 0.00 in0.0 mm 0.00 in0.0 mm 0.00 in0.0 mm
12:35 PM 57.2°F14.0°C 31.2°F-0.4°C 37% 3.8 mph NW6.1 kmh NW 11.4 mph18.3 kmh 29.12 in986.1 mb 0.00 in0.0 mm 0.00 in0.0 mm 0.00 in0.0 mm
12:34 PM 57.2°F14.0°C 31.2°F-0.4°C 37% 7.6 mph NNW12.2 kmh NNW 11.4 mph18.3 kmh 29.12 in986.1 mb 0.00 in0.0 mm 0.00 in0.0 mm 0.00 in0.0 mm
12:33 PM 57.2°F14.0°C 31.2°F-0.4°C 37% 6.0 mph NNW9.7 kmh NNW 9.2 mph14.8 kmh 29.12 in986.1 mb 0.00 in0.0 mm 0.00 in0.0 mm 0.00 in0.0 mm
12:32 PM 57.0°F13.9°C 31.0°F-0.6°C 37% 1.6 mph NW2.6 kmh NW 8.3 mph13.4 kmh 29.12 in986.1 mb 0.00 in0.0 mm 0.00 in0.0 mm 0.00 in0.0 mm
12:31 PM 57.0°F13.9°C 31.0°F-0.6°C 37% 1.6 mph NW2.6 kmh NW 8.3 mph13.4 kmh 29.12 in986.1 mb 0.00 in0.0 mm 0.00 in0.0 mm 0.00 in0.0 mm
12:30 PM 57.0°F13.9°C 31.0°F-0.6°C 37% 4.5 mph NW7.2 kmh NW 8.3 mph13.4 kmh 29.13 in986.5 mb 0.00 in0.0 mm 0.00 in0.0 mm 0.00 in0.0 mm
12:29 PM 57.0°F13.9°C 31.0°F-0.6°C 37% 3.8 mph NW6.1 kmh NW 8.3 mph13.4 kmh 29.12 in986.1 mb 0.00 in0.0 mm 0.00 in0.0 mm 0.00 in0.0 mm
12:28 PM 56.8°F13.8°C 30.9°F-0.6°C 37% 3.8 mph NW6.1 kmh NW 8.3 mph13.4 kmh 29.12 in986.1 mb 0.00 in0.0 mm 0.00 in0.0 mm 0.00 in0.0 mm
12:27 PM 56.5°F13.6°C 30.5°F-0.8°C 37% 4.5 mph WNW7.2 kmh WNW 8.3 mph13.4 kmh 29.12 in986.1 mb 0.00 in0.0 mm 0.00 in0.0 mm 0.00 in0.0 mm
12:26 PM 56.5°F13.6°C 30.5°F-0.8°C 37% 2.2 mph W3.5 kmh W 6.0 mph9.7 kmh 29.12 in986.1 mb 0.00 in0.0 mm 0.00 in0.0 mm 0.00 in0.0 mm
12:25 PM 56.7°F13.7°C 30.7°F-0.7°C 37% 4.5 mph W7.2 kmh W 6.0 mph9.7 kmh 29.12 in986.1 mb 0.00 in0.0 mm 0.00 in0.0 mm 0.00 in0.0 mm
12:24 PM 56.7°F13.7°C 30.7°F-0.7°C 37% 1.6 mph W2.6 kmh W 8.3 mph13.4 kmh 29.12 in986.1 mb 0.00 in0.0 mm 0.00 in0.0 mm 0.00 in0.0 mm
12:23 PM 56.8°F13.8°C 30.9°F-0.6°C 37% 2.2 mph W3.5 kmh W 8.3 mph13.4 kmh 29.12 in986.1 mb 0.00 in0.0 mm 0.00 in0.0 mm 0.00 in0.0 mm
12:22 PM 57.0°F13.9°C 31.0°F-0.6°C 37% 2.2 mph W3.5 kmh W 8.3 mph13.4 kmh 29.12 in986.1 mb 0.00 in0.0 mm 0.00 in0.0 mm 0.00 in0.0 mm
12:21 PM 57.0°F13.9°C 31.0°F-0.6°C 37% 2.2 mph W3.5 kmh W 8.3 mph13.4 kmh 29.12 in986.1 mb 0.00 in0.0 mm 0.00 in0.0 mm 0.00 in0.0 mm
12:20 PM 57.0°F13.9°C 31.0°F-0.6°C 37% 3.8 mph W6.1 kmh W 8.3 mph13.4 kmh 29.12 in986.1 mb 0.00 in0.0 mm 0.00 in0.0 mm 0.00 in0.0 mm
12:19 PM 56.8°F13.8°C 30.9°F-0.6°C 37% 2.2 mph W3.5 kmh W 8.3 mph13.4 kmh 29.12 in986.1 mb 0.00 in0.0 mm 0.00 in0.0 mm 0.00 in0.0 mm
12:18 PM 56.7°F13.7°C 30.7°F-0.7°C 37% 2.2 mph W3.5 kmh W 8.3 mph13.4 kmh 29.12 in986.1 mb 0.00 in0.0 mm 0.00 in0.0 mm 0.00 in0.0 mm
12:17 PM 56.3°F13.5°C 30.4°F-0.9°C 37% 1.6 mph W2.6 kmh W 9.8 mph15.8 kmh 29.13 in986.5 mb 0.00 in0.0 mm 0.00 in0.0 mm 0.00 in0.0 mm
12:16 PM 56.1°F13.4°C 30.2°F-1.0°C 37% Calm Calm 9.8 mph15.8 kmh 29.12 in986.1 mb 0.00 in0.0 mm 0.00 in0.0 mm 0.00 in0.0 mm
12:15 PM 55.8°F13.2°C 29.9°F-1.2°C 37% 5.4 mph W8.7 kmh W 9.8 mph15.8 kmh 29.12 in986.1 mb 0.00 in0.0 mm 0.00 in0.0 mm 0.00 in0.0 mm
12:14 PM 55.8°F13.2°C 29.9°F-1.2°C 37% 5.4 mph W8.7 kmh W 9.8 mph15.8 kmh 29.13 in986.5 mb 0.00 in0.0 mm 0.00 in0.0 mm 0.00 in0.0 mm
12:13 PM 55.8°F13.2°C 29.9°F-1.2°C 37% 4.5 mph W7.2 kmh W 9.8 mph15.8 kmh 29.13 in986.5 mb 0.00 in0.0 mm 0.00 in0.0 mm 0.00 in0.0 mm
12:12 PM 55.9°F13.3°C 30.1°F-1.1°C 37% 1.6 mph W2.6 kmh W 9.8 mph15.8 kmh 29.12 in986.1 mb 0.00 in0.0 mm 0.00 in0.0 mm 0.00 in0.0 mm
12:11 PM 56.1°F13.4°C 30.2°F-1.0°C 37% 1.6 mph W2.6 kmh W 9.8 mph15.8 kmh 29.13 in986.5 mb 0.00 in0.0 mm 0.00 in0.0 mm 0.00 in0.0 mm
12:10 PM 56.1°F13.4°C 30.2°F-1.0°C 37% 3.8 mph W6.1 kmh W 9.8 mph15.8 kmh 29.13 in986.5 mb 0.00 in0.0 mm 0.00 in0.0 mm 0.00 in0.0 mm
12:09 PM 55.9°F13.3°C 30.1°F-1.1°C 37% 2.2 mph W3.5 kmh W 9.8 mph15.8 kmh 29.13 in986.5 mb 0.00 in0.0 mm 0.00 in0.0 mm 0.00 in0.0 mm
12:08 PM 55.9°F13.3°C 30.1°F-1.1°C 37% 4.5 mph W7.2 kmh W 9.8 mph15.8 kmh 29.13 in986.5 mb 0.00 in0.0 mm 0.00 in0.0 mm 0.00 in0.0 mm
12:07 PM 55.8°F13.2°C 29.9°F-1.2°C 37% 4.5 mph W7.2 kmh W 6.9 mph11.1 kmh 29.13 in986.5 mb 0.00 in0.0 mm 0.00 in0.0 mm 0.00 in0.0 mm
12:06 PM 55.6°F13.1°C 29.7°F-1.3°C 37% 5.4 mph W8.7 kmh W 6.9 mph11.1 kmh 29.13 in986.5 mb 0.00 in0.0 mm 0.00 in0.0 mm 0.00 in0.0 mm
12:05 PM 55.4°F13.0°C 29.6°F-1.3°C 37% 3.8 mph W6.1 kmh W 6.9 mph11.1 kmh 29.14 in986.8 mb 0.00 in0.0 mm 0.00 in0.0 mm 0.00 in0.0 mm
12:04 PM 55.2°F12.9°C 29.4°F-1.4°C 37% 1.6 mph W2.6 kmh W 6.9 mph11.1 kmh 29.14 in986.8 mb 0.00 in0.0 mm 0.00 in0.0 mm 0.00 in0.0 mm
12:03 PM 54.9°F12.7°C 29.1°F-1.6°C 37% 1.6 mph W2.6 kmh W 6.9 mph11.1 kmh 29.13 in986.5 mb 0.00 in0.0 mm 0.00 in0.0 mm 0.00 in0.0 mm
12:02 PM 54.7°F12.6°C 28.9°F-1.7°C 37% 3.1 mph W5.0 kmh W 6.9 mph11.1 kmh 29.13 in986.5 mb 0.00 in0.0 mm 0.00 in0.0 mm 0.00 in0.0 mm
12:01 PM 54.5°F12.5°C 28.8°F-1.8°C 37% 2.2 mph W3.5 kmh W 6.9 mph11.1 kmh 29.14 in986.8 mb 0.00 in0.0 mm 0.00 in0.0 mm 0.00 in0.0 mm
12:00 PM 54.3°F12.4°C 28.6°F-1.9°C 37% 3.1 mph W5.0 kmh W 6.9 mph11.1 kmh 29.14 in986.8 mb 0.00 in0.0 mm 0.00 in0.0 mm 0.00 in0.0 mm
11:59 AM 54.5°F12.5°C 28.8°F-1.8°C 37% 2.2 mph WSW3.5 kmh WSW 6.9 mph11.1 kmh 29.14 in986.8 mb 0.00 in0.0 mm 0.00 in0.0 mm 0.00 in0.0 mm
11:58 AM 54.5°F12.5°C 28.8°F-1.8°C 37% 1.6 mph WSW2.6 kmh WSW 6.9 mph11.1 kmh 29.14 in986.8 mb 0.00 in0.0 mm 0.00 in0.0 mm 0.00 in0.0 mm
11:57 AM 54.3°F12.4°C 28.6°F-1.9°C 37% 2.2 mph WSW3.5 kmh WSW 6.9 mph11.1 kmh 29.14 in986.8 mb 0.00 in0.0 mm 0.00 in0.0 mm 0.00 in0.0 mm
11:56 AM 54.3°F12.4°C 28.6°F-1.9°C 37% 1.6 mph WSW2.6 kmh WSW 6.9 mph11.1 kmh 29.15 in987.1 mb 0.00 in0.0 mm 0.00 in0.0 mm 0.00 in0.0 mm
11:55 AM 54.5°F12.5°C 28.8°F-1.8°C 37% 3.8 mph WSW6.1 kmh WSW 6.0 mph9.7 kmh 29.14 in986.8 mb 0.00 in0.0 mm 0.00 in0.0 mm 0.00 in0.0 mm
11:54 AM 54.7°F12.6°C 28.9°F-1.7°C 37% 3.1 mph WSW5.0 kmh WSW 6.0 mph9.7 kmh 29.14 in986.8 mb 0.00 in0.0 mm 0.00 in0.0 mm 0.00 in0.0 mm
11:53 AM 54.7°F12.6°C 28.9°F-1.7°C 37% 3.1 mph WSW5.0 kmh WSW 6.0 mph9.7 kmh 29.14 in986.8 mb 0.00 in0.0 mm 0.00 in0.0 mm 0.00 in0.0 mm
11:52 AM 54.7°F12.6°C 28.9°F-1.7°C 37% 3.8 mph SW6.1 kmh SW 6.0 mph9.7 kmh 29.14 in986.8 mb 0.00 in0.0 mm 0.00 in0.0 mm 0.00 in0.0 mm
11:51 AM 54.3°F12.4°C 28.6°F-1.9°C 37% 3.1 mph SW5.0 kmh SW 6.0 mph9.7 kmh 29.14 in986.8 mb 0.00 in0.0 mm 0.00 in0.0 mm 0.00 in0.0 mm
11:50 AM 54.1°F12.3°C 28.5°F-1.9°C 37% 3.8 mph SW6.1 kmh SW 6.0 mph9.7 kmh 29.14 in986.8 mb 0.00 in0.0 mm 0.00 in0.0 mm 0.00 in0.0 mm
11:49 AM 53.8°F12.1°C 28.1°F-2.2°C 37% 0.7 mph SW1.1 kmh SW 6.0 mph9.7 kmh 29.15 in987.1 mb 0.00 in0.0 mm 0.00 in0.0 mm 0.00 in0.0 mm
11:48 AM 53.6°F12.0°C 28.0°F-2.2°C 37% Calm Calm 6.0 mph9.7 kmh 29.13 in986.5 mb 0.00 in0.0 mm 0.00 in0.0 mm 0.00 in0.0 mm
11:47 AM 53.1°F11.7°C 27.5°F-2.5°C 37% 1.6 mph SW2.6 kmh SW 6.0 mph9.7 kmh 29.14 in986.8 mb 0.00 in0.0 mm 0.00 in0.0 mm 0.00 in0.0 mm
11:46 AM 52.9°F11.6°C 27.3°F-2.6°C 37% Calm Calm 6.0 mph9.7 kmh 29.15 in987.1 mb 0.00 in0.0 mm 0.00 in0.0 mm 0.00 in0.0 mm
11:45 AM 52.9°F11.6°C 27.3°F-2.6°C 37% Calm Calm 6.0 mph9.7 kmh 29.14 in986.8 mb 0.00 in0.0 mm 0.00 in0.0 mm 0.00 in0.0 mm
11:44 AM 52.7°F11.5°C 27.2°F-2.7°C 37% 0.7 mph SW1.1 kmh SW 6.0 mph9.7 kmh 29.14 in986.8 mb 0.00 in0.0 mm 0.00 in0.0 mm 0.00 in0.0 mm
11:43 AM 52.5°F11.4°C 27.0°F-2.8°C 37% 3.1 mph SW5.0 kmh SW 6.0 mph9.7 kmh 29.15 in987.1 mb 0.00 in0.0 mm 0.00 in0.0 mm 0.00 in0.0 mm
11:42 AM 52.5°F11.4°C 27.0°F-2.8°C 37% 3.8 mph SW6.1 kmh SW 6.0 mph9.7 kmh 29.14 in986.8 mb 0.00 in0.0 mm 0.00 in0.0 mm 0.00 in0.0 mm
11:41 AM 52.3°F11.3°C 26.9°F-2.8°C 37% 2.2 mph SW3.5 kmh SW 4.5 mph7.2 kmh 29.14 in986.8 mb 0.00 in0.0 mm 0.00 in0.0 mm 0.00 in0.0 mm
11:40 AM 52.2°F11.2°C 26.7°F-2.9°C 37% 1.6 mph SW2.6 kmh SW 5.4 mph8.7 kmh 29.14 in986.8 mb 0.00 in0.0 mm 0.00 in0.0 mm 0.00 in0.0 mm
11:39 AM 51.6°F10.9°C 26.2°F-3.2°C 37% 2.2 mph SW3.5 kmh SW 7.6 mph12.2 kmh 29.14 in986.8 mb 0.00 in0.0 mm 0.00 in0.0 mm 0.00 in0.0 mm
11:38 AM 51.3°F10.7°C 25.9°F-3.4°C 37% 1.6 mph SW2.6 kmh SW 7.6 mph12.2 kmh 29.14 in986.8 mb 0.00 in0.0 mm 0.00 in0.0 mm 0.00 in0.0 mm
11:37 AM 51.1°F10.6°C 25.7°F-3.5°C 37% 0.7 mph SW1.1 kmh SW 7.6 mph12.2 kmh 29.15 in987.1 mb 0.00 in0.0 mm 0.00 in0.0 mm 0.00 in0.0 mm
11:36 AM 51.1°F10.6°C 25.7°F-3.5°C 37% 1.6 mph SW2.6 kmh SW 7.6 mph12.2 kmh 29.15 in987.1 mb 0.00 in0.0 mm 0.00 in0.0 mm 0.00 in0.0 mm
11:35 AM 50.7°F10.4°C 25.4°F-3.7°C 37% 0.7 mph SW1.1 kmh SW 7.6 mph12.2 kmh 29.15 in987.1 mb 0.00 in0.0 mm 0.00 in0.0 mm 0.00 in0.0 mm
11:34 AM 50.4°F10.2°C 25.1°F-3.8°C 37% 0.7 mph SW1.1 kmh SW 7.6 mph12.2 kmh 29.15 in987.1 mb 0.00 in0.0 mm 0.00 in0.0 mm 0.00 in0.0 mm
11:33 AM 50.0°F10.0°C 24.8°F-4.0°C 37% 0.7 mph SW1.1 kmh SW 7.6 mph12.2 kmh 29.15 in987.1 mb 0.00 in0.0 mm 0.00 in0.0 mm 0.00 in0.0 mm
11:32 AM 49.6°F9.8°C 24.4°F-4.2°C 37% 1.6 mph SW2.6 kmh SW 7.6 mph12.2 kmh 29.14 in986.8 mb 0.00 in0.0 mm 0.00 in0.0 mm 0.00 in0.0 mm
11:31 AM 49.3°F9.6°C 24.1°F-4.4°C 37% 2.2 mph SW3.5 kmh SW 7.6 mph12.2 kmh 29.15 in987.1 mb 0.00 in0.0 mm 0.00 in0.0 mm 0.00 in0.0 mm
11:30 AM 49.3°F9.6°C 24.1°F-4.4°C 37% 3.1 mph SW5.0 kmh SW 7.6 mph12.2 kmh 29.15 in987.1 mb 0.00 in0.0 mm 0.00 in0.0 mm 0.00 in0.0 mm
11:29 AM 49.3°F9.6°C 24.1°F-4.4°C 37% 5.4 mph SW8.7 kmh SW 7.6 mph12.2 kmh 29.15 in987.1 mb 0.00 in0.0 mm 0.00 in0.0 mm 0.00 in0.0 mm
11:28 AM 49.3°F9.6°C 24.1°F-4.4°C 37% 4.5 mph SW7.2 kmh SW 6.9 mph11.1 kmh 29.15 in987.1 mb 0.00 in0.0 mm 0.00 in0.0 mm 0.00 in0.0 mm
11:27 AM 49.3°F9.6°C 24.1°F-4.4°C 37% 3.1 mph SW5.0 kmh SW 5.4 mph8.7 kmh 29.16 in987.5 mb 0.00 in0.0 mm 0.00 in0.0 mm 0.00 in0.0 mm
11:26 AM 49.3°F9.6°C 24.1°F-4.4°C 37% 2.2 mph SW3.5 kmh SW 4.5 mph7.2 kmh 29.15 in987.1 mb 0.00 in0.0 mm 0.00 in0.0 mm 0.00 in0.0 mm
11:25 AM 49.1°F9.5°C 24.0°F-4.4°C 37% 3.1 mph SW5.0 kmh SW 4.5 mph7.2 kmh 29.16 in987.5 mb 0.00 in0.0 mm 0.00 in0.0 mm 0.00 in0.0 mm
11:24 AM 48.9°F9.4°C 23.8°F-4.6°C 37% 1.6 mph SW2.6 kmh SW 4.5 mph7.2 kmh 29.15 in987.1 mb 0.00 in0.0 mm 0.00 in0.0 mm 0.00 in0.0 mm
11:23 AM 48.7°F9.3°C 23.6°F-4.7°C 37% 2.2 mph SW3.5 kmh SW 4.5 mph7.2 kmh 29.15 in987.1 mb 0.00 in0.0 mm 0.00 in0.0 mm 0.00 in0.0 mm
11:22 AM 48.6°F9.2°C 23.5°F-4.7°C 37% 2.2 mph SW3.5 kmh SW 4.5 mph7.2 kmh 29.15 in987.1 mb 0.00 in0.0 mm 0.00 in0.0 mm 0.00 in0.0 mm
11:21 AM 48.6°F9.2°C 23.5°F-4.7°C 37% 2.2 mph SW3.5 kmh SW 4.5 mph7.2 kmh 29.15 in987.1 mb 0.00 in0.0 mm 0.00 in0.0 mm 0.00 in0.0 mm
11:20 AM 48.2°F9.0°C 23.2°F-4.9°C 37% 0.7 mph SW1.1 kmh SW 4.5 mph7.2 kmh 29.15 in987.1 mb 0.00 in0.0 mm 0.00 in0.0 mm 0.00 in0.0 mm
11:19 AM 47.5°F8.6°C 22.5°F-5.3°C 37% Calm Calm 4.5 mph7.2 kmh 29.15 in987.1 mb 0.00 in0.0 mm 0.00 in0.0 mm 0.00 in0.0 mm
11:18 AM 47.1°F8.4°C 22.2°F-5.4°C 37% 0.7 mph SW1.1 kmh SW 4.5 mph7.2 kmh 29.15 in987.1 mb 0.00 in0.0 mm 0.00 in0.0 mm 0.00 in0.0 mm
11:17 AM 47.1°F8.4°C 22.2°F-5.4°C 37% 1.6 mph SW2.6 kmh SW 4.5 mph7.2 kmh 29.16 in987.5 mb 0.00 in0.0 mm 0.00 in0.0 mm 0.00 in0.0 mm
11:16 AM 46.9°F8.3°C 22.0°F-5.6°C 37% 3.1 mph SW5.0 kmh SW 4.5 mph7.2 kmh 29.16 in987.5 mb 0.00 in0.0 mm 0.00 in0.0 mm 0.00 in0.0 mm
11:15 AM 46.4°F8.0°C 21.6°F-5.8°C 37% 0.7 mph SW1.1 kmh SW 3.8 mph6.1 kmh 29.15 in987.1 mb 0.00 in0.0 mm 0.00 in0.0 mm 0.00 in0.0 mm
11:14 AM 46.2°F7.9°C 21.4°F-5.9°C 37% 0.7 mph SW1.1 kmh SW 3.8 mph6.1 kmh 29.15 in987.1 mb 0.00 in0.0 mm 0.00 in0.0 mm 0.00 in0.0 mm
11:13 AM 46.2°F7.9°C 21.4°F-5.9°C 37% 1.6 mph SW2.6 kmh SW 4.5 mph7.2 kmh 29.16 in987.5 mb 0.00 in0.0 mm 0.00 in0.0 mm 0.00 in0.0 mm
11:12 AM 46.0°F7.8°C 21.2°F-6.0°C 37% 2.2 mph SW3.5 kmh SW 4.5 mph7.2 kmh 29.16 in987.5 mb 0.00 in0.0 mm 0.00 in0.0 mm 0.00 in0.0 mm
11:11 AM 45.9°F7.7°C 21.1°F-6.1°C 37% 1.6 mph SW2.6 kmh SW 4.5 mph7.2 kmh 29.16 in987.5 mb 0.00 in0.0 mm 0.00 in0.0 mm 0.00 in0.0 mm
11:10 AM 45.9°F7.7°C 21.1°F-6.1°C 37% 1.6 mph SW2.6 kmh SW 4.5 mph7.2 kmh 29.16 in987.5 mb 0.00 in0.0 mm 0.00 in0.0 mm 0.00 in0.0 mm
11:09 AM 45.7°F7.6°C 20.9°F-6.2°C 37% 2.2 mph SW3.5 kmh SW 4.5 mph7.2 kmh 29.16 in987.5 mb 0.00 in0.0 mm 0.00 in0.0 mm 0.00 in0.0 mm
11:08 AM 45.3°F7.4°C 20.6°F-6.3°C 37% 1.6 mph SW2.6 kmh SW 4.5 mph7.2 kmh 29.16 in987.5 mb 0.00 in0.0 mm 0.00 in0.0 mm 0.00 in0.0 mm
11:07 AM 45.0°F7.2°C 20.3°F-6.5°C 37% Calm Calm 4.5 mph7.2 kmh 29.16 in987.5 mb 0.00 in0.0 mm 0.00 in0.0 mm 0.00 in0.0 mm
11:06 AM 45.0°F7.2°C 20.3°F-6.5°C 37% 2.2 mph SW3.5 kmh SW 4.5 mph7.2 kmh 29.16 in987.5 mb 0.00 in0.0 mm 0.00 in0.0 mm 0.00 in0.0 mm
11:05 AM 44.8°F7.1°C 20.1°F-6.6°C 37% 2.2 mph SW3.5 kmh SW 4.5 mph7.2 kmh 29.16 in987.5 mb 0.00 in0.0 mm 0.00 in0.0 mm 0.00 in0.0 mm
11:04 AM 44.4°F6.9°C 19.8°F-6.8°C 37% 1.6 mph SW2.6 kmh SW 4.5 mph7.2 kmh 29.16 in987.5 mb 0.00 in0.0 mm 0.00 in0.0 mm 0.00 in0.0 mm
11:03 AM 43.9°F6.6°C 19.3°F-7.1°C 37% 1.6 mph SW2.6 kmh SW 3.8 mph6.1 kmh 29.16 in987.5 mb 0.00 in0.0 mm 0.00 in0.0 mm 0.00 in0.0 mm
11:02 AM 43.7°F6.5°C 19.2°F-7.1°C 37% 2.2 mph SW3.5 kmh SW 3.8 mph6.1 kmh 29.16 in987.5 mb 0.00 in0.0 mm 0.00 in0.0 mm 0.00 in0.0 mm
11:01 AM 43.3°F6.3°C 18.8°F-7.3°C 37% 2.2 mph SW3.5 kmh SW 3.8 mph6.1 kmh 29.16 in987.5 mb 0.00 in0.0 mm 0.00 in0.0 mm 0.00 in0.0 mm
11:00 AM 43.0°F6.1°C 18.5°F-7.5°C 37% 0.7 mph SW1.1 kmh SW 4.5 mph7.2 kmh 29.17 in987.8 mb 0.00 in0.0 mm 0.00 in0.0 mm 0.00 in0.0 mm
10:59 AM 42.6°F5.9°C 18.2°F-7.7°C 37% Calm Calm 4.5 mph7.2 kmh 29.16 in987.5 mb 0.00 in0.0 mm 0.00 in0.0 mm 0.00 in0.0 mm
10:58 AM 42.4°F5.8°C 18.0°F-7.8°C 37% 1.6 mph SW2.6 kmh SW 4.5 mph7.2 kmh 29.17 in987.8 mb 0.00 in0.0 mm 0.00 in0.0 mm 0.00 in0.0 mm
10:57 AM 42.4°F5.8°C 18.0°F-7.8°C 37% 3.1 mph SW5.0 kmh SW 4.5 mph7.2 kmh 29.16 in987.5 mb 0.00 in0.0 mm 0.00 in0.0 mm 0.00 in0.0 mm
10:56 AM 42.3°F5.7°C 17.9°F-7.8°C 37% 1.6 mph SW2.6 kmh SW 4.5 mph7.2 kmh 29.16 in987.5 mb 0.00 in0.0 mm 0.00 in0.0 mm 0.00 in0.0 mm
10:55 AM 42.3°F5.7°C 17.9°F-7.8°C 37% 1.6 mph SW2.6 kmh SW 4.5 mph7.2 kmh 29.16 in987.5 mb 0.00 in0.0 mm 0.00 in0.0 mm 0.00 in0.0 mm
10:54 AM 42.1°F5.6°C 17.7°F-7.9°C 37% 0.7 mph SW1.1 kmh SW 4.5 mph7.2 kmh 29.16 in987.5 mb 0.00 in0.0 mm 0.00 in0.0 mm 0.00 in0.0 mm
10:53 AM 42.1°F5.6°C 17.7°F-7.9°C 37% 0.7 mph SW1.1 kmh SW 4.5 mph7.2 kmh 29.17 in987.8 mb 0.00 in0.0 mm 0.00 in0.0 mm 0.00 in0.0 mm
10:52 AM 42.1°F5.6°C 17.7°F-7.9°C 37% 0.7 mph SW1.1 kmh SW 4.5 mph7.2 kmh 29.17 in987.8 mb 0.00 in0.0 mm 0.00 in0.0 mm 0.00 in0.0 mm
10:51 AM 42.1°F5.6°C 17.7°F-7.9°C 37% 2.2 mph SW3.5 kmh SW 4.5 mph7.2 kmh 29.17 in987.8 mb 0.00 in0.0 mm 0.00 in0.0 mm 0.00 in0.0 mm
10:50 AM 41.9°F5.5°C 17.6°F-8.0°C 37% 1.6 mph SW2.6 kmh SW 3.1 mph5.0 kmh 29.17 in987.8 mb 0.00 in0.0 mm 0.00 in0.0 mm 0.00 in0.0 mm
10:49 AM 41.9°F5.5°C 17.6°F-8.0°C 37% 1.6 mph SW2.6 kmh SW 3.1 mph5.0 kmh 29.17 in987.8 mb 0.00 in0.0 mm 0.00 in0.0 mm 0.00 in0.0 mm
10:48 AM 41.7°F5.4°C 17.4°F-8.1°C 37% 1.6 mph SW2.6 kmh SW 3.1 mph5.0 kmh 29.17 in987.8 mb 0.00 in0.0 mm 0.00 in0.0 mm 0.00 in0.0 mm
10:47 AM 41.5°F5.3°C 17.2°F-8.2°C 37% 1.6 mph SW2.6 kmh SW 3.1 mph5.0 kmh 29.18 in988.1 mb 0.00 in0.0 mm 0.00 in0.0 mm 0.00 in0.0 mm
10:46 AM 41.5°F5.3°C 17.2°F-8.2°C 37% 0.7 mph SW1.1 kmh SW 3.1 mph5.0 kmh 29.17 in987.8 mb 0.00 in0.0 mm 0.00 in0.0 mm 0.00 in0.0 mm
10:45 AM 41.4°F5.2°C 17.1°F-8.3°C 37% 0.7 mph SW1.1 kmh SW 3.1 mph5.0 kmh 29.18 in988.1 mb 0.00 in0.0 mm 0.00 in0.0 mm 0.00 in0.0 mm
10:44 AM 41.4°F5.2°C 17.1°F-8.3°C 37% 0.7 mph SW1.1 kmh SW 3.1 mph5.0 kmh 29.18 in988.1 mb 0.00 in0.0 mm 0.00 in0.0 mm 0.00 in0.0 mm
10:43 AM 41.2°F5.1°C 16.9°F-8.4°C 37% 1.6 mph SW2.6 kmh SW 3.1 mph5.0 kmh 29.18 in988.1 mb 0.00 in0.0 mm 0.00 in0.0 mm 0.00 in0.0 mm
10:42 AM 41.0°F5.0°C 16.7°F-8.5°C 37% 2.2 mph SW3.5 kmh SW 3.1 mph5.0 kmh 29.17 in987.8 mb 0.00 in0.0 mm 0.00 in0.0 mm 0.00 in0.0 mm
10:41 AM 41.0°F5.0°C 16.7°F-8.5°C 37% 2.2 mph SW3.5 kmh SW 3.1 mph5.0 kmh 29.17 in987.8 mb 0.00 in0.0 mm 0.00 in0.0 mm 0.00 in0.0 mm
10:40 AM 41.0°F5.0°C 16.7°F-8.5°C 37% 0.7 mph SW1.1 kmh SW 2.2 mph3.5 kmh 29.17 in987.8 mb 0.00 in0.0 mm 0.00 in0.0 mm 0.00 in0.0 mm
10:39 AM 40.6°F4.8°C 16.4°F-8.7°C 37% 0.7 mph SW1.1 kmh SW 2.2 mph3.5 kmh 29.18 in988.1 mb 0.00 in0.0 mm 0.00 in0.0 mm 0.00 in0.0 mm
10:38 AM 40.6°F4.8°C 16.4°F-8.7°C 37% 0.7 mph SW1.1 kmh SW 2.2 mph3.5 kmh 29.17 in987.8 mb 0.00 in0.0 mm 0.00 in0.0 mm 0.00 in0.0 mm
10:37 AM 40.5°F4.7°C 16.3°F-8.7°C 37% 0.7 mph SW1.1 kmh SW 2.2 mph3.5 kmh 29.18 in988.1 mb 0.00 in0.0 mm 0.00 in0.0 mm 0.00 in0.0 mm
10:36 AM 40.5°F4.7°C 16.3°F-8.7°C 37% 0.7 mph SW1.1 kmh SW 2.2 mph3.5 kmh 29.17 in987.8 mb 0.00 in0.0 mm 0.00 in0.0 mm 0.00 in0.0 mm
10:35 AM 40.3°F4.6°C 16.1°F-8.8°C 37% 0.7 mph SW1.1 kmh SW 2.2 mph3.5 kmh 29.17 in987.8 mb 0.00 in0.0 mm 0.00 in0.0 mm 0.00 in0.0 mm
10:34 AM 40.1°F4.5°C 15.9°F-8.9°C 37% 0.7 mph SW1.1 kmh SW 2.2 mph3.5 kmh 29.17 in987.8 mb 0.00 in0.0 mm 0.00 in0.0 mm 0.00 in0.0 mm
10:33 AM 40.1°F4.5°C 15.9°F-8.9°C 37% 1.6 mph SW2.6 kmh SW 2.2 mph3.5 kmh 29.18 in988.1 mb 0.00 in0.0 mm 0.00 in0.0 mm 0.00 in0.0 mm
10:32 AM 39.9°F4.4°C 15.8°F-9.0°C 37% Calm Calm 2.2 mph3.5 kmh 29.18 in988.1 mb 0.00 in0.0 mm 0.00 in0.0 mm 0.00 in0.0 mm
10:31 AM 39.4°F4.1°C 15.3°F-9.3°C 37% Calm Calm 2.2 mph3.5 kmh 29.18 in988.1 mb 0.00 in0.0 mm 0.00 in0.0 mm 0.00 in0.0 mm
10:30 AM 39.2°F4.0°C 15.1°F-9.4°C 37% Calm Calm 2.2 mph3.5 kmh 29.18 in988.1 mb 0.00 in0.0 mm 0.00 in0.0 mm 0.00 in0.0 mm
10:29 AM 39.0°F3.9°C 15.0°F-9.4°C 37% Calm Calm 2.2 mph3.5 kmh 29.18 in988.1 mb 0.00 in0.0 mm 0.00 in0.0 mm 0.00 in0.0 mm
10:28 AM 39.0°F3.9°C 15.0°F-9.4°C 37% Calm Calm 2.2 mph3.5 kmh 29.18 in988.1 mb 0.00 in0.0 mm 0.00 in0.0 mm 0.00 in0.0 mm
10:27 AM 38.8°F3.8°C 14.8°F-9.6°C 37% 1.6 mph SW2.6 kmh SW 2.2 mph3.5 kmh 29.17 in987.8 mb 0.00 in0.0 mm 0.00 in0.0 mm 0.00 in0.0 mm
10:26 AM 38.8°F3.8°C 14.8°F-9.6°C 37% 1.6 mph SW2.6 kmh SW 2.2 mph3.5 kmh 29.17 in987.8 mb 0.00 in0.0 mm 0.00 in0.0 mm 0.00 in0.0 mm
10:25 AM 38.7°F3.7°C 14.7°F-9.6°C 37% 0.7 mph SW1.1 kmh SW 2.2 mph3.5 kmh 29.18 in988.1 mb 0.00 in0.0 mm 0.00 in0.0 mm 0.00 in0.0 mm
10:24 AM 38.7°F3.7°C 14.7°F-9.6°C 37% Calm Calm 2.2 mph3.5 kmh 29.17 in987.8 mb 0.00 in0.0 mm 0.00 in0.0 mm 0.00 in0.0 mm
10:23 AM 38.5°F3.6°C 14.5°F-9.7°C 37% 0.7 mph SW1.1 kmh SW 2.2 mph3.5 kmh 29.18 in988.1 mb 0.00 in0.0 mm 0.00 in0.0 mm 0.00 in0.0 mm
10:22 AM 38.5°F3.6°C 14.5°F-9.7°C 37% 0.7 mph SW1.1 kmh SW 2.2 mph3.5 kmh 29.18 in988.1 mb 0.00 in0.0 mm 0.00 in0.0 mm 0.00 in0.0 mm
10:21 AM 38.5°F3.6°C 14.5°F-9.7°C 37% 0.7 mph SW1.1 kmh SW 2.2 mph3.5 kmh 29.17 in987.8 mb 0.00 in0.0 mm 0.00 in0.0 mm 0.00 in0.0 mm
10:20 AM 38.5°F3.6°C 14.5°F-9.7°C 37% 1.6 mph SW2.6 kmh SW 2.2 mph3.5 kmh 29.18 in988.1 mb 0.00 in0.0 mm 0.00 in0.0 mm 0.00 in0.0 mm
10:19 AM 38.5°F3.6°C 14.5°F-9.7°C 37% 1.6 mph SW2.6 kmh SW 2.2 mph3.5 kmh 29.17 in987.8 mb 0.00 in0.0 mm 0.00 in0.0 mm 0.00 in0.0 mm
10:18 AM 38.5°F3.6°C 14.5°F-9.7°C 37% 1.6 mph SW2.6 kmh SW 2.2 mph3.5 kmh 29.18 in988.1 mb 0.00 in0.0 mm 0.00 in0.0 mm 0.00 in0.0 mm
10:17 AM 38.5°F3.6°C 14.5°F-9.7°C 37% 0.7 mph SW1.1 kmh SW 2.2 mph3.5 kmh 29.18 in988.1 mb 0.00 in0.0 mm 0.00 in0.0 mm 0.00 in0.0 mm
10:16 AM 38.5°F3.6°C 14.5°F-9.7°C 37% 0.7 mph SW1.1 kmh SW 2.2 mph3.5 kmh 29.18 in988.1 mb 0.00 in0.0 mm 0.00 in0.0 mm 0.00 in0.0 mm
10:15 AM 38.7°F3.7°C 14.7°F-9.6°C 37% 0.7 mph SW1.1 kmh SW 2.2 mph3.5 kmh 29.17 in987.8 mb 0.00 in0.0 mm 0.00 in0.0 mm 0.00 in0.0 mm
10:14 AM 38.8°F3.8°C 14.8°F-9.6°C 37% 0.7 mph SW1.1 kmh SW 2.2 mph3.5 kmh 29.17 in987.8 mb 0.00 in0.0 mm 0.00 in0.0 mm 0.00 in0.0 mm
10:13 AM 38.8°F3.8°C 14.8°F-9.6°C 37% 0.7 mph SW1.1 kmh SW 2.2 mph3.5 kmh 29.17 in987.8 mb 0.00 in0.0 mm 0.00 in0.0 mm 0.00 in0.0 mm
10:12 AM 39.0°F3.9°C 15.0°F-9.4°C 37% 1.6 mph SW2.6 kmh SW 2.2 mph3.5 kmh 29.18 in988.1 mb 0.00 in0.0 mm 0.00 in0.0 mm 0.00 in0.0 mm
10:11 AM 39.0°F3.9°C 15.0°F-9.4°C 37% 0.7 mph SW1.1 kmh SW 1.6 mph2.6 kmh 29.18 in988.1 mb 0.00 in0.0 mm 0.00 in0.0 mm 0.00 in0.0 mm
10:10 AM 38.8°F3.8°C 14.8°F-9.6°C 37% Calm Calm 1.6 mph2.6 kmh 29.17 in987.8 mb 0.00 in0.0 mm 0.00 in0.0 mm 0.00 in0.0 mm
10:09 AM 38.8°F3.8°C 14.8°F-9.6°C 37% Calm Calm 1.6 mph2.6 kmh 29.18 in988.1 mb 0.00 in0.0 mm 0.00 in0.0 mm 0.00 in0.0 mm
10:08 AM 38.7°F3.7°C 14.7°F-9.6°C 37% Calm Calm 1.6 mph2.6 kmh 29.18 in988.1 mb 0.00 in0.0 mm 0.00 in0.0 mm 0.00 in0.0 mm
10:07 AM 38.5°F3.6°C 14.5°F-9.7°C 37% Calm Calm 1.6 mph2.6 kmh 29.18 in988.1 mb 0.00 in0.0 mm 0.00 in0.0 mm 0.00 in0.0 mm
10:06 AM 38.5°F3.6°C 14.5°F-9.7°C 37% 0.7 mph SW1.1 kmh SW 1.6 mph2.6 kmh 29.18 in988.1 mb 0.00 in0.0 mm 0.00 in0.0 mm 0.00 in0.0 mm
10:05 AM 38.7°F3.7°C 14.7°F-9.6°C 37% 0.7 mph SW1.1 kmh SW 1.6 mph2.6 kmh 29.18 in988.1 mb 0.00 in0.0 mm 0.00 in0.0 mm 0.00 in0.0 mm
10:04 AM 38.7°F3.7°C 14.7°F-9.6°C 37% 0.7 mph SW1.1 kmh SW 2.2 mph3.5 kmh 29.18 in988.1 mb 0.00 in0.0 mm 0.00 in0.0 mm 0.00 in0.0 mm
10:03 AM 39.0°F3.9°C 15.0°F-9.4°C 37% Calm Calm 2.2 mph3.5 kmh 29.18 in988.1 mb 0.00 in0.0 mm 0.00 in0.0 mm 0.00 in0.0 mm
10:02 AM 39.0°F3.9°C 15.0°F-9.4°C 37% 0.7 mph SW1.1 kmh SW 2.2 mph3.5 kmh 29.19 in988.5 mb 0.00 in0.0 mm 0.00 in0.0 mm 0.00 in0.0 mm
10:01 AM 39.2°F4.0°C 15.1°F-9.4°C 37% 0.7 mph SW1.1 kmh SW 2.2 mph3.5 kmh 29.19 in988.5 mb 0.00 in0.0 mm 0.00 in0.0 mm 0.00 in0.0 mm
10:00 AM 39.2°F4.0°C 15.1°F-9.4°C 37% 0.7 mph SW1.1 kmh SW 2.2 mph3.5 kmh 29.18 in988.1 mb 0.00 in0.0 mm 0.00 in0.0 mm 0.00 in0.0 mm
09:59 AM 39.0°F3.9°C 15.0°F-9.4°C 37% 0.7 mph SW1.1 kmh SW 2.2 mph3.5 kmh 29.18 in988.1 mb 0.00 in0.0 mm 0.00 in0.0 mm 0.00 in0.0 mm
09:58 AM 38.8°F3.8°C 14.8°F-9.6°C 37% Calm Calm 2.2 mph3.5 kmh 29.18 in988.1 mb 0.00 in0.0 mm 0.00 in0.0 mm 0.00 in0.0 mm
09:57 AM 38.7°F3.7°C 14.7°F-9.6°C 37% Calm Calm 2.2 mph3.5 kmh 29.18 in988.1 mb 0.00 in0.0 mm 0.00 in0.0 mm 0.00 in0.0 mm
09:56 AM 38.5°F3.6°C 14.5°F-9.7°C 37% Calm Calm 3.1 mph5.0 kmh 29.18 in988.1 mb 0.00 in0.0 mm 0.00 in0.0 mm 0.00 in0.0 mm
09:55 AM 37.9°F3.3°C 14.0°F-10.0°C 37% 0.7 mph SW1.1 kmh SW 3.1 mph5.0 kmh 29.18 in988.1 mb 0.00 in0.0 mm 0.00 in0.0 mm 0.00 in0.0 mm
09:54 AM 37.8°F3.2°C 13.9°F-10.1°C 37% 1.6 mph SW2.6 kmh SW 3.1 mph5.0 kmh 29.18 in988.1 mb 0.00 in0.0 mm 0.00 in0.0 mm 0.00 in0.0 mm
09:53 AM 37.6°F3.1°C 13.7°F-10.2°C 37% Calm Calm 3.1 mph5.0 kmh 29.18 in988.1 mb 0.00 in0.0 mm 0.00 in0.0 mm 0.00 in0.0 mm
09:52 AM 37.6°F3.1°C 13.7°F-10.2°C 37% 0.7 mph SW1.1 kmh SW 3.8 mph6.1 kmh 29.18 in988.1 mb 0.00 in0.0 mm 0.00 in0.0 mm 0.00 in0.0 mm
09:51 AM 37.0°F2.8°C 13.2°F-10.4°C 37% 0.7 mph SW1.1 kmh SW 3.8 mph6.1 kmh 29.18 in988.1 mb 0.00 in0.0 mm 0.00 in0.0 mm 0.00 in0.0 mm
09:50 AM 36.9°F2.7°C 13.1°F-10.5°C 37% 0.7 mph SW1.1 kmh SW 3.8 mph6.1 kmh 29.18 in988.1 mb 0.00 in0.0 mm 0.00 in0.0 mm 0.00 in0.0 mm
09:49 AM 36.7°F2.6°C 12.9°F-10.6°C 37% 0.7 mph SW1.1 kmh SW 3.8 mph6.1 kmh 29.18 in988.1 mb 0.00 in0.0 mm 0.00 in0.0 mm 0.00 in0.0 mm
09:48 AM 36.5°F2.5°C 12.7°F-10.7°C 37% 0.7 mph SW1.1 kmh SW 3.8 mph6.1 kmh 29.19 in988.5 mb 0.00 in0.0 mm 0.00 in0.0 mm 0.00 in0.0 mm
09:47 AM 36.1°F2.3°C 12.4°F-10.9°C 37% 2.2 mph SW3.5 kmh SW 3.8 mph6.1 kmh 29.19 in988.5 mb 0.00 in0.0 mm 0.00 in0.0 mm 0.00 in0.0 mm
09:46 AM 36.0°F2.2°C 12.3°F-10.9°C 37% 1.6 mph SW2.6 kmh SW 3.8 mph6.1 kmh 29.19 in988.5 mb 0.00 in0.0 mm 0.00 in0.0 mm 0.00 in0.0 mm
09:45 AM 35.6°F2.0°C 11.9°F-11.2°C 37% 1.6 mph SW2.6 kmh SW 3.8 mph6.1 kmh 29.18 in988.1 mb 0.00 in0.0 mm 0.00 in0.0 mm 0.00 in0.0 mm
09:44 AM 35.4°F1.9°C 11.8°F-11.2°C 37% 0.7 mph SW1.1 kmh SW 3.8 mph6.1 kmh 29.19 in988.5 mb 0.00 in0.0 mm 0.00 in0.0 mm 0.00 in0.0 mm
09:43 AM 35.1°F1.7°C 11.4°F-11.4°C 37% 1.6 mph SW2.6 kmh SW 3.8 mph6.1 kmh 29.19 in988.5 mb 0.00 in0.0 mm 0.00 in0.0 mm 0.00 in0.0 mm
09:42 AM 34.9°F1.6°C 11.3°F-11.5°C 37% 3.1 mph SW5.0 kmh SW 3.8 mph6.1 kmh 29.19 in988.5 mb 0.00 in0.0 mm 0.00 in0.0 mm 0.00 in0.0 mm
09:41 AM 34.9°F1.6°C 11.3°F-11.5°C 37% 1.6 mph SW2.6 kmh SW 3.1 mph5.0 kmh 29.19 in988.5 mb 0.00 in0.0 mm 0.00 in0.0 mm 0.00 in0.0 mm
09:40 AM 34.7°F1.5°C 11.1°F-11.6°C 37% Calm Calm 3.1 mph5.0 kmh 29.19 in988.5 mb 0.00 in0.0 mm 0.00 in0.0 mm 0.00 in0.0 mm
09:39 AM 34.7°F1.5°C 11.1°F-11.6°C 37% Calm Calm 3.1 mph5.0 kmh 29.20 in988.8 mb 0.00 in0.0 mm 0.00 in0.0 mm 0.00 in0.0 mm
09:38 AM 34.5°F1.4°C 11.0°F-11.7°C 37% 1.6 mph SW2.6 kmh SW 3.1 mph5.0 kmh 29.19 in988.5 mb 0.00 in0.0 mm 0.00 in0.0 mm 0.00 in0.0 mm
09:37 AM 34.2°F1.2°C 10.6°F-11.9°C 37% 1.6 mph SW2.6 kmh SW 2.2 mph3.5 kmh 29.19 in988.5 mb 0.00 in0.0 mm 0.00 in0.0 mm 0.00 in0.0 mm
09:36 AM 34.0°F1.1°C 10.5°F-11.9°C 37% 1.6 mph SW2.6 kmh SW 2.2 mph3.5 kmh 29.19 in988.5 mb 0.00 in0.0 mm 0.00 in0.0 mm 0.00 in0.0 mm
09:35 AM 33.3°F0.7°C 9.8°F-12.3°C 37% 0.7 mph SW1.1 kmh SW 2.2 mph3.5 kmh 29.20 in988.8 mb 0.00 in0.0 mm 0.00 in0.0 mm 0.00 in0.0 mm
09:34 AM 33.1°F0.6°C 9.7°F-12.4°C 37% Calm Calm 2.2 mph3.5 kmh 29.20 in988.8 mb 0.00 in0.0 mm 0.00 in0.0 mm 0.00 in0.0 mm
09:33 AM 32.7°F0.4°C 9.4°F-12.6°C 37% 0.7 mph SW1.1 kmh SW 2.2 mph3.5 kmh 29.20 in988.8 mb 0.00 in0.0 mm 0.00 in0.0 mm 0.00 in0.0 mm
09:32 AM 31.8°F-0.1°C 8.6°F-13.0°C 37% 1.6 mph SW2.6 kmh SW 2.2 mph3.5 kmh 29.19 in988.5 mb 0.00 in0.0 mm 0.00 in0.0 mm 0.00 in0.0 mm
09:31 AM 31.6°F-0.2°C 8.4°F-13.1°C 37% Calm Calm 0.7 mph1.1 kmh 29.20 in988.8 mb 0.00 in0.0 mm 0.00 in0.0 mm 0.00 in0.0 mm
09:30 AM 31.6°F-0.2°C 8.4°F-13.1°C 37% Calm Calm 0.7 mph1.1 kmh 29.20 in988.8 mb 0.00 in0.0 mm 0.00 in0.0 mm 0.00 in0.0 mm
09:29 AM 31.6°F-0.2°C 8.4°F-13.1°C 37% Calm Calm 0.7 mph1.1 kmh 29.19 in988.5 mb 0.00 in0.0 mm 0.00 in0.0 mm 0.00 in0.0 mm
09:28 AM 31.6°F-0.2°C 8.4°F-13.1°C 37% Calm Calm 0.7 mph1.1 kmh 29.19 in988.5 mb 0.00 in0.0 mm 0.00 in0.0 mm 0.00 in0.0 mm
09:27 AM 31.5°F-0.3°C 8.2°F-13.2°C 37% Calm Calm 0.7 mph1.1 kmh 29.20 in988.8 mb 0.00 in0.0 mm 0.00 in0.0 mm 0.00 in0.0 mm
09:26 AM 31.1°F-0.5°C 7.9°F-13.4°C 37% Calm Calm 0.7 mph1.1 kmh 29.20 in988.8 mb 0.00 in0.0 mm 0.00 in0.0 mm 0.00 in0.0 mm
09:25 AM 31.1°F-0.5°C 7.9°F-13.4°C 37% Calm Calm 1.6 mph2.6 kmh 29.20 in988.8 mb 0.00 in0.0 mm 0.00 in0.0 mm 0.00 in0.0 mm
09:24 AM 30.9°F-0.6°C 7.8°F-13.4°C 37% Calm Calm 2.2 mph3.5 kmh 29.20 in988.8 mb 0.00 in0.0 mm 0.00 in0.0 mm 0.00 in0.0 mm
09:23 AM 30.6°F-0.8°C 7.4°F-13.7°C 37% Calm Calm 2.2 mph3.5 kmh 29.20 in988.8 mb 0.00 in0.0 mm 0.00 in0.0 mm 0.00 in0.0 mm
09:22 AM 30.6°F-0.8°C 7.4°F-13.7°C 37% Calm Calm 2.2 mph3.5 kmh 29.20 in988.8 mb 0.00 in0.0 mm 0.00 in0.0 mm 0.00 in0.0 mm
09:21 AM 30.4°F-0.9°C 7.3°F-13.7°C 37% Calm Calm 2.2 mph3.5 kmh 29.20 in988.8 mb 0.00 in0.0 mm 0.00 in0.0 mm 0.00 in0.0 mm
09:20 AM 30.4°F-0.9°C 7.3°F-13.7°C 37% Calm Calm 2.2 mph3.5 kmh 29.20 in988.8 mb 0.00 in0.0 mm 0.00 in0.0 mm 0.00 in0.0 mm
09:19 AM 30.0°F-1.1°C 6.9°F-13.9°C 37% Calm Calm 2.2 mph3.5 kmh 29.20 in988.8 mb 0.00 in0.0 mm 0.00 in0.0 mm 0.00 in0.0 mm
09:18 AM 29.8°F-1.2°C 6.8°F-14.0°C 37% Calm Calm 2.2 mph3.5 kmh 29.20 in988.8 mb 0.00 in0.0 mm 0.00 in0.0 mm 0.00 in0.0 mm
09:17 AM 29.7°F-1.3°C 6.6°F-14.1°C 37% Calm Calm 2.2 mph3.5 kmh 29.20 in988.8 mb 0.00 in0.0 mm 0.00 in0.0 mm 0.00 in0.0 mm
09:16 AM 29.5°F-1.4°C 6.5°F-14.2°C 37% Calm Calm 2.2 mph3.5 kmh 29.20 in988.8 mb 0.00 in0.0 mm 0.00 in0.0 mm 0.00 in0.0 mm
09:15 AM 29.5°F-1.4°C 6.5°F-14.2°C 37% 1.6 mph SW2.6 kmh SW 2.2 mph3.5 kmh 29.20 in988.8 mb 0.00 in0.0 mm 0.00 in0.0 mm 0.00 in0.0 mm
09:14 AM 29.5°F-1.4°C 6.5°F-14.2°C 37% 1.6 mph SW2.6 kmh SW 2.2 mph3.5 kmh 29.20 in988.8 mb 0.00 in0.0 mm 0.00 in0.0 mm 0.00 in0.0 mm
09:13 AM 29.5°F-1.4°C 6.5°F-14.2°C 37% Calm Calm 2.2 mph3.5 kmh 29.21 in989.2 mb 0.00 in0.0 mm 0.00 in0.0 mm 0.00 in0.0 mm
09:12 AM 29.5°F-1.4°C 6.5°F-14.2°C 37% 0.7 mph SW1.1 kmh SW 2.2 mph3.5 kmh 29.20 in988.8 mb 0.00 in0.0 mm 0.00 in0.0 mm 0.00 in0.0 mm
09:11 AM 29.3°F-1.5°C 6.3°F-14.3°C 37% Calm Calm 2.2 mph3.5 kmh 29.21 in989.2 mb 0.00 in0.0 mm 0.00 in0.0 mm 0.00 in0.0 mm
09:10 AM 29.3°F-1.5°C 6.3°F-14.3°C 37% Calm Calm 2.2 mph3.5 kmh 29.21 in989.2 mb 0.00 in0.0 mm 0.00 in0.0 mm 0.00 in0.0 mm
09:09 AM 29.5°F-1.4°C 6.5°F-14.2°C 37% Calm Calm 2.2 mph3.5 kmh 29.21 in989.2 mb 0.00 in0.0 mm 0.00 in0.0 mm 0.00 in0.0 mm
09:08 AM 29.5°F-1.4°C 6.5°F-14.2°C 37% 0.7 mph SW1.1 kmh SW 2.2 mph3.5 kmh 29.22 in989.5 mb 0.00 in0.0 mm 0.00 in0.0 mm 0.00 in0.0 mm
09:07 AM 29.5°F-1.4°C 6.5°F-14.2°C 37% 0.7 mph SW1.1 kmh SW 1.6 mph2.6 kmh 29.21 in989.2 mb 0.00 in0.0 mm 0.00 in0.0 mm 0.00 in0.0 mm
09:06 AM 29.3°F-1.5°C 6.3°F-14.3°C 37% Calm Calm 1.6 mph2.6 kmh 29.21 in989.2 mb 0.00 in0.0 mm 0.00 in0.0 mm 0.00 in0.0 mm
09:05 AM 29.3°F-1.5°C 6.3°F-14.3°C 37% Calm Calm 1.6 mph2.6 kmh 29.21 in989.2 mb 0.00 in0.0 mm 0.00 in0.0 mm 0.00 in0.0 mm
09:04 AM 29.1°F-1.6°C 6.1°F-14.4°C 37% Calm Calm 0.7 mph1.1 kmh 29.21 in989.2 mb 0.00 in0.0 mm 0.00 in0.0 mm 0.00 in0.0 mm
09:03 AM 28.6°F-1.9°C 5.7°F-14.6°C 37% Calm Calm 0.7 mph1.1 kmh 29.22 in989.5 mb 0.00 in0.0 mm 0.00 in0.0 mm 0.00 in0.0 mm
09:02 AM 28.4°F-2.0°C 5.5°F-14.7°C 37% Calm Calm 1.6 mph2.6 kmh 29.21 in989.2 mb 0.00 in0.0 mm 0.00 in0.0 mm 0.00 in0.0 mm
09:01 AM 28.0°F-2.2°C 5.2°F-14.9°C 37% Calm Calm 1.6 mph2.6 kmh 29.22 in989.5 mb 0.00 in0.0 mm 0.00 in0.0 mm 0.00 in0.0 mm
09:00 AM 27.7°F-2.4°C 4.9°F-15.1°C 37% Calm Calm 1.6 mph2.6 kmh 29.21 in989.2 mb 0.00 in0.0 mm 0.00 in0.0 mm 0.00 in0.0 mm
08:59 AM 27.3°F-2.6°C 4.5°F-15.3°C 37% Calm Calm 1.6 mph2.6 kmh 29.21 in989.2 mb 0.00 in0.0 mm 0.00 in0.0 mm 0.00 in0.0 mm
08:58 AM 27.1°F-2.7°C 4.4°F-15.3°C 37% Calm Calm 1.6 mph2.6 kmh 29.21 in989.2 mb 0.00 in0.0 mm 0.00 in0.0 mm 0.00 in0.0 mm
08:57 AM 26.8°F-2.9°C 4.1°F-15.5°C 37% Calm Calm 1.6 mph2.6 kmh 29.21 in989.2 mb 0.00 in0.0 mm 0.00 in0.0 mm 0.00 in0.0 mm
08:56 AM 26.4°F-3.1°C 3.7°F-15.7°C 37% Calm Calm 1.6 mph2.6 kmh 29.21 in989.2 mb 0.00 in0.0 mm 0.00 in0.0 mm 0.00 in0.0 mm
08:55 AM 26.1°F-3.3°C 3.4°F-15.9°C 37% Calm Calm 1.6 mph2.6 kmh 29.22 in989.5 mb 0.00 in0.0 mm 0.00 in0.0 mm 0.00 in0.0 mm
08:54 AM 26.1°F-3.3°C 3.4°F-15.9°C 37% Calm Calm 1.6 mph2.6 kmh 29.22 in989.5 mb 0.00 in0.0 mm 0.00 in0.0 mm 0.00 in0.0 mm
08:53 AM 25.9°F-3.4°C 3.2°F-16.0°C 37% Calm Calm 1.6 mph2.6 kmh 29.21 in989.2 mb 0.00 in0.0 mm 0.00 in0.0 mm 0.00 in0.0 mm
08:52 AM 25.7°F-3.5°C 3.1°F-16.1°C 37% Calm Calm 1.6 mph2.6 kmh 29.22 in989.5 mb 0.00 in0.0 mm 0.00 in0.0 mm 0.00 in0.0 mm
08:51 AM 25.5°F-3.6°C 2.9°F-16.2°C 37% 0.7 mph SW1.1 kmh SW 1.6 mph2.6 kmh 29.22 in989.5 mb 0.00 in0.0 mm 0.00 in0.0 mm 0.00 in0.0 mm
08:50 AM 25.5°F-3.6°C 2.9°F-16.2°C 37% Calm Calm 1.6 mph2.6 kmh 29.22 in989.5 mb 0.00 in0.0 mm 0.00 in0.0 mm 0.00 in0.0 mm
08:49 AM 25.3°F-3.7°C 2.8°F-16.2°C 37% Calm Calm 1.6 mph2.6 kmh 29.21 in989.2 mb 0.00 in0.0 mm 0.00 in0.0 mm 0.00 in0.0 mm
08:48 AM 25.3°F-3.7°C 2.8°F-16.2°C 37% 0.7 mph SW1.1 kmh SW 1.6 mph2.6 kmh 29.22 in989.5 mb 0.00 in0.0 mm 0.00 in0.0 mm 0.00 in0.0 mm
08:47 AM 25.2°F-3.8°C 2.6°F-16.3°C 37% 0.7 mph SW1.1 kmh SW 1.6 mph2.6 kmh 29.22 in989.5 mb 0.00 in0.0 mm 0.00 in0.0 mm 0.00 in0.0 mm
08:46 AM 25.2°F-3.8°C 2.6°F-16.3°C 37% Calm Calm 1.6 mph2.6 kmh 29.22 in989.5 mb 0.00 in0.0 mm 0.00 in0.0 mm 0.00 in0.0 mm
08:45 AM 25.2°F-3.8°C 2.6°F-16.3°C 37% Calm Calm 1.6 mph2.6 kmh 29.22 in989.5 mb 0.00 in0.0 mm 0.00 in0.0 mm 0.00 in0.0 mm
08:44 AM 25.0°F-3.9°C 2.4°F-16.4°C 37% 0.7 mph SW1.1 kmh SW 1.6 mph2.6 kmh 29.21 in989.2 mb 0.00 in0.0 mm 0.00 in0.0 mm 0.00 in0.0 mm
08:43 AM 25.0°F-3.9°C 2.4°F-16.4°C 37% 0.7 mph SW1.1 kmh SW 1.6 mph2.6 kmh 29.22 in989.5 mb 0.00 in0.0 mm 0.00 in0.0 mm 0.00 in0.0 mm
08:42 AM 25.0°F-3.9°C 2.4°F-16.4°C 37% Calm Calm 1.6 mph2.6 kmh 29.22 in989.5 mb 0.00 in0.0 mm 0.00 in0.0 mm 0.00 in0.0 mm
08:41 AM 24.8°F-4.0°C 2.3°F-16.5°C 37% Calm Calm 1.6 mph2.6 kmh 29.22 in989.5 mb 0.00 in0.0 mm 0.00 in0.0 mm 0.00 in0.0 mm
08:40 AM 24.8°F-4.0°C 2.3°F-16.5°C 37% Calm Calm 1.6 mph2.6 kmh 29.21 in989.2 mb 0.00 in0.0 mm 0.00 in0.0 mm 0.00 in0.0 mm
08:39 AM 24.8°F-4.0°C 2.3°F-16.5°C 37% Calm Calm 1.6 mph2.6 kmh 29.22 in989.5 mb 0.00 in0.0 mm 0.00 in0.0 mm 0.00 in0.0 mm
08:38 AM 24.8°F-4.0°C 2.3°F-16.5°C 37% Calm Calm 1.6 mph2.6 kmh 29.21 in989.2 mb 0.00 in0.0 mm 0.00 in0.0 mm 0.00 in0.0 mm
08:37 AM 24.6°F-4.1°C 2.1°F-16.6°C 37% Calm Calm 1.6 mph2.6 kmh 29.22 in989.5 mb 0.00 in0.0 mm 0.00 in0.0 mm 0.00 in0.0 mm
08:36 AM 24.8°F-4.0°C 2.3°F-16.5°C 37% 0.7 mph SW1.1 kmh SW 1.6 mph2.6 kmh 29.22 in989.5 mb 0.00 in0.0 mm 0.00 in0.0 mm 0.00 in0.0 mm
08:35 AM 24.8°F-4.0°C 2.3°F-16.5°C 37% Calm Calm 1.6 mph2.6 kmh 29.21 in989.2 mb 0.00 in0.0 mm 0.00 in0.0 mm 0.00 in0.0 mm
08:34 AM 24.8°F-4.0°C 2.3°F-16.5°C 37% Calm Calm 1.6 mph2.6 kmh 29.22 in989.5 mb 0.00 in0.0 mm 0.00 in0.0 mm 0.00 in0.0 mm
08:33 AM 24.8°F-4.0°C 2.3°F-16.5°C 37% Calm Calm 1.6 mph2.6 kmh 29.21 in989.2 mb 0.00 in0.0 mm 0.00 in0.0 mm 0.00 in0.0 mm
08:32 AM 24.8°F-4.0°C 2.3°F-16.5°C 37% Calm Calm 1.6 mph2.6 kmh 29.21 in989.2 mb 0.00 in0.0 mm 0.00 in0.0 mm 0.00 in0.0 mm
08:31 AM 24.4°F-4.2°C 2.0°F-16.7°C 37% Calm Calm 1.6 mph2.6 kmh 29.21 in989.2 mb 0.00 in0.0 mm 0.00 in0.0 mm 0.00 in0.0 mm
08:30 AM 24.3°F-4.3°C 1.8°F-16.8°C 37% Calm Calm 1.6 mph2.6 kmh 29.21 in989.2 mb 0.00 in0.0 mm 0.00 in0.0 mm 0.00 in0.0 mm
08:29 AM 24.3°F-4.3°C 1.8°F-16.8°C 37% Calm Calm 1.6 mph2.6 kmh 29.21 in989.2 mb 0.00 in0.0 mm 0.00 in0.0 mm 0.00 in0.0 mm
08:28 AM 23.9°F-4.5°C 1.5°F-16.9°C 37% 0.7 mph SW1.1 kmh SW 1.6 mph2.6 kmh 29.22 in989.5 mb 0.00 in0.0 mm 0.00 in0.0 mm 0.00 in0.0 mm
08:27 AM 23.5°F-4.7°C 1.2°F-17.1°C 37% 0.7 mph SW1.1 kmh SW 1.6 mph2.6 kmh 29.22 in989.5 mb 0.00 in0.0 mm 0.00 in0.0 mm 0.00 in0.0 mm
08:26 AM 23.4°F-4.8°C 1.0°F-17.2°C 37% 0.7 mph SW1.1 kmh SW 1.6 mph2.6 kmh 29.22 in989.5 mb 0.00 in0.0 mm 0.00 in0.0 mm 0.00 in0.0 mm
08:25 AM 23.0°F-5.0°C 0.7°F-17.4°C 37% Calm Calm 1.6 mph2.6 kmh 29.22 in989.5 mb 0.00 in0.0 mm 0.00 in0.0 mm 0.00 in0.0 mm
08:24 AM 22.8°F-5.1°C 0.5°F-17.5°C 37% Calm Calm 1.6 mph2.6 kmh 29.22 in989.5 mb 0.00 in0.0 mm 0.00 in0.0 mm 0.00 in0.0 mm
08:23 AM 22.1°F-5.5°C -0.1°F-17.8°C 37% 0.7 mph SW1.1 kmh SW 1.6 mph2.6 kmh 29.22 in989.5 mb 0.00 in0.0 mm 0.00 in0.0 mm 0.00 in0.0 mm
08:22 AM 21.9°F-5.6°C -0.3°F-17.9°C 37% 0.7 mph SW1.1 kmh SW 1.6 mph2.6 kmh 29.22 in989.5 mb 0.00 in0.0 mm 0.00 in0.0 mm 0.00 in0.0 mm
08:21 AM 21.6°F-5.8°C -0.6°F-18.1°C 37% 0.7 mph SW1.1 kmh SW 1.6 mph2.6 kmh 29.21 in989.2 mb 0.00 in0.0 mm 0.00 in0.0 mm 0.00 in0.0 mm
08:20 AM 21.4°F-5.9°C -0.8°F-18.2°C 37% 0.7 mph SW1.1 kmh SW 1.6 mph2.6 kmh 29.21 in989.2 mb 0.00 in0.0 mm 0.00 in0.0 mm 0.00 in0.0 mm
08:19 AM 21.0°F-6.1°C -1.1°F-18.4°C 37% Calm Calm 1.6 mph2.6 kmh 29.22 in989.5 mb 0.00 in0.0 mm 0.00 in0.0 mm 0.00 in0.0 mm
08:18 AM 20.7°F-6.3°C -1.4°F-18.6°C 37% Calm Calm 1.6 mph2.6 kmh 29.21 in989.2 mb 0.00 in0.0 mm 0.00 in0.0 mm 0.00 in0.0 mm
08:17 AM 20.5°F-6.4°C -1.6°F-18.7°C 37% Calm Calm 1.6 mph2.6 kmh 29.21 in989.2 mb 0.00 in0.0 mm 0.00 in0.0 mm 0.00 in0.0 mm
08:16 AM 20.3°F-6.5°C -1.7°F-18.7°C 37% Calm Calm 1.6 mph2.6 kmh 29.21 in989.2 mb 0.00 in0.0 mm 0.00 in0.0 mm 0.00 in0.0 mm
08:15 AM 19.9°F-6.7°C -2.1°F-18.9°C 37% Calm Calm 1.6 mph2.6 kmh 29.22 in989.5 mb 0.00 in0.0 mm 0.00 in0.0 mm 0.00 in0.0 mm
08:14 AM 19.8°F-6.8°C -2.2°F-19.0°C 37% Calm Calm 1.6 mph2.6 kmh 29.21 in989.2 mb 0.00 in0.0 mm 0.00 in0.0 mm 0.00 in0.0 mm
08:13 AM 19.6°F-6.9°C -2.4°F-19.1°C 37% Calm Calm 1.6 mph2.6 kmh 29.22 in989.5 mb 0.00 in0.0 mm 0.00 in0.0 mm 0.00 in0.0 mm
08:12 AM 19.4°F-7.0°C -2.5°F-19.2°C 37% Calm Calm 1.6 mph2.6 kmh 29.22 in989.5 mb 0.00 in0.0 mm 0.00 in0.0 mm 0.00 in0.0 mm
08:11 AM 19.2°F-7.1°C -2.7°F-19.3°C 37% Calm Calm 1.6 mph2.6 kmh 29.21 in989.2 mb 0.00 in0.0 mm 0.00 in0.0 mm 0.00 in0.0 mm
08:10 AM 19.0°F-7.2°C -2.9°F-19.4°C 37% Calm Calm 1.6 mph2.6 kmh 29.22 in989.5 mb 0.00 in0.0 mm 0.00 in0.0 mm 0.00 in0.0 mm
08:09 AM 18.9°F-7.3°C -3.0°F-19.4°C 37% Calm Calm 1.6 mph2.6 kmh 29.22 in989.5 mb 0.00 in0.0 mm 0.00 in0.0 mm 0.00 in0.0 mm
08:08 AM 18.7°F-7.4°C -3.2°F-19.6°C 37% Calm Calm 1.6 mph2.6 kmh 29.22 in989.5 mb 0.00 in0.0 mm 0.00 in0.0 mm 0.00 in0.0 mm
08:07 AM 18.5°F-7.5°C -3.4°F-19.7°C 37% 0.7 mph SW1.1 kmh SW 1.6 mph2.6 kmh 29.21 in989.2 mb 0.00 in0.0 mm 0.00 in0.0 mm 0.00 in0.0 mm
08:06 AM 18.3°F-7.6°C -3.5°F-19.7°C 37% Calm Calm 1.6 mph2.6 kmh 29.22 in989.5 mb 0.00 in0.0 mm 0.00 in0.0 mm 0.00 in0.0 mm
08:05 AM 18.3°F-7.6°C -3.5°F-19.7°C 37% 0.7 mph SW1.1 kmh SW 1.6 mph2.6 kmh 29.22 in989.5 mb 0.00 in0.0 mm 0.00 in0.0 mm 0.00 in0.0 mm
08:04 AM 18.1°F-7.7°C -3.7°F-19.8°C 37% 0.7 mph SW1.1 kmh SW 1.6 mph2.6 kmh 29.22 in989.5 mb 0.00 in0.0 mm 0.00 in0.0 mm 0.00 in0.0 mm
08:03 AM 18.0°F-7.8°C -3.8°F-19.9°C 37% Calm Calm 1.6 mph2.6 kmh 29.22 in989.5 mb 0.00 in0.0 mm 0.00 in0.0 mm 0.00 in0.0 mm
08:02 AM 17.8°F-7.9°C -4.0°F-20.0°C 37% Calm Calm 1.6 mph2.6 kmh 29.22 in989.5 mb 0.00 in0.0 mm 0.00 in0.0 mm 0.00 in0.0 mm
08:01 AM 17.8°F-7.9°C -4.0°F-20.0°C 37% Calm Calm 1.6 mph2.6 kmh 29.22 in989.5 mb 0.00 in0.0 mm 0.00 in0.0 mm 0.00 in0.0 mm
08:00 AM 17.6°F-8.0°C -4.2°F-20.1°C 37% Calm Calm 1.6 mph2.6 kmh 29.22 in989.5 mb 0.00 in0.0 mm 0.00 in0.0 mm 0.00 in0.0 mm
07:59 AM 17.6°F-8.0°C -4.2°F-20.1°C 37% 0.7 mph SW1.1 kmh SW 1.6 mph2.6 kmh 29.22 in989.5 mb 0.00 in0.0 mm 0.00 in0.0 mm 0.00 in0.0 mm
07:58 AM 17.6°F-8.0°C -4.2°F-20.1°C 37% 0.7 mph SW1.1 kmh SW 1.6 mph2.6 kmh 29.22 in989.5 mb 0.00 in0.0 mm 0.00 in0.0 mm 0.00 in0.0 mm
07:57 AM 17.4°F-8.1°C -4.3°F-20.2°C 37% Calm Calm 1.6 mph2.6 kmh 29.22 in989.5 mb 0.00 in0.0 mm 0.00 in0.0 mm 0.00 in0.0 mm
07:56 AM 17.4°F-8.1°C -4.3°F-20.2°C 37% Calm Calm 1.6 mph2.6 kmh 29.21 in989.2 mb 0.00 in0.0 mm 0.00 in0.0 mm 0.00 in0.0 mm
07:55 AM 17.2°F-8.2°C -4.5°F-20.3°C 37% Calm Calm 1.6 mph2.6 kmh 29.21 in989.2 mb 0.00 in0.0 mm 0.00 in0.0 mm 0.00 in0.0 mm
07:54 AM 17.2°F-8.2°C -4.5°F-20.3°C 37% 0.7 mph SW1.1 kmh SW 2.2 mph3.5 kmh 29.22 in989.5 mb 0.00 in0.0 mm 0.00 in0.0 mm 0.00 in0.0 mm
07:53 AM 17.1°F-8.3°C -4.6°F-20.3°C 37% Calm Calm 2.2 mph3.5 kmh 29.22 in989.5 mb 0.00 in0.0 mm 0.00 in0.0 mm 0.00 in0.0 mm
07:52 AM 17.1°F-8.3°C -4.6°F-20.3°C 37% Calm Calm 2.2 mph3.5 kmh 29.21 in989.2 mb 0.00 in0.0 mm 0.00 in0.0 mm 0.00 in0.0 mm
07:51 AM 16.9°F-8.4°C -4.8°F-20.4°C 37% Calm Calm 2.2 mph3.5 kmh 29.21 in989.2 mb 0.00 in0.0 mm 0.00 in0.0 mm 0.00 in0.0 mm
07:50 AM 16.9°F-8.4°C -4.8°F-20.4°C 37% Calm Calm 2.2 mph3.5 kmh 29.21 in989.2 mb 0.00 in0.0 mm 0.00 in0.0 mm 0.00 in0.0 mm
07:49 AM 16.7°F-8.5°C -5.0°F-20.6°C 37% 0.7 mph SW1.1 kmh SW 2.2 mph3.5 kmh 29.21 in989.2 mb 0.00 in0.0 mm 0.00 in0.0 mm 0.00 in0.0 mm
07:48 AM 16.7°F-8.5°C -5.0°F-20.6°C 37% 0.7 mph SW1.1 kmh SW 3.1 mph5.0 kmh 29.21 in989.2 mb 0.00 in0.0 mm 0.00 in0.0 mm 0.00 in0.0 mm
07:47 AM 16.5°F-8.6°C -5.1°F-20.6°C 37% Calm Calm 3.1 mph5.0 kmh 29.21 in989.2 mb 0.00 in0.0 mm 0.00 in0.0 mm 0.00 in0.0 mm
07:46 AM 16.3°F-8.7°C -5.3°F-20.7°C 37% 0.7 mph SW1.1 kmh SW 3.1 mph5.0 kmh 29.21 in989.2 mb 0.00 in0.0 mm 0.00 in0.0 mm 0.00 in0.0 mm
07:45 AM 16.2°F-8.8°C -5.4°F-20.8°C 37% 0.7 mph SW1.1 kmh SW 3.1 mph5.0 kmh 29.21 in989.2 mb 0.00 in0.0 mm 0.00 in0.0 mm 0.00 in0.0 mm
07:44 AM 16.2°F-8.8°C -5.4°F-20.8°C 37% 1.6 mph SW2.6 kmh SW 3.1 mph5.0 kmh 29.21 in989.2 mb 0.00 in0.0 mm 0.00 in0.0 mm 0.00 in0.0 mm
07:43 AM 15.8°F-9.0°C -5.8°F-21.0°C 37% Calm Calm 3.1 mph5.0 kmh 29.21 in989.2 mb 0.00 in0.0 mm 0.00 in0.0 mm 0.00 in0.0 mm
07:42 AM 15.4°F-9.2°C -6.1°F-21.2°C 37% 0.7 mph SW1.1 kmh SW 3.1 mph5.0 kmh 29.21 in989.2 mb 0.00 in0.0 mm 0.00 in0.0 mm 0.00 in0.0 mm
07:41 AM 15.4°F-9.2°C -6.1°F-21.2°C 37% 0.7 mph SW1.1 kmh SW 3.1 mph5.0 kmh 29.21 in989.2 mb 0.00 in0.0 mm 0.00 in0.0 mm 0.00 in0.0 mm
07:40 AM 15.3°F-9.3°C -6.3°F-21.3°C 37% Calm Calm 3.1 mph5.0 kmh 29.22 in989.5 mb 0.00 in0.0 mm 0.00 in0.0 mm 0.00 in0.0 mm
07:39 AM 14.9°F-9.5°C -6.6°F-21.4°C 37% 2.2 mph SW3.5 kmh SW 3.1 mph5.0 kmh 29.21 in989.2 mb 0.00 in0.0 mm 0.00 in0.0 mm 0.00 in0.0 mm
07:38 AM 14.9°F-9.5°C -6.6°F-21.4°C 37% 2.2 mph SW3.5 kmh SW 3.1 mph5.0 kmh 29.21 in989.2 mb 0.00 in0.0 mm 0.00 in0.0 mm 0.00 in0.0 mm
07:37 AM 15.1°F-9.4°C -6.4°F-21.3°C 37% 1.6 mph SW2.6 kmh SW 3.1 mph5.0 kmh 29.21 in989.2 mb 0.00 in0.0 mm 0.00 in0.0 mm 0.00 in0.0 mm
07:36 AM 15.1°F-9.4°C -6.4°F-21.3°C 37% 1.6 mph SW2.6 kmh SW 3.1 mph5.0 kmh 29.21 in989.2 mb 0.00 in0.0 mm 0.00 in0.0 mm 0.00 in0.0 mm
07:35 AM 15.4°F-9.2°C -6.1°F-21.2°C 37% 2.2 mph SW3.5 kmh SW 3.1 mph5.0 kmh 29.21 in989.2 mb 0.00 in0.0 mm 0.00 in0.0 mm 0.00 in0.0 mm
07:34 AM 15.6°F-9.1°C -5.9°F-21.1°C 37% 2.2 mph SW3.5 kmh SW 3.1 mph5.0 kmh 29.21 in989.2 mb 0.00 in0.0 mm 0.00 in0.0 mm 0.00 in0.0 mm
07:33 AM 15.8°F-9.0°C -5.8°F-21.0°C 37% 2.2 mph SW3.5 kmh SW 3.1 mph5.0 kmh 29.21 in989.2 mb 0.00 in0.0 mm 0.00 in0.0 mm 0.00 in0.0 mm
07:32 AM 15.8°F-9.0°C -5.8°F-21.0°C 37% 1.6 mph SW2.6 kmh SW 2.2 mph3.5 kmh 29.21 in989.2 mb 0.00 in0.0 mm 0.00 in0.0 mm 0.00 in0.0 mm
07:31 AM 16.0°F-8.9°C -5.6°F-20.9°C 37% 0.7 mph SW1.1 kmh SW 3.1 mph5.0 kmh 29.21 in989.2 mb 0.00 in0.0 mm 0.00 in0.0 mm 0.00 in0.0 mm
07:30 AM 15.8°F-9.0°C -5.8°F-21.0°C 37% 0.7 mph SW1.1 kmh SW 3.1 mph5.0 kmh 29.21 in989.2 mb 0.00 in0.0 mm 0.00 in0.0 mm 0.00 in0.0 mm
07:29 AM 15.8°F-9.0°C -5.8°F-21.0°C 37% Calm Calm 3.1 mph5.0 kmh 29.21 in989.2 mb 0.00 in0.0 mm 0.00 in0.0 mm 0.00 in0.0 mm
07:28 AM 15.6°F-9.1°C -5.9°F-21.1°C 37% Calm Calm 3.1 mph5.0 kmh 29.21 in989.2 mb 0.00 in0.0 mm 0.00 in0.0 mm 0.00 in0.0 mm
07:27 AM 15.3°F-9.3°C -6.3°F-21.3°C 37% Calm Calm 3.1 mph5.0 kmh 29.21 in989.2 mb 0.00 in0.0 mm 0.00 in0.0 mm 0.00 in0.0 mm
07:26 AM 15.3°F-9.3°C -6.3°F-21.3°C 37% 0.7 mph SW1.1 kmh SW 3.1 mph5.0 kmh 29.21 in989.2 mb 0.00 in0.0 mm 0.00 in0.0 mm 0.00 in0.0 mm
07:25 AM 15.1°F-9.4°C -6.4°F-21.3°C 37% 0.7 mph SW1.1 kmh SW 3.1 mph5.0 kmh 29.21 in989.2 mb 0.00 in0.0 mm 0.00 in0.0 mm 0.00 in0.0 mm
07:24 AM 15.1°F-9.4°C -6.4°F-21.3°C 37% 0.7 mph SW1.1 kmh SW 3.1 mph5.0 kmh 29.21 in989.2 mb 0.00 in0.0 mm 0.00 in0.0 mm 0.00 in0.0 mm
07:23 AM 14.9°F-9.5°C -6.6°F-21.4°C 37% Calm Calm 3.1 mph5.0 kmh 29.21 in989.2 mb 0.00 in0.0 mm 0.00 in0.0 mm 0.00 in0.0 mm
07:22 AM 14.9°F-9.5°C -6.6°F-21.4°C 37% 0.7 mph SW1.1 kmh SW 3.1 mph5.0 kmh 29.20 in988.8 mb 0.00 in0.0 mm 0.00 in0.0 mm 0.00 in0.0 mm
07:21 AM 14.9°F-9.5°C -6.6°F-21.4°C 37% 1.6 mph SW2.6 kmh SW 3.1 mph5.0 kmh 29.20 in988.8 mb 0.00 in0.0 mm 0.00 in0.0 mm 0.00 in0.0 mm
07:20 AM 14.7°F-9.6°C -6.7°F-21.5°C 37% 0.7 mph SW1.1 kmh SW 3.1 mph5.0 kmh 29.21 in989.2 mb 0.00 in0.0 mm 0.00 in0.0 mm 0.00 in0.0 mm
07:19 AM 14.5°F-9.7°C -6.9°F-21.6°C 37% Calm Calm 3.1 mph5.0 kmh 29.20 in988.8 mb 0.00 in0.0 mm 0.00 in0.0 mm 0.00 in0.0 mm
07:18 AM 14.5°F-9.7°C -6.9°F-21.6°C 37% Calm Calm 3.1 mph5.0 kmh 29.20 in988.8 mb 0.00 in0.0 mm 0.00 in0.0 mm 0.00 in0.0 mm
07:17 AM 14.7°F-9.6°C -6.7°F-21.5°C 37% Calm Calm 3.1 mph5.0 kmh 29.21 in989.2 mb 0.00 in0.0 mm 0.00 in0.0 mm 0.00 in0.0 mm
07:16 AM 14.9°F-9.5°C -6.6°F-21.4°C 37% 2.2 mph SW3.5 kmh SW 3.1 mph5.0 kmh 29.21 in989.2 mb 0.00 in0.0 mm 0.00 in0.0 mm 0.00 in0.0 mm
07:15 AM 14.9°F-9.5°C -6.6°F-21.4°C 37% 2.2 mph SW3.5 kmh SW 3.1 mph5.0 kmh 29.20 in988.8 mb 0.00 in0.0 mm 0.00 in0.0 mm 0.00 in0.0 mm
07:14 AM 14.9°F-9.5°C -6.6°F-21.4°C 37% 2.2 mph SW3.5 kmh SW 3.1 mph5.0 kmh 29.21 in989.2 mb 0.00 in0.0 mm 0.00 in0.0 mm 0.00 in0.0 mm
07:13 AM 14.9°F-9.5°C -6.6°F-21.4°C 37% 1.6 mph SW2.6 kmh SW 2.2 mph3.5 kmh 29.21 in989.2 mb 0.00 in0.0 mm 0.00 in0.0 mm 0.00 in0.0 mm
07:12 AM 14.9°F-9.5°C -6.6°F-21.4°C 37% Calm Calm 1.6 mph2.6 kmh 29.20 in988.8 mb 0.00 in0.0 mm 0.00 in0.0 mm 0.00 in0.0 mm
07:11 AM 15.1°F-9.4°C -6.4°F-21.3°C 37% 0.7 mph SW1.1 kmh SW 1.6 mph2.6 kmh 29.21 in989.2 mb 0.00 in0.0 mm 0.00 in0.0 mm 0.00 in0.0 mm
07:10 AM 14.9°F-9.5°C -6.6°F-21.4°C 37% Calm Calm 1.6 mph2.6 kmh 29.20 in988.8 mb 0.00 in0.0 mm 0.00 in0.0 mm 0.00 in0.0 mm
07:09 AM 14.9°F-9.5°C -6.6°F-21.4°C 37% Calm Calm 1.6 mph2.6 kmh 29.21 in989.2 mb 0.00 in0.0 mm 0.00 in0.0 mm 0.00 in0.0 mm
07:08 AM 14.9°F-9.5°C -6.6°F-21.4°C 37% Calm Calm 1.6 mph2.6 kmh 29.21 in989.2 mb 0.00 in0.0 mm 0.00 in0.0 mm 0.00 in0.0 mm
07:07 AM 14.9°F-9.5°C -6.6°F-21.4°C 37% Calm Calm 2.2 mph3.5 kmh 29.21 in989.2 mb 0.00 in0.0 mm 0.00 in0.0 mm 0.00 in0.0 mm
07:06 AM 14.9°F-9.5°C -6.6°F-21.4°C 37% Calm Calm 3.1 mph5.0 kmh 29.21 in989.2 mb 0.00 in0.0 mm 0.00 in0.0 mm 0.00 in0.0 mm
07:05 AM 14.9°F-9.5°C -6.6°F-21.4°C 37% Calm Calm 3.1 mph5.0 kmh 29.20 in988.8 mb 0.00 in0.0 mm 0.00 in0.0 mm 0.00 in0.0 mm
07:04 AM 14.7°F-9.6°C -6.7°F-21.5°C 37% 0.7 mph SW1.1 kmh SW 3.1 mph5.0 kmh 29.21 in989.2 mb 0.00 in0.0 mm 0.00 in0.0 mm 0.00 in0.0 mm
07:03 AM 14.7°F-9.6°C -6.7°F-21.5°C 37% Calm Calm 3.1 mph5.0 kmh 29.20 in988.8 mb 0.00 in0.0 mm 0.00 in0.0 mm 0.00 in0.0 mm
07:02 AM 14.7°F-9.6°C -6.7°F-21.5°C 37% 0.7 mph SW1.1 kmh SW 3.1 mph5.0 kmh 29.20 in988.8 mb 0.00 in0.0 mm 0.00 in0.0 mm 0.00 in0.0 mm
07:01 AM 14.7°F-9.6°C -6.7°F-21.5°C 37% 0.7 mph SW1.1 kmh SW 3.1 mph5.0 kmh 29.20 in988.8 mb 0.00 in0.0 mm 0.00 in0.0 mm 0.00 in0.0 mm
07:00 AM 14.7°F-9.6°C -6.7°F-21.5°C 37% 0.7 mph SW1.1 kmh SW 3.1 mph5.0 kmh 29.21 in989.2 mb 0.00 in0.0 mm 0.00 in0.0 mm 0.00 in0.0 mm
06:59 AM 14.7°F-9.6°C -6.7°F-21.5°C 37% Calm Calm 3.1 mph5.0 kmh 29.20 in988.8 mb 0.00 in0.0 mm 0.00 in0.0 mm 0.00 in0.0 mm
06:58 AM 14.7°F-9.6°C -6.7°F-21.5°C 37% 0.7 mph SW1.1 kmh SW 3.1 mph5.0 kmh 29.20 in988.8 mb 0.00 in0.0 mm 0.00 in0.0 mm 0.00 in0.0 mm
06:57 AM 14.9°F-9.5°C -6.6°F-21.4°C 37% 0.7 mph SW1.1 kmh SW 3.1 mph5.0 kmh 29.20 in988.8 mb 0.00 in0.0 mm 0.00 in0.0 mm 0.00 in0.0 mm
06:56 AM 14.9°F-9.5°C -6.6°F-21.4°C 37% 1.6 mph SW2.6 kmh SW 3.1 mph5.0 kmh 29.20 in988.8 mb 0.00 in0.0 mm 0.00 in0.0 mm 0.00 in0.0 mm
06:55 AM 14.7°F-9.6°C -6.7°F-21.5°C 37% Calm Calm 2.2 mph3.5 kmh 29.21 in989.2 mb 0.00 in0.0 mm 0.00 in0.0 mm 0.00 in0.0 mm
06:54 AM 14.7°F-9.6°C -6.7°F-21.5°C 37% 0.7 mph SW1.1 kmh SW 2.2 mph3.5 kmh 29.20 in988.8 mb 0.00 in0.0 mm 0.00 in0.0 mm 0.00 in0.0 mm
06:53 AM 14.5°F-9.7°C -6.9°F-21.6°C 37% 0.7 mph SW1.1 kmh SW 2.2 mph3.5 kmh 29.20 in988.8 mb 0.00 in0.0 mm 0.00 in0.0 mm 0.00 in0.0 mm
06:52 AM 14.5°F-9.7°C -6.9°F-21.6°C 37% Calm Calm 2.2 mph3.5 kmh 29.20 in988.8 mb 0.00 in0.0 mm 0.00 in0.0 mm 0.00 in0.0 mm
06:51 AM 14.4°F-9.8°C -7.1°F-21.7°C 37% 1.6 mph SW2.6 kmh SW 2.2 mph3.5 kmh 29.20 in988.8 mb 0.00 in0.0 mm 0.00 in0.0 mm 0.00 in0.0 mm
06:50 AM 14.4°F-9.8°C -7.1°F-21.7°C 37% 0.7 mph SW1.1 kmh SW 3.1 mph5.0 kmh 29.20 in988.8 mb 0.00 in0.0 mm 0.00 in0.0 mm 0.00 in0.0 mm
06:49 AM 14.2°F-9.9°C -7.2°F-21.8°C 37% Calm Calm 3.1 mph5.0 kmh 29.20 in988.8 mb 0.00 in0.0 mm 0.00 in0.0 mm 0.00 in0.0 mm
06:48 AM 14.2°F-9.9°C -7.2°F-21.8°C 37% 0.7 mph SW1.1 kmh SW 3.1 mph5.0 kmh 29.20 in988.8 mb 0.00 in0.0 mm 0.00 in0.0 mm 0.00 in0.0 mm
06:47 AM 14.2°F-9.9°C -7.2°F-21.8°C 37% Calm Calm 3.1 mph5.0 kmh 29.20 in988.8 mb 0.00 in0.0 mm 0.00 in0.0 mm 0.00 in0.0 mm
06:46 AM 14.2°F-9.9°C -7.2°F-21.8°C 37% 0.7 mph SW1.1 kmh SW 3.1 mph5.0 kmh 29.20 in988.8 mb 0.00 in0.0 mm 0.00 in0.0 mm 0.00 in0.0 mm
06:45 AM 14.2°F-9.9°C -7.2°F-21.8°C 37% 0.7 mph SW1.1 kmh SW 3.8 mph6.1 kmh 29.20 in988.8 mb 0.00 in0.0 mm 0.00 in0.0 mm 0.00 in0.0 mm
06:44 AM 14.0°F-10.0°C -7.4°F-21.9°C 37% 0.7 mph SW1.1 kmh SW 3.8 mph6.1 kmh 29.20 in988.8 mb 0.00 in0.0 mm 0.00 in0.0 mm 0.00 in0.0 mm
06:43 AM 14.0°F-10.0°C -7.4°F-21.9°C 37% 1.6 mph SW2.6 kmh SW 3.8 mph6.1 kmh 29.20 in988.8 mb 0.00 in0.0 mm 0.00 in0.0 mm 0.00 in0.0 mm
06:42 AM 14.0°F-10.0°C -7.4°F-21.9°C 37% 0.7 mph SW1.1 kmh SW 3.8 mph6.1 kmh 29.20 in988.8 mb 0.00 in0.0 mm 0.00 in0.0 mm 0.00 in0.0 mm
06:41 AM 14.0°F-10.0°C -7.4°F-21.9°C 37% 0.7 mph SW1.1 kmh SW 3.8 mph6.1 kmh 29.20 in988.8 mb 0.00 in0.0 mm 0.00 in0.0 mm 0.00 in0.0 mm
06:40 AM 13.8°F-10.1°C -7.5°F-21.9°C 37% 2.2 mph SW3.5 kmh SW 3.8 mph6.1 kmh 29.20 in988.8 mb 0.00 in0.0 mm 0.00 in0.0 mm 0.00 in0.0 mm
06:39 AM 13.6°F-10.2°C -7.7°F-22.1°C 37% 0.7 mph SW1.1 kmh SW 3.8 mph6.1 kmh 29.20 in988.8 mb 0.00 in0.0 mm 0.00 in0.0 mm 0.00 in0.0 mm
06:38 AM 13.6°F-10.2°C -7.7°F-22.1°C 37% Calm Calm 3.8 mph6.1 kmh 29.20 in988.8 mb 0.00 in0.0 mm 0.00 in0.0 mm 0.00 in0.0 mm
06:37 AM 13.6°F-10.2°C -7.7°F-22.1°C 37% 0.7 mph SW1.1 kmh SW 3.8 mph6.1 kmh 29.20 in988.8 mb 0.00 in0.0 mm 0.00 in0.0 mm 0.00 in0.0 mm
06:36 AM 13.6°F-10.2°C -7.7°F-22.1°C 37% Calm Calm 3.8 mph6.1 kmh 29.20 in988.8 mb 0.00 in0.0 mm 0.00 in0.0 mm 0.00 in0.0 mm
06:35 AM 13.8°F-10.1°C -7.5°F-21.9°C 37% 2.2 mph SW3.5 kmh SW 3.8 mph6.1 kmh 29.20 in988.8 mb 0.00 in0.0 mm 0.00 in0.0 mm 0.00 in0.0 mm
06:34 AM 14.0°F-10.0°C -7.4°F-21.9°C 37% 3.1 mph SSW5.0 kmh SSW 3.8 mph6.1 kmh 29.20 in988.8 mb 0.00 in0.0 mm 0.00 in0.0 mm 0.00 in0.0 mm
06:33 AM 14.2°F-9.9°C -7.2°F-21.8°C 37% 2.2 mph SSW3.5 kmh SSW 3.8 mph6.1 kmh 29.20 in988.8 mb 0.00 in0.0 mm 0.00 in0.0 mm 0.00 in0.0 mm
06:32 AM 14.2°F-9.9°C -7.2°F-21.8°C 37% 2.2 mph SSW3.5 kmh SSW 3.1 mph5.0 kmh 29.20 in988.8 mb 0.00 in0.0 mm 0.00 in0.0 mm 0.00 in0.0 mm
06:31 AM 14.5°F-9.7°C -6.9°F-21.6°C 37% 2.2 mph S3.5 kmh S 3.1 mph5.0 kmh 29.20 in988.8 mb 0.00 in0.0 mm 0.00 in0.0 mm 0.00 in0.0 mm
06:30 AM 14.7°F-9.6°C -6.7°F-21.5°C 37% 2.2 mph S3.5 kmh S 3.1 mph5.0 kmh 29.20 in988.8 mb 0.00 in0.0 mm 0.00 in0.0 mm 0.00 in0.0 mm
06:29 AM 14.7°F-9.6°C -6.7°F-21.5°C 37% 1.6 mph S2.6 kmh S 3.1 mph5.0 kmh 29.20 in988.8 mb 0.00 in0.0 mm 0.00 in0.0 mm 0.00 in0.0 mm
06:28 AM 14.7°F-9.6°C -6.7°F-21.5°C 37% 0.7 mph S1.1 kmh S 2.2 mph3.5 kmh 29.20 in988.8 mb 0.00 in0.0 mm 0.00 in0.0 mm 0.00 in0.0 mm
06:27 AM 14.7°F-9.6°C -6.7°F-21.5°C 37% 0.7 mph S1.1 kmh S 2.2 mph3.5 kmh 29.20 in988.8 mb 0.00 in0.0 mm 0.00 in0.0 mm 0.00 in0.0 mm
06:26 AM 14.9°F-9.5°C -6.6°F-21.4°C 37% 1.6 mph S2.6 kmh S 2.2 mph3.5 kmh 29.20 in988.8 mb 0.00 in0.0 mm 0.00 in0.0 mm 0.00 in0.0 mm
06:25 AM 14.9°F-9.5°C -6.6°F-21.4°C 37% 1.6 mph S2.6 kmh S 2.2 mph3.5 kmh 29.19 in988.5 mb 0.00 in0.0 mm 0.00 in0.0 mm 0.00 in0.0 mm
06:24 AM 14.9°F-9.5°C -6.6°F-21.4°C 37% 1.6 mph S2.6 kmh S 2.2 mph3.5 kmh 29.19 in988.5 mb 0.00 in0.0 mm 0.00 in0.0 mm 0.00 in0.0 mm
06:23 AM 14.9°F-9.5°C -6.6°F-21.4°C 37% Calm Calm 2.2 mph3.5 kmh 29.20 in988.8 mb 0.00 in0.0 mm 0.00 in0.0 mm 0.00 in0.0 mm
06:22 AM 14.7°F-9.6°C -6.7°F-21.5°C 37% Calm Calm 2.2 mph3.5 kmh 29.20 in988.8 mb 0.00 in0.0 mm 0.00 in0.0 mm 0.00 in0.0 mm
06:21 AM 14.7°F-9.6°C -6.7°F-21.5°C 37% Calm Calm 2.2 mph3.5 kmh 29.20 in988.8 mb 0.00 in0.0 mm 0.00 in0.0 mm 0.00 in0.0 mm
06:20 AM 14.7°F-9.6°C -6.7°F-21.5°C 37% Calm Calm 2.2 mph3.5 kmh 29.19 in988.5 mb 0.00 in0.0 mm 0.00 in0.0 mm 0.00 in0.0 mm
06:19 AM 14.7°F-9.6°C -6.7°F-21.5°C 37% Calm Calm 2.2 mph3.5 kmh 29.19 in988.5 mb 0.00 in0.0 mm 0.00 in0.0 mm 0.00 in0.0 mm
06:18 AM 14.7°F-9.6°C -6.7°F-21.5°C 37% Calm Calm 2.2 mph3.5 kmh 29.20 in988.8 mb 0.00 in0.0 mm 0.00 in0.0 mm 0.00 in0.0 mm
06:17 AM 14.9°F-9.5°C -6.6°F-21.4°C 37% Calm Calm 2.2 mph3.5 kmh 29.19 in988.5 mb 0.00 in0.0 mm 0.00 in0.0 mm 0.00 in0.0 mm
06:16 AM 14.9°F-9.5°C -6.6°F-21.4°C 37% 0.7 mph S1.1 kmh S 2.2 mph3.5 kmh 29.20 in988.8 mb 0.00 in0.0 mm 0.00 in0.0 mm 0.00 in0.0 mm
06:15 AM 15.1°F-9.4°C -6.4°F-21.3°C 37% 1.6 mph S2.6 kmh S 2.2 mph3.5 kmh 29.19 in988.5 mb 0.00 in0.0 mm 0.00 in0.0 mm 0.00 in0.0 mm
06:14 AM 15.1°F-9.4°C -6.4°F-21.3°C 37% 1.6 mph S2.6 kmh S 2.2 mph3.5 kmh 29.20 in988.8 mb 0.00 in0.0 mm 0.00 in0.0 mm 0.00 in0.0 mm
06:13 AM 15.1°F-9.4°C -6.4°F-21.3°C 37% 0.7 mph S1.1 kmh S 1.6 mph2.6 kmh 29.20 in988.8 mb 0.00 in0.0 mm 0.00 in0.0 mm 0.00 in0.0 mm
06:12 AM 15.1°F-9.4°C -6.4°F-21.3°C 37% 0.7 mph S1.1 kmh S 1.6 mph2.6 kmh 29.20 in988.8 mb 0.00 in0.0 mm 0.00 in0.0 mm 0.00 in0.0 mm
06:11 AM 15.3°F-9.3°C -6.3°F-21.3°C 37% 0.7 mph S1.1 kmh S 1.6 mph2.6 kmh 29.20 in988.8 mb 0.00 in0.0 mm 0.00 in0.0 mm 0.00 in0.0 mm
06:10 AM 15.1°F-9.4°C -6.4°F-21.3°C 37% Calm Calm 1.6 mph2.6 kmh 29.20 in988.8 mb 0.00 in0.0 mm 0.00 in0.0 mm 0.00 in0.0 mm
06:09 AM 15.3°F-9.3°C -6.3°F-21.3°C 37% Calm Calm 1.6 mph2.6 kmh 29.19 in988.5 mb 0.00 in0.0 mm 0.00 in0.0 mm 0.00 in0.0 mm
06:08 AM 15.3°F-9.3°C -6.3°F-21.3°C 37% Calm Calm 1.6 mph2.6 kmh 29.20 in988.8 mb 0.00 in0.0 mm 0.00 in0.0 mm 0.00 in0.0 mm
06:07 AM 15.3°F-9.3°C -6.3°F-21.3°C 37% Calm Calm 0.7 mph1.1 kmh 29.20 in988.8 mb 0.00 in0.0 mm 0.00 in0.0 mm 0.00 in0.0 mm
06:06 AM 15.4°F-9.2°C -6.1°F-21.2°C 37% Calm Calm 0.7 mph1.1 kmh 29.20 in988.8 mb 0.00 in0.0 mm 0.00 in0.0 mm 0.00 in0.0 mm
06:05 AM 15.4°F-9.2°C -6.1°F-21.2°C 37% Calm Calm 0.7 mph1.1 kmh 29.20 in988.8 mb 0.00 in0.0 mm 0.00 in0.0 mm 0.00 in0.0 mm
06:04 AM 15.4°F-9.2°C -6.1°F-21.2°C 37% Calm Calm 1.6 mph2.6 kmh 29.20 in988.8 mb 0.00 in0.0 mm 0.00 in0.0 mm 0.00 in0.0 mm
06:03 AM 15.4°F-9.2°C -6.1°F-21.2°C 37% Calm Calm 1.6 mph2.6 kmh 29.20 in988.8 mb 0.00 in0.0 mm 0.00 in0.0 mm 0.00 in0.0 mm
06:02 AM 15.4°F-9.2°C -6.1°F-21.2°C 37% Calm Calm 1.6 mph2.6 kmh 29.20 in988.8 mb 0.00 in0.0 mm 0.00 in0.0 mm 0.00 in0.0 mm
06:01 AM 15.4°F-9.2°C -6.1°F-21.2°C 37% Calm Calm 1.6 mph2.6 kmh 29.20 in988.8 mb 0.00 in0.0 mm 0.00 in0.0 mm 0.00 in0.0 mm
06:00 AM 15.4°F-9.2°C -6.1°F-21.2°C 37% Calm Calm 2.2 mph3.5 kmh 29.20 in988.8 mb 0.00 in0.0 mm 0.00 in0.0 mm 0.00 in0.0 mm
05:59 AM 15.4°F-9.2°C -6.1°F-21.2°C 37% Calm Calm 2.2 mph3.5 kmh 29.20 in988.8 mb 0.00 in0.0 mm 0.00 in0.0 mm 0.00 in0.0 mm
05:58 AM 15.3°F-9.3°C -6.3°F-21.3°C 37% Calm Calm 2.2 mph3.5 kmh 29.20 in988.8 mb 0.00 in0.0 mm 0.00 in0.0 mm 0.00 in0.0 mm
05:57 AM 15.4°F-9.2°C -6.1°F-21.2°C 37% Calm Calm 2.2 mph3.5 kmh 29.20 in988.8 mb 0.00 in0.0 mm 0.00 in0.0 mm 0.00 in0.0 mm
05:56 AM 15.3°F-9.3°C -6.3°F-21.3°C 37% Calm Calm 2.2 mph3.5 kmh 29.20 in988.8 mb 0.00 in0.0 mm 0.00 in0.0 mm 0.00 in0.0 mm
05:55 AM 15.3°F-9.3°C -6.3°F-21.3°C 37% Calm Calm 2.2 mph3.5 kmh 29.20 in988.8 mb 0.00 in0.0 mm 0.00 in0.0 mm 0.00 in0.0 mm
05:54 AM 15.3°F-9.3°C -6.3°F-21.3°C 37% 0.7 mph S1.1 kmh S 2.2 mph3.5 kmh 29.20 in988.8 mb 0.00 in0.0 mm 0.00 in0.0 mm 0.00 in0.0 mm
05:53 AM 15.3°F-9.3°C -6.3°F-21.3°C 37% 0.7 mph S1.1 kmh S 2.2 mph3.5 kmh 29.20 in988.8 mb 0.00 in0.0 mm 0.00 in0.0 mm 0.00 in0.0 mm
05:52 AM 15.4°F-9.2°C -6.1°F-21.2°C 37% 0.7 mph S1.1 kmh S 2.2 mph3.5 kmh 29.20 in988.8 mb 0.00 in0.0 mm 0.00 in0.0 mm 0.00 in0.0 mm
05:51 AM 15.4°F-9.2°C -6.1°F-21.2°C 37% 0.7 mph S1.1 kmh S 2.2 mph3.5 kmh 29.20 in988.8 mb 0.00 in0.0 mm 0.00 in0.0 mm 0.00 in0.0 mm
05:50 AM 15.6°F-9.1°C -5.9°F-21.1°C 37% 1.6 mph S2.6 kmh S 2.2 mph3.5 kmh 29.20 in988.8 mb 0.00 in0.0 mm 0.00 in0.0 mm 0.00 in0.0 mm
05:49 AM 15.6°F-9.1°C -5.9°F-21.1°C 37% 1.6 mph S2.6 kmh S 2.2 mph3.5 kmh 29.20 in988.8 mb 0.00 in0.0 mm 0.00 in0.0 mm 0.00 in0.0 mm
05:48 AM 15.8°F-9.0°C -5.8°F-21.0°C 37% 0.7 mph S1.1 kmh S 2.2 mph3.5 kmh 29.20 in988.8 mb 0.00 in0.0 mm 0.00 in0.0 mm 0.00 in0.0 mm
05:47 AM 15.8°F-9.0°C -5.8°F-21.0°C 37% Calm Calm -- 29.20 in988.8 mb 0.00 in0.0 mm 0.00 in0.0 mm 0.00 in0.0 mm
05:46 AM 15.8°F-9.0°C -5.8°F-21.0°C 37% Calm Calm -- 29.20 in988.8 mb 0.00 in0.0 mm 0.00 in0.0 mm 0.00 in0.0 mm
05:45 AM 15.8°F-9.0°C -5.8°F-21.0°C 37% Calm Calm -- 29.20 in988.8 mb 0.00 in0.0 mm 0.00 in0.0 mm 0.00 in0.0 mm
05:44 AM 15.8°F-9.0°C -5.8°F-21.0°C 37% Calm Calm -- 29.20 in988.8 mb 0.00 in0.0 mm 0.00 in0.0 mm 0.00 in0.0 mm
05:43 AM 16.0°F-8.9°C -5.6°F-20.9°C 37% Calm Calm -- 29.20 in988.8 mb 0.00 in0.0 mm 0.00 in0.0 mm 0.00 in0.0 mm
05:42 AM 16.2°F-8.8°C -5.4°F-20.8°C 37% Calm Calm -- 29.19 in988.5 mb 0.00 in0.0 mm 0.00 in0.0 mm 0.00 in0.0 mm
05:41 AM 16.2°F-8.8°C -5.4°F-20.8°C 37% Calm Calm -- 29.20 in988.8 mb 0.00 in0.0 mm 0.00 in0.0 mm 0.00 in0.0 mm
05:40 AM 16.2°F-8.8°C -5.4°F-20.8°C 37% Calm Calm -- 29.20 in988.8 mb 0.00 in0.0 mm 0.00 in0.0 mm 0.00 in0.0 mm
05:39 AM 16.2°F-8.8°C -5.4°F-20.8°C 37% Calm Calm -- 29.20 in988.8 mb 0.00 in0.0 mm 0.00 in0.0 mm 0.00 in0.0 mm
05:38 AM 16.2°F-8.8°C -5.4°F-20.8°C 37% Calm Calm -- 29.20 in988.8 mb 0.00 in0.0 mm 0.00 in0.0 mm 0.00 in0.0 mm
05:37 AM 16.2°F-8.8°C -5.4°F-20.8°C 37% Calm Calm -- 29.20 in988.8 mb 0.00 in0.0 mm 0.00 in0.0 mm 0.00 in0.0 mm
05:36 AM 16.2°F-8.8°C -5.4°F-20.8°C 37% Calm Calm -- 29.20 in988.8 mb 0.00 in0.0 mm 0.00 in0.0 mm 0.00 in0.0 mm
05:35 AM 16.2°F-8.8°C -5.4°F-20.8°C 37% Calm Calm -- 29.20 in988.8 mb 0.00 in0.0 mm 0.00 in0.0 mm 0.00 in0.0 mm
05:34 AM 16.2°F-8.8°C -5.4°F-20.8°C 37% Calm Calm 0.7 mph1.1 kmh 29.20 in988.8 mb 0.00 in0.0 mm 0.00 in0.0 mm 0.00 in0.0 mm
05:33 AM 16.2°F-8.8°C -5.4°F-20.8°C 37% Calm Calm 1.6 mph2.6 kmh 29.20 in988.8 mb 0.00 in0.0 mm 0.00 in0.0 mm 0.00 in0.0 mm
05:32 AM 16.0°F-8.9°C -5.6°F-20.9°C 37% Calm Calm 1.6 mph2.6 kmh 29.20 in988.8 mb 0.00 in0.0 mm 0.00 in0.0 mm 0.00 in0.0 mm
05:31 AM 16.0°F-8.9°C -5.6°F-20.9°C 37% Calm Calm 1.6 mph2.6 kmh 29.20 in988.8 mb 0.00 in0.0 mm 0.00 in0.0 mm 0.00 in0.0 mm
05:30 AM 15.8°F-9.0°C -5.8°F-21.0°C 37% Calm Calm 1.6 mph2.6 kmh 29.20 in988.8 mb 0.00 in0.0 mm 0.00 in0.0 mm 0.00 in0.0 mm
05:29 AM 15.8°F-9.0°C -5.8°F-21.0°C 37% Calm Calm 1.6 mph2.6 kmh 29.20 in988.8 mb 0.00 in0.0 mm 0.00 in0.0 mm 0.00 in0.0 mm
05:28 AM 15.8°F-9.0°C -5.8°F-21.0°C 37% Calm Calm 2.2 mph3.5 kmh 29.20 in988.8 mb 0.00 in0.0 mm 0.00 in0.0 mm 0.00 in0.0 mm
05:27 AM 15.8°F-9.0°C -5.8°F-21.0°C 37% Calm Calm 2.2 mph3.5 kmh 29.20 in988.8 mb 0.00 in0.0 mm 0.00 in0.0 mm 0.00 in0.0 mm
05:26 AM 15.8°F-9.0°C -5.8°F-21.0°C 37% Calm Calm 2.2 mph3.5 kmh 29.20 in988.8 mb 0.00 in0.0 mm 0.00 in0.0 mm 0.00 in0.0 mm
05:25 AM 15.8°F-9.0°C -5.8°F-21.0°C 37% Calm Calm 2.2 mph3.5 kmh 29.20 in988.8 mb 0.00 in0.0 mm 0.00 in0.0 mm 0.00 in0.0 mm
05:24 AM 15.8°F-9.0°C -5.8°F-21.0°C 37% Calm Calm 2.2 mph3.5 kmh 29.21 in989.2 mb 0.00 in0.0 mm 0.00 in0.0 mm 0.00 in0.0 mm
05:23 AM 15.8°F-9.0°C -5.8°F-21.0°C 37% Calm Calm 2.2 mph3.5 kmh 29.21 in989.2 mb 0.00 in0.0 mm 0.00 in0.0 mm 0.00 in0.0 mm
05:22 AM 15.8°F-9.0°C -5.8°F-21.0°C 37% Calm Calm 2.2 mph3.5 kmh 29.20 in988.8 mb 0.00 in0.0 mm 0.00 in0.0 mm 0.00 in0.0 mm
05:21 AM 15.8°F-9.0°C -5.8°F-21.0°C 37% 0.7 mph S1.1 kmh S 2.2 mph3.5 kmh 29.20 in988.8 mb 0.00 in0.0 mm 0.00 in0.0 mm 0.00 in0.0 mm
05:20 AM 16.0°F-8.9°C -5.6°F-20.9°C 37% Calm Calm 2.2 mph3.5 kmh 29.20 in988.8 mb 0.00 in0.0 mm 0.00 in0.0 mm 0.00 in0.0 mm
05:19 AM 16.0°F-8.9°C -5.6°F-20.9°C 37% 0.7 mph S1.1 kmh S 2.2 mph3.5 kmh 29.20 in988.8 mb 0.00 in0.0 mm 0.00 in0.0 mm 0.00 in0.0 mm
05:18 AM 16.0°F-8.9°C -5.6°F-20.9°C 37% 1.6 mph S2.6 kmh S 2.2 mph3.5 kmh 29.20 in988.8 mb 0.00 in0.0 mm 0.00 in0.0 mm 0.00 in0.0 mm
05:17 AM 16.0°F-8.9°C -5.6°F-20.9°C 37% 0.7 mph S1.1 kmh S 2.2 mph3.5 kmh 29.20 in988.8 mb 0.00 in0.0 mm 0.00 in0.0 mm 0.00 in0.0 mm
05:16 AM 15.8°F-9.0°C -5.8°F-21.0°C 37% Calm Calm 2.2 mph3.5 kmh 29.20 in988.8 mb 0.00 in0.0 mm 0.00 in0.0 mm 0.00 in0.0 mm
05:15 AM 15.8°F-9.0°C -5.8°F-21.0°C 37% Calm Calm 2.2 mph3.5 kmh 29.21 in989.2 mb 0.00 in0.0 mm 0.00 in0.0 mm 0.00 in0.0 mm
05:14 AM 16.0°F-8.9°C -5.6°F-20.9°C 37% Calm Calm 2.2 mph3.5 kmh 29.21 in989.2 mb 0.00 in0.0 mm 0.00 in0.0 mm 0.00 in0.0 mm
05:13 AM 16.0°F-8.9°C -5.6°F-20.9°C 37% Calm Calm 2.2 mph3.5 kmh 29.20 in988.8 mb 0.00 in0.0 mm 0.00 in0.0 mm 0.00 in0.0 mm
05:12 AM 16.0°F-8.9°C -5.6°F-20.9°C 37% Calm Calm 2.2 mph3.5 kmh 29.20 in988.8 mb 0.00 in0.0 mm 0.00 in0.0 mm 0.00 in0.0 mm
05:11 AM 16.2°F-8.8°C -5.4°F-20.8°C 37% 1.6 mph S2.6 kmh S 2.2 mph3.5 kmh 29.20 in988.8 mb 0.00 in0.0 mm 0.00 in0.0 mm 0.00 in0.0 mm
05:10 AM 16.2°F-8.8°C -5.4°F-20.8°C 37% 0.7 mph S1.1 kmh S 1.6 mph2.6 kmh 29.20 in988.8 mb 0.00 in0.0 mm 0.00 in0.0 mm 0.00 in0.0 mm
05:09 AM 16.2°F-8.8°C -5.4°F-20.8°C 37% Calm Calm 1.6 mph2.6 kmh 29.20 in988.8 mb 0.00 in0.0 mm 0.00 in0.0 mm 0.00 in0.0 mm
05:08 AM 16.0°F-8.9°C -5.6°F-20.9°C 37% Calm Calm 1.6 mph2.6 kmh 29.20 in988.8 mb 0.00 in0.0 mm 0.00 in0.0 mm 0.00 in0.0 mm
05:07 AM 16.0°F-8.9°C -5.6°F-20.9°C 37% Calm Calm 2.2 mph3.5 kmh 29.20 in988.8 mb 0.00 in0.0 mm 0.00 in0.0 mm 0.00 in0.0 mm
05:06 AM 16.0°F-8.9°C -5.6°F-20.9°C 37% Calm Calm 2.2 mph3.5 kmh 29.20 in988.8 mb 0.00 in0.0 mm 0.00 in0.0 mm 0.00 in0.0 mm
05:05 AM 16.0°F-8.9°C -5.6°F-20.9°C 37% Calm Calm 2.2 mph3.5 kmh 29.20 in988.8 mb 0.00 in0.0 mm 0.00 in0.0 mm 0.00 in0.0 mm
05:04 AM 16.0°F-8.9°C -5.6°F-20.9°C 37% Calm Calm 2.2 mph3.5 kmh 29.20 in988.8 mb 0.00 in0.0 mm 0.00 in0.0 mm 0.00 in0.0 mm
05:03 AM 16.0°F-8.9°C -5.6°F-20.9°C 37% Calm Calm 2.2 mph3.5 kmh 29.20 in988.8 mb 0.00 in0.0 mm 0.00 in0.0 mm 0.00 in0.0 mm
05:02 AM 15.8°F-9.0°C -5.8°F-21.0°C 37% Calm Calm 2.2 mph3.5 kmh 29.20 in988.8 mb 0.00 in0.0 mm 0.00 in0.0 mm 0.00 in0.0 mm
05:01 AM 15.8°F-9.0°C -5.8°F-21.0°C 37% 0.7 mph S1.1 kmh S 2.2 mph3.5 kmh 29.20 in988.8 mb 0.00 in0.0 mm 0.00 in0.0 mm 0.00 in0.0 mm
05:00 AM 15.8°F-9.0°C -5.8°F-21.0°C 37% 0.7 mph S1.1 kmh S 3.1 mph5.0 kmh 29.21 in989.2 mb 0.00 in0.0 mm 0.00 in0.0 mm 0.00 in0.0 mm
04:59 AM 15.8°F-9.0°C -5.8°F-21.0°C 37% 0.7 mph S1.1 kmh S 3.1 mph5.0 kmh 29.20 in988.8 mb 0.00 in0.0 mm 0.00 in0.0 mm 0.00 in0.0 mm
04:58 AM 15.8°F-9.0°C -5.8°F-21.0°C 37% 0.7 mph S1.1 kmh S 3.1 mph5.0 kmh 29.20 in988.8 mb 0.00 in0.0 mm 0.00 in0.0 mm 0.00 in0.0 mm
04:57 AM 15.8°F-9.0°C -5.8°F-21.0°C 37% 0.7 mph S1.1 kmh S 3.1 mph5.0 kmh 29.21 in989.2 mb 0.00 in0.0 mm 0.00 in0.0 mm 0.00 in0.0 mm
04:56 AM 15.8°F-9.0°C -5.8°F-21.0°C 37% 1.6 mph S2.6 kmh S 3.1 mph5.0 kmh 29.20 in988.8 mb 0.00 in0.0 mm 0.00 in0.0 mm 0.00 in0.0 mm
04:55 AM 15.8°F-9.0°C -5.8°F-21.0°C 37% Calm Calm 3.1 mph5.0 kmh 29.20 in988.8 mb 0.00 in0.0 mm 0.00 in0.0 mm 0.00 in0.0 mm
04:54 AM 15.8°F-9.0°C -5.8°F-21.0°C 37% Calm Calm 3.1 mph5.0 kmh 29.20 in988.8 mb 0.00 in0.0 mm 0.00 in0.0 mm 0.00 in0.0 mm
04:53 AM 15.8°F-9.0°C -5.8°F-21.0°C 37% 1.6 mph S2.6 kmh S 3.1 mph5.0 kmh 29.20 in988.8 mb 0.00 in0.0 mm 0.00 in0.0 mm 0.00 in0.0 mm
04:52 AM 15.8°F-9.0°C -5.8°F-21.0°C 37% 1.6 mph S2.6 kmh S 3.1 mph5.0 kmh 29.21 in989.2 mb 0.00 in0.0 mm 0.00 in0.0 mm 0.00 in0.0 mm
04:51 AM 16.0°F-8.9°C -5.6°F-20.9°C 37% 1.6 mph S2.6 kmh S 3.1 mph5.0 kmh 29.20 in988.8 mb 0.00 in0.0 mm 0.00 in0.0 mm 0.00 in0.0 mm
04:50 AM 16.0°F-8.9°C -5.6°F-20.9°C 37% 2.2 mph S3.5 kmh S 3.1 mph5.0 kmh 29.20 in988.8 mb 0.00 in0.0 mm 0.00 in0.0 mm 0.00 in0.0 mm
04:49 AM 16.0°F-8.9°C -5.6°F-20.9°C 37% 2.2 mph S3.5 kmh S 3.1 mph5.0 kmh 29.20 in988.8 mb 0.00 in0.0 mm 0.00 in0.0 mm 0.00 in0.0 mm
04:48 AM 16.2°F-8.8°C -5.4°F-20.8°C 37% 2.2 mph S3.5 kmh S 3.1 mph5.0 kmh 29.20 in988.8 mb 0.00 in0.0 mm 0.00 in0.0 mm 0.00 in0.0 mm
04:47 AM 16.3°F-8.7°C -5.3°F-20.7°C 37% 1.6 mph S2.6 kmh S 3.1 mph5.0 kmh 29.21 in989.2 mb 0.00 in0.0 mm 0.00 in0.0 mm 0.00 in0.0 mm
04:46 AM 16.5°F-8.6°C -5.1°F-20.6°C 37% 2.2 mph S3.5 kmh S 3.1 mph5.0 kmh 29.20 in988.8 mb 0.00 in0.0 mm 0.00 in0.0 mm 0.00 in0.0 mm
04:45 AM 16.7°F-8.5°C -5.0°F-20.6°C 37% 2.2 mph S3.5 kmh S 3.1 mph5.0 kmh 29.20 in988.8 mb 0.00 in0.0 mm 0.00 in0.0 mm 0.00 in0.0 mm
04:44 AM 16.7°F-8.5°C -5.0°F-20.6°C 37% 2.2 mph S3.5 kmh S 3.1 mph5.0 kmh 29.20 in988.8 mb 0.00 in0.0 mm 0.00 in0.0 mm 0.00 in0.0 mm
04:43 AM 16.7°F-8.5°C -5.0°F-20.6°C 37% Calm Calm 2.2 mph3.5 kmh 29.20 in988.8 mb 0.00 in0.0 mm 0.00 in0.0 mm 0.00 in0.0 mm
04:42 AM 16.7°F-8.5°C -5.0°F-20.6°C 37% Calm Calm 2.2 mph3.5 kmh 29.21 in989.2 mb 0.00 in0.0 mm 0.00 in0.0 mm 0.00 in0.0 mm
04:41 AM 16.7°F-8.5°C -5.0°F-20.6°C 37% Calm Calm 3.1 mph5.0 kmh 29.21 in989.2 mb 0.00 in0.0 mm 0.00 in0.0 mm 0.00 in0.0 mm
04:40 AM 16.7°F-8.5°C -5.0°F-20.6°C 37% Calm Calm 3.1 mph5.0 kmh 29.20 in988.8 mb 0.00 in0.0 mm 0.00 in0.0 mm 0.00 in0.0 mm
04:39 AM 16.7°F-8.5°C -5.0°F-20.6°C 37% Calm Calm 3.1 mph5.0 kmh 29.20 in988.8 mb 0.00 in0.0 mm 0.00 in0.0 mm 0.00 in0.0 mm
04:38 AM 16.7°F-8.5°C -5.0°F-20.6°C 37% Calm Calm 3.1 mph5.0 kmh 29.20 in988.8 mb 0.00 in0.0 mm 0.00 in0.0 mm 0.00 in0.0 mm
04:37 AM 16.7°F-8.5°C -5.0°F-20.6°C 37% 0.7 mph S1.1 kmh S 3.1 mph5.0 kmh 29.20 in988.8 mb 0.00 in0.0 mm 0.00 in0.0 mm 0.00 in0.0 mm
04:36 AM 16.7°F-8.5°C -5.0°F-20.6°C 37% 0.7 mph S1.1 kmh S 3.1 mph5.0 kmh 29.20 in988.8 mb 0.00 in0.0 mm 0.00 in0.0 mm 0.00 in0.0 mm
04:35 AM 16.7°F-8.5°C -5.0°F-20.6°C 37% Calm Calm 3.1 mph5.0 kmh 29.20 in988.8 mb 0.00 in0.0 mm 0.00 in0.0 mm 0.00 in0.0 mm
04:34 AM 16.7°F-8.5°C -5.0°F-20.6°C 37% Calm Calm 3.1 mph5.0 kmh 29.20 in988.8 mb 0.00 in0.0 mm 0.00 in0.0 mm 0.00 in0.0 mm
04:33 AM 16.7°F-8.5°C -5.0°F-20.6°C 37% 0.7 mph S1.1 kmh S 3.1 mph5.0 kmh 29.20 in988.8 mb 0.00 in0.0 mm 0.00 in0.0 mm 0.00 in0.0 mm
04:32 AM 16.9°F-8.4°C -4.8°F-20.4°C 37% Calm Calm 3.1 mph5.0 kmh 29.20 in988.8 mb 0.00 in0.0 mm 0.00 in0.0 mm 0.00 in0.0 mm
04:31 AM 17.2°F-8.2°C -4.5°F-20.3°C 37% 1.6 mph S2.6 kmh S 2.2 mph3.5 kmh 29.20 in988.8 mb 0.00 in0.0 mm 0.00 in0.0 mm 0.00 in0.0 mm
04:30 AM 17.4°F-8.1°C -4.3°F-20.2°C 37% 1.6 mph S2.6 kmh S 2.2 mph3.5 kmh 29.20 in988.8 mb 0.00 in0.0 mm 0.00 in0.0 mm 0.00 in0.0 mm
04:29 AM 17.6°F-8.0°C -4.2°F-20.1°C 37% 1.6 mph S2.6 kmh S 2.2 mph3.5 kmh 29.20 in988.8 mb 0.00 in0.0 mm 0.00 in0.0 mm 0.00 in0.0 mm
04:28 AM 17.6°F-8.0°C -4.2°F-20.1°C 37% 0.7 mph S1.1 kmh S 1.6 mph2.6 kmh 29.20 in988.8 mb 0.00 in0.0 mm 0.00 in0.0 mm 0.00 in0.0 mm
04:27 AM 17.6°F-8.0°C -4.2°F-20.1°C 37% 0.7 mph S1.1 kmh S 1.6 mph2.6 kmh 29.20 in988.8 mb 0.00 in0.0 mm 0.00 in0.0 mm 0.00 in0.0 mm
04:26 AM 17.4°F-8.1°C -4.3°F-20.2°C 37% 0.7 mph S1.1 kmh S 1.6 mph2.6 kmh 29.20 in988.8 mb 0.00 in0.0 mm 0.00 in0.0 mm 0.00 in0.0 mm
04:25 AM 17.4°F-8.1°C -4.3°F-20.2°C 37% Calm Calm 1.6 mph2.6 kmh 29.20 in988.8 mb 0.00 in0.0 mm 0.00 in0.0 mm 0.00 in0.0 mm
04:24 AM 17.4°F-8.1°C -4.3°F-20.2°C 37% Calm Calm 1.6 mph2.6 kmh 29.20 in988.8 mb 0.00 in0.0 mm 0.00 in0.0 mm 0.00 in0.0 mm
04:23 AM 17.4°F-8.1°C -4.3°F-20.2°C 37% Calm Calm 1.6 mph2.6 kmh 29.20 in988.8 mb 0.00 in0.0 mm 0.00 in0.0 mm 0.00 in0.0 mm
04:22 AM 17.2°F-8.2°C -4.5°F-20.3°C 37% Calm Calm 1.6 mph2.6 kmh 29.20 in988.8 mb 0.00 in0.0 mm 0.00 in0.0 mm 0.00 in0.0 mm
04:21 AM 17.4°F-8.1°C -4.3°F-20.2°C 37% Calm Calm 1.6 mph2.6 kmh 29.20 in988.8 mb 0.00 in0.0 mm 0.00 in0.0 mm 0.00 in0.0 mm
04:20 AM 17.4°F-8.1°C -4.3°F-20.2°C 37% 0.7 mph S1.1 kmh S 1.6 mph2.6 kmh 29.20 in988.8 mb 0.00 in0.0 mm 0.00 in0.0 mm 0.00 in0.0 mm
04:19 AM 17.4°F-8.1°C -4.3°F-20.2°C 37% Calm Calm 1.6 mph2.6 kmh 29.20 in988.8 mb 0.00 in0.0 mm 0.00 in0.0 mm 0.00 in0.0 mm
04:18 AM 17.4°F-8.1°C -4.3°F-20.2°C 37% Calm Calm 1.6 mph2.6 kmh 29.20 in988.8 mb 0.00 in0.0 mm 0.00 in0.0 mm 0.00 in0.0 mm
04:17 AM 17.2°F-8.2°C -4.5°F-20.3°C 37% Calm Calm 1.6 mph2.6 kmh 29.20 in988.8 mb 0.00 in0.0 mm 0.00 in0.0 mm 0.00 in0.0 mm
04:16 AM 17.2°F-8.2°C -4.5°F-20.3°C 37% Calm Calm 1.6 mph2.6 kmh 29.20 in988.8 mb 0.00 in0.0 mm 0.00 in0.0 mm 0.00 in0.0 mm
04:15 AM 17.2°F-8.2°C -4.5°F-20.3°C 37% Calm Calm 1.6 mph2.6 kmh 29.20 in988.8 mb 0.00 in0.0 mm 0.00 in0.0 mm 0.00 in0.0 mm
04:14 AM 17.2°F-8.2°C -4.5°F-20.3°C 37% Calm Calm 1.6 mph2.6 kmh 29.20 in988.8 mb 0.00 in0.0 mm 0.00 in0.0 mm 0.00 in0.0 mm
04:13 AM 17.2°F-8.2°C -4.5°F-20.3°C 37% Calm Calm 1.6 mph2.6 kmh 29.19 in988.5 mb 0.00 in0.0 mm 0.00 in0.0 mm 0.00 in0.0 mm
04:12 AM 17.2°F-8.2°C -4.5°F-20.3°C 37% 0.7 mph S1.1 kmh S 1.6 mph2.6 kmh 29.20 in988.8 mb 0.00 in0.0 mm 0.00 in0.0 mm 0.00 in0.0 mm
04:11 AM 17.2°F-8.2°C -4.5°F-20.3°C 37% Calm Calm 1.6 mph2.6 kmh 29.20 in988.8 mb 0.00 in0.0 mm 0.00 in0.0 mm 0.00 in0.0 mm
04:10 AM 17.2°F-8.2°C -4.5°F-20.3°C 37% Calm Calm 1.6 mph2.6 kmh 29.19 in988.5 mb 0.00 in0.0 mm 0.00 in0.0 mm 0.00 in0.0 mm
04:09 AM 17.2°F-8.2°C -4.5°F-20.3°C 37% Calm Calm 1.6 mph2.6 kmh 29.20 in988.8 mb 0.00 in0.0 mm 0.00 in0.0 mm 0.00 in0.0 mm
04:08 AM 17.2°F-8.2°C -4.5°F-20.3°C 37% Calm Calm 1.6 mph2.6 kmh 29.20 in988.8 mb 0.00 in0.0 mm 0.00 in0.0 mm 0.00 in0.0 mm
04:07 AM 17.2°F-8.2°C -4.5°F-20.3°C 37% Calm Calm 1.6 mph2.6 kmh 29.20 in988.8 mb 0.00 in0.0 mm 0.00 in0.0 mm 0.00 in0.0 mm
04:06 AM 17.2°F-8.2°C -4.5°F-20.3°C 37% Calm Calm 1.6 mph2.6 kmh 29.19 in988.5 mb 0.00 in0.0 mm 0.00 in0.0 mm 0.00 in0.0 mm
04:05 AM 17.2°F-8.2°C -4.5°F-20.3°C 37% Calm Calm 2.2 mph3.5 kmh 29.19 in988.5 mb 0.00 in0.0 mm 0.00 in0.0 mm 0.00 in0.0 mm
04:04 AM 17.2°F-8.2°C -4.5°F-20.3°C 37% Calm Calm 2.2 mph3.5 kmh 29.20 in988.8 mb 0.00 in0.0 mm 0.00 in0.0 mm 0.00 in0.0 mm
04:03 AM 17.2°F-8.2°C -4.5°F-20.3°C 37% 0.7 mph S1.1 kmh S 2.2 mph3.5 kmh 29.20 in988.8 mb 0.00 in0.0 mm 0.00 in0.0 mm 0.00 in0.0 mm
04:02 AM 17.1°F-8.3°C -4.6°F-20.3°C 37% Calm Calm 2.2 mph3.5 kmh 29.20 in988.8 mb 0.00 in0.0 mm 0.00 in0.0 mm 0.00 in0.0 mm
04:01 AM 17.1°F-8.3°C -4.6°F-20.3°C 37% Calm Calm 2.2 mph3.5 kmh 29.19 in988.5 mb 0.00 in0.0 mm 0.00 in0.0 mm 0.00 in0.0 mm
04:00 AM 16.9°F-8.4°C -4.8°F-20.4°C 37% Calm Calm 2.2 mph3.5 kmh 29.20 in988.8 mb 0.00 in0.0 mm 0.00 in0.0 mm 0.00 in0.0 mm
03:59 AM 16.9°F-8.4°C -4.8°F-20.4°C 37% Calm Calm 2.2 mph3.5 kmh 29.20 in988.8 mb 0.00 in0.0 mm 0.00 in0.0 mm 0.00 in0.0 mm
03:58 AM 16.9°F-8.4°C -4.8°F-20.4°C 37% Calm Calm 2.2 mph3.5 kmh 29.20 in988.8 mb 0.00 in0.0 mm 0.00 in0.0 mm 0.00 in0.0 mm
03:57 AM 16.9°F-8.4°C -4.8°F-20.4°C 37% Calm Calm 2.2 mph3.5 kmh 29.19 in988.5 mb 0.00 in0.0 mm 0.00 in0.0 mm 0.00 in0.0 mm
03:56 AM 17.1°F-8.3°C -4.6°F-20.3°C 37% 0.7 mph S1.1 kmh S 2.2 mph3.5 kmh 29.20 in988.8 mb 0.00 in0.0 mm 0.00 in0.0 mm 0.00 in0.0 mm
03:55 AM 17.2°F-8.2°C -4.5°F-20.3°C 37% 1.6 mph S2.6 kmh S 2.2 mph3.5 kmh 29.20 in988.8 mb 0.00 in0.0 mm 0.00 in0.0 mm 0.00 in0.0 mm
03:54 AM 17.4°F-8.1°C -4.3°F-20.2°C 37% 1.6 mph S2.6 kmh S 2.2 mph3.5 kmh 29.20 in988.8 mb 0.00 in0.0 mm 0.00 in0.0 mm 0.00 in0.0 mm
03:53 AM 17.6°F-8.0°C -4.2°F-20.1°C 37% 0.7 mph S1.1 kmh S 2.2 mph3.5 kmh 29.20 in988.8 mb 0.00 in0.0 mm 0.00 in0.0 mm 0.00 in0.0 mm
03:52 AM 17.8°F-7.9°C -4.0°F-20.0°C 37% 0.7 mph S1.1 kmh S 2.2 mph3.5 kmh 29.20 in988.8 mb 0.00 in0.0 mm 0.00 in0.0 mm 0.00 in0.0 mm
03:51 AM 17.8°F-7.9°C -4.0°F-20.0°C 37% 0.7 mph S1.1 kmh S 2.2 mph3.5 kmh 29.20 in988.8 mb 0.00 in0.0 mm 0.00 in0.0 mm 0.00 in0.0 mm
03:50 AM 17.8°F-7.9°C -4.0°F-20.0°C 37% 0.7 mph S1.1 kmh S 3.1 mph5.0 kmh 29.20 in988.8 mb 0.00 in0.0 mm 0.00 in0.0 mm 0.00 in0.0 mm
03:49 AM 17.8°F-7.9°C -4.0°F-20.0°C 37% Calm Calm 3.1 mph5.0 kmh 29.20 in988.8 mb 0.00 in0.0 mm 0.00 in0.0 mm 0.00 in0.0 mm
03:48 AM 17.8°F-7.9°C -4.0°F-20.0°C 37% Calm Calm 3.1 mph5.0 kmh 29.20 in988.8 mb 0.00 in0.0 mm 0.00 in0.0 mm 0.00 in0.0 mm
03:47 AM 17.8°F-7.9°C -4.0°F-20.0°C 37% 0.7 mph S1.1 kmh S 3.1 mph5.0 kmh 29.20 in988.8 mb 0.00 in0.0 mm 0.00 in0.0 mm 0.00 in0.0 mm
03:46 AM 17.8°F-7.9°C -4.0°F-20.0°C 37% Calm Calm 3.1 mph5.0 kmh 29.20 in988.8 mb 0.00 in0.0 mm 0.00 in0.0 mm 0.00 in0.0 mm
03:45 AM 17.8°F-7.9°C -4.0°F-20.0°C 37% Calm Calm 3.1 mph5.0 kmh 29.20 in988.8 mb 0.00 in0.0 mm 0.00 in0.0 mm 0.00 in0.0 mm
03:44 AM 17.8°F-7.9°C -4.0°F-20.0°C 37% Calm Calm 3.1 mph5.0 kmh 29.20 in988.8 mb 0.00 in0.0 mm 0.00 in0.0 mm 0.00 in0.0 mm
03:43 AM 18.0°F-7.8°C -3.8°F-19.9°C 37% Calm Calm 3.1 mph5.0 kmh 29.20 in988.8 mb 0.00 in0.0 mm 0.00 in0.0 mm 0.00 in0.0 mm
03:42 AM 18.1°F-7.7°C -3.7°F-19.8°C 37% 0.7 mph S1.1 kmh S 3.1 mph5.0 kmh 29.20 in988.8 mb 0.00 in0.0 mm 0.00 in0.0 mm 0.00 in0.0 mm
03:41 AM 18.3°F-7.6°C -3.5°F-19.7°C 37% 1.6 mph S2.6 kmh S 3.1 mph5.0 kmh 29.20 in988.8 mb 0.00 in0.0 mm 0.00 in0.0 mm 0.00 in0.0 mm
03:40 AM 18.5°F-7.5°C -3.4°F-19.7°C 37% 2.2 mph S3.5 kmh S 3.1 mph5.0 kmh 29.20 in988.8 mb 0.00 in0.0 mm 0.00 in0.0 mm 0.00 in0.0 mm
03:39 AM 18.7°F-7.4°C -3.2°F-19.6°C 37% Calm Calm 2.2 mph3.5 kmh 29.20 in988.8 mb 0.00 in0.0 mm 0.00 in0.0 mm 0.00 in0.0 mm
03:38 AM 18.7°F-7.4°C -3.2°F-19.6°C 37% 0.7 mph S1.1 kmh S 2.2 mph3.5 kmh 29.20 in988.8 mb 0.00 in0.0 mm 0.00 in0.0 mm 0.00 in0.0 mm
03:37 AM 18.7°F-7.4°C -3.2°F-19.6°C 37% 1.6 mph S2.6 kmh S 2.2 mph3.5 kmh 29.19 in988.5 mb 0.00 in0.0 mm 0.00 in0.0 mm 0.00 in0.0 mm
03:36 AM 18.7°F-7.4°C -3.2°F-19.6°C 37% Calm Calm 1.6 mph2.6 kmh 29.19 in988.5 mb 0.00 in0.0 mm 0.00 in0.0 mm 0.00 in0.0 mm
03:35 AM 18.5°F-7.5°C -3.4°F-19.7°C 37% Calm Calm 1.6 mph2.6 kmh 29.20 in988.8 mb 0.00 in0.0 mm 0.00 in0.0 mm 0.00 in0.0 mm
03:34 AM 18.5°F-7.5°C -3.4°F-19.7°C 37% Calm Calm 0.7 mph1.1 kmh 29.20 in988.8 mb 0.00 in0.0 mm 0.00 in0.0 mm 0.00 in0.0 mm
03:33 AM 18.5°F-7.5°C -3.4°F-19.7°C 37% Calm Calm -- 29.19 in988.5 mb 0.00 in0.0 mm 0.00 in0.0 mm 0.00 in0.0 mm
03:32 AM 18.5°F-7.5°C -3.4°F-19.7°C 37% Calm Calm -- 29.20 in988.8 mb 0.00 in0.0 mm 0.00 in0.0 mm 0.00 in0.0 mm
03:31 AM 18.5°F-7.5°C -3.4°F-19.7°C 37% Calm Calm -- 29.19 in988.5 mb 0.00 in0.0 mm 0.00 in0.0 mm 0.00 in0.0 mm
03:30 AM 18.5°F-7.5°C -3.4°F-19.7°C 37% Calm Calm -- 29.20 in988.8 mb 0.00 in0.0 mm 0.00 in0.0 mm 0.00 in0.0 mm
03:29 AM 18.5°F-7.5°C -3.4°F-19.7°C 37% Calm Calm -- 29.20 in988.8 mb 0.00 in0.0 mm 0.00 in0.0 mm 0.00 in0.0 mm
03:28 AM 18.7°F-7.4°C -3.2°F-19.6°C 37% Calm Calm -- 29.20 in988.8 mb 0.00 in0.0 mm 0.00 in0.0 mm 0.00 in0.0 mm
03:27 AM 18.7°F-7.4°C -3.2°F-19.6°C 37% Calm Calm -- 29.20 in988.8 mb 0.00 in0.0 mm 0.00 in0.0 mm 0.00 in0.0 mm
03:26 AM 18.9°F-7.3°C -3.0°F-19.4°C 37% Calm Calm -- 29.20 in988.8 mb 0.00 in0.0 mm 0.00 in0.0 mm 0.00 in0.0 mm
03:25 AM 18.9°F-7.3°C -3.0°F-19.4°C 37% Calm Calm -- 29.20 in988.8 mb 0.00 in0.0 mm 0.00 in0.0 mm 0.00 in0.0 mm
03:24 AM 18.9°F-7.3°C -3.0°F-19.4°C 37% Calm Calm 0.7 mph1.1 kmh 29.20 in988.8 mb 0.00 in0.0 mm 0.00 in0.0 mm 0.00 in0.0 mm
03:23 AM 18.9°F-7.3°C -3.0°F-19.4°C 37% Calm Calm 0.7 mph1.1 kmh 29.20 in988.8 mb 0.00 in0.0 mm 0.00 in0.0 mm 0.00 in0.0 mm
03:22 AM 18.5°F-7.5°C -3.4°F-19.7°C 37% Calm Calm 0.7 mph1.1 kmh 29.20 in988.8 mb 0.00 in0.0 mm 0.00 in0.0 mm 0.00 in0.0 mm
03:21 AM 18.5°F-7.5°C -3.4°F-19.7°C 37% Calm Calm 0.7 mph1.1 kmh 29.20 in988.8 mb 0.00 in0.0 mm 0.00 in0.0 mm 0.00 in0.0 mm
03:20 AM 18.5°F-7.5°C -3.4°F-19.7°C 37% Calm Calm 0.7 mph1.1 kmh 29.20 in988.8 mb 0.00 in0.0 mm 0.00 in0.0 mm 0.00 in0.0 mm
03:19 AM 18.5°F-7.5°C -3.4°F-19.7°C 37% Calm Calm 1.6 mph2.6 kmh 29.20 in988.8 mb 0.00 in0.0 mm 0.00 in0.0 mm 0.00 in0.0 mm
03:18 AM 18.5°F-7.5°C -3.4°F-19.7°C 37% Calm Calm 1.6 mph2.6 kmh 29.20 in988.8 mb 0.00 in0.0 mm 0.00 in0.0 mm 0.00 in0.0 mm
03:17 AM 18.5°F-7.5°C -3.4°F-19.7°C 37% Calm Calm 1.6 mph2.6 kmh 29.20 in988.8 mb 0.00 in0.0 mm 0.00 in0.0 mm 0.00 in0.0 mm
03:16 AM 18.5°F-7.5°C -3.4°F-19.7°C 37% Calm Calm 2.2 mph3.5 kmh 29.20 in988.8 mb 0.00 in0.0 mm 0.00 in0.0 mm 0.00 in0.0 mm
03:15 AM 18.5°F-7.5°C -3.4°F-19.7°C 37% Calm Calm 2.2 mph3.5 kmh 29.20 in988.8 mb 0.00 in0.0 mm 0.00 in0.0 mm 0.00 in0.0 mm
03:14 AM 18.5°F-7.5°C -3.4°F-19.7°C 37% 0.7 mph S1.1 kmh S 3.1 mph5.0 kmh 29.20 in988.8 mb 0.00 in0.0 mm 0.00 in0.0 mm 0.00 in0.0 mm
03:13 AM 18.3°F-7.6°C -3.5°F-19.7°C 37% Calm Calm 3.1 mph5.0 kmh 29.20 in988.8 mb 0.00 in0.0 mm 0.00 in0.0 mm 0.00 in0.0 mm
03:12 AM 18.3°F-7.6°C -3.5°F-19.7°C 37% Calm Calm 3.1 mph5.0 kmh 29.20 in988.8 mb 0.00 in0.0 mm 0.00 in0.0 mm 0.00 in0.0 mm
03:11 AM 18.3°F-7.6°C -3.5°F-19.7°C 37% Calm Calm 3.1 mph5.0 kmh 29.20 in988.8 mb 0.00 in0.0 mm 0.00 in0.0 mm 0.00 in0.0 mm
03:10 AM 18.3°F-7.6°C -3.5°F-19.7°C 37% Calm Calm 3.1 mph5.0 kmh 29.20 in988.8 mb 0.00 in0.0 mm 0.00 in0.0 mm 0.00 in0.0 mm
03:09 AM 18.1°F-7.7°C -3.7°F-19.8°C 37% 0.7 mph S1.1 kmh S 3.1 mph5.0 kmh 29.20 in988.8 mb 0.00 in0.0 mm 0.00 in0.0 mm 0.00 in0.0 mm
03:08 AM 18.1°F-7.7°C -3.7°F-19.8°C 37% Calm Calm 3.1 mph5.0 kmh 29.20 in988.8 mb 0.00 in0.0 mm 0.00 in0.0 mm 0.00 in0.0 mm
03:07 AM 18.1°F-7.7°C -3.7°F-19.8°C 37% 1.6 mph S2.6 kmh S 3.1 mph5.0 kmh 29.20 in988.8 mb 0.00 in0.0 mm 0.00 in0.0 mm 0.00 in0.0 mm
03:06 AM 18.1°F-7.7°C -3.7°F-19.8°C 37% 1.6 mph S2.6 kmh S 3.1 mph5.0 kmh 29.20 in988.8 mb 0.00 in0.0 mm 0.00 in0.0 mm 0.00 in0.0 mm
03:05 AM 18.3°F-7.6°C -3.5°F-19.7°C 37% 1.6 mph S2.6 kmh S 3.8 mph6.1 kmh 29.20 in988.8 mb 0.00 in0.0 mm 0.00 in0.0 mm 0.00 in0.0 mm
03:04 AM 18.1°F-7.7°C -3.7°F-19.8°C 37% 2.2 mph S3.5 kmh S 3.8 mph6.1 kmh 29.20 in988.8 mb 0.00 in0.0 mm 0.00 in0.0 mm 0.00 in0.0 mm
03:03 AM 18.0°F-7.8°C -3.8°F-19.9°C 37% Calm Calm 3.8 mph6.1 kmh 29.20 in988.8 mb 0.00 in0.0 mm 0.00 in0.0 mm 0.00 in0.0 mm
03:02 AM 18.0°F-7.8°C -3.8°F-19.9°C 37% Calm Calm 3.8 mph6.1 kmh 29.20 in988.8 mb 0.00 in0.0 mm 0.00 in0.0 mm 0.00 in0.0 mm
03:01 AM 18.0°F-7.8°C -3.8°F-19.9°C 37% 0.7 mph S1.1 kmh S 3.8 mph6.1 kmh 29.20 in988.8 mb 0.00 in0.0 mm 0.00 in0.0 mm 0.00 in0.0 mm
03:00 AM 18.0°F-7.8°C -3.8°F-19.9°C 37% 1.6 mph S2.6 kmh S 3.8 mph6.1 kmh 29.20 in988.8 mb 0.00 in0.0 mm 0.00 in0.0 mm 0.00 in0.0 mm
02:59 AM 17.8°F-7.9°C -4.0°F-20.0°C 37% 0.7 mph S1.1 kmh S 3.8 mph6.1 kmh 29.20 in988.8 mb 0.00 in0.0 mm 0.00 in0.0 mm 0.00 in0.0 mm
02:58 AM 17.8°F-7.9°C -4.0°F-20.0°C 37% 0.7 mph S1.1 kmh S 3.8 mph6.1 kmh 29.20 in988.8 mb 0.00 in0.0 mm 0.00 in0.0 mm 0.00 in0.0 mm
02:57 AM 17.8°F-7.9°C -4.0°F-20.0°C 37% 1.6 mph S2.6 kmh S 3.8 mph6.1 kmh 29.20 in988.8 mb 0.00 in0.0 mm 0.00 in0.0 mm 0.00 in0.0 mm
02:56 AM 17.8°F-7.9°C -4.0°F-20.0°C 37% 2.2 mph S3.5 kmh S 3.8 mph6.1 kmh 29.21 in989.2 mb 0.00 in0.0 mm 0.00 in0.0 mm 0.00 in0.0 mm
02:55 AM 18.0°F-7.8°C -3.8°F-19.9°C 37% 3.1 mph S5.0 kmh S 3.8 mph6.1 kmh 29.20 in988.8 mb 0.00 in0.0 mm 0.00 in0.0 mm 0.00 in0.0 mm
02:54 AM 18.1°F-7.7°C -3.7°F-19.8°C 37% 3.1 mph S5.0 kmh S 3.8 mph6.1 kmh 29.20 in988.8 mb 0.00 in0.0 mm 0.00 in0.0 mm 0.00 in0.0 mm
02:53 AM 18.3°F-7.6°C -3.5°F-19.7°C 37% 3.1 mph S5.0 kmh S 3.8 mph6.1 kmh 29.20 in988.8 mb 0.00 in0.0 mm 0.00 in0.0 mm 0.00 in0.0 mm
02:52 AM 18.7°F-7.4°C -3.2°F-19.6°C 37% 2.2 mph S3.5 kmh S 3.1 mph5.0 kmh 29.20 in988.8 mb 0.00 in0.0 mm 0.00 in0.0 mm 0.00 in0.0 mm
02:51 AM 19.0°F-7.2°C -2.9°F-19.4°C 37% 1.6 mph S2.6 kmh S 2.2 mph3.5 kmh 29.20 in988.8 mb 0.00 in0.0 mm 0.00 in0.0 mm 0.00 in0.0 mm
02:50 AM 19.4°F-7.0°C -2.5°F-19.2°C 37% 1.6 mph S2.6 kmh S 2.2 mph3.5 kmh 29.20 in988.8 mb 0.00 in0.0 mm 0.00 in0.0 mm 0.00 in0.0 mm
02:49 AM 19.6°F-6.9°C -2.4°F-19.1°C 37% 1.6 mph S2.6 kmh S 2.2 mph3.5 kmh 29.20 in988.8 mb 0.00 in0.0 mm 0.00 in0.0 mm 0.00 in0.0 mm
02:48 AM 19.8°F-6.8°C -2.2°F-19.0°C 37% 1.6 mph S2.6 kmh S 2.2 mph3.5 kmh 29.20 in988.8 mb 0.00 in0.0 mm 0.00 in0.0 mm 0.00 in0.0 mm
02:47 AM 20.1°F-6.6°C -1.9°F-18.8°C 37% 0.7 mph S1.1 kmh S 1.6 mph2.6 kmh 29.21 in989.2 mb 0.00 in0.0 mm 0.00 in0.0 mm 0.00 in0.0 mm
02:46 AM 20.1°F-6.6°C -1.9°F-18.8°C 37% 0.7 mph S1.1 kmh S 1.6 mph2.6 kmh 29.20 in988.8 mb 0.00 in0.0 mm 0.00 in0.0 mm 0.00 in0.0 mm
02:45 AM 20.1°F-6.6°C -1.9°F-18.8°C 37% Calm Calm 1.6 mph2.6 kmh 29.20 in988.8 mb 0.00 in0.0 mm 0.00 in0.0 mm 0.00 in0.0 mm
02:44 AM 20.1°F-6.6°C -1.9°F-18.8°C 37% Calm Calm 1.6 mph2.6 kmh 29.20 in988.8 mb 0.00 in0.0 mm 0.00 in0.0 mm 0.00 in0.0 mm
02:43 AM 19.9°F-6.7°C -2.1°F-18.9°C 37% Calm Calm 1.6 mph2.6 kmh 29.21 in989.2 mb 0.00 in0.0 mm 0.00 in0.0 mm 0.00 in0.0 mm
02:42 AM 19.9°F-6.7°C -2.1°F-18.9°C 37% Calm Calm 2.2 mph3.5 kmh 29.21 in989.2 mb 0.00 in0.0 mm 0.00 in0.0 mm 0.00 in0.0 mm
02:41 AM 19.9°F-6.7°C -2.1°F-18.9°C 37% Calm Calm 2.2 mph3.5 kmh 29.21 in989.2 mb 0.00 in0.0 mm 0.00 in0.0 mm 0.00 in0.0 mm
02:40 AM 19.9°F-6.7°C -2.1°F-18.9°C 37% Calm Calm 2.2 mph3.5 kmh 29.20 in988.8 mb 0.00 in0.0 mm 0.00 in0.0 mm 0.00 in0.0 mm
02:39 AM 19.8°F-6.8°C -2.2°F-19.0°C 37% Calm Calm 2.2 mph3.5 kmh 29.20 in988.8 mb 0.00 in0.0 mm 0.00 in0.0 mm 0.00 in0.0 mm
02:38 AM 19.6°F-6.9°C -2.4°F-19.1°C 37% Calm Calm 2.2 mph3.5 kmh 29.21 in989.2 mb 0.00 in0.0 mm 0.00 in0.0 mm 0.00 in0.0 mm
02:37 AM 19.6°F-6.9°C -2.4°F-19.1°C 37% 0.7 mph S1.1 kmh S 2.2 mph3.5 kmh 29.21 in989.2 mb 0.00 in0.0 mm 0.00 in0.0 mm 0.00 in0.0 mm
02:36 AM 19.6°F-6.9°C -2.4°F-19.1°C 37% Calm Calm 2.2 mph3.5 kmh 29.20 in988.8 mb 0.00 in0.0 mm 0.00 in0.0 mm 0.00 in0.0 mm
02:35 AM 19.6°F-6.9°C -2.4°F-19.1°C 37% Calm Calm 2.2 mph3.5 kmh 29.21 in989.2 mb 0.00 in0.0 mm 0.00 in0.0 mm 0.00 in0.0 mm
02:34 AM 19.6°F-6.9°C -2.4°F-19.1°C 37% Calm Calm 2.2 mph3.5 kmh 29.21 in989.2 mb 0.00 in0.0 mm 0.00 in0.0 mm 0.00 in0.0 mm
02:33 AM 19.6°F-6.9°C -2.4°F-19.1°C 37% 0.7 mph S1.1 kmh S 2.2 mph3.5 kmh 29.21 in989.2 mb 0.00 in0.0 mm 0.00 in0.0 mm 0.00 in0.0 mm
02:32 AM 19.6°F-6.9°C -2.4°F-19.1°C 37% 1.6 mph S2.6 kmh S 2.2 mph3.5 kmh 29.21 in989.2 mb 0.00 in0.0 mm 0.00 in0.0 mm 0.00 in0.0 mm
02:31 AM 19.6°F-6.9°C -2.4°F-19.1°C 37% 0.7 mph S1.1 kmh S 3.1 mph5.0 kmh 29.21 in989.2 mb 0.00 in0.0 mm 0.00 in0.0 mm 0.00 in0.0 mm
02:30 AM 19.4°F-7.0°C -2.5°F-19.2°C 37% 0.7 mph S1.1 kmh S 4.5 mph7.2 kmh 29.21 in989.2 mb 0.00 in0.0 mm 0.00 in0.0 mm 0.00 in0.0 mm
02:29 AM 19.2°F-7.1°C -2.7°F-19.3°C 37% 0.7 mph S1.1 kmh S 4.5 mph7.2 kmh 29.21 in989.2 mb 0.00 in0.0 mm 0.00 in0.0 mm 0.00 in0.0 mm
02:28 AM 19.0°F-7.2°C -2.9°F-19.4°C 37% Calm Calm 4.5 mph7.2 kmh 29.21 in989.2 mb 0.00 in0.0 mm 0.00 in0.0 mm 0.00 in0.0 mm
02:27 AM 18.9°F-7.3°C -3.0°F-19.4°C 37% Calm Calm 4.5 mph7.2 kmh 29.21 in989.2 mb 0.00 in0.0 mm 0.00 in0.0 mm 0.00 in0.0 mm
02:26 AM 18.7°F-7.4°C -3.2°F-19.6°C 37% Calm Calm 4.5 mph7.2 kmh 29.21 in989.2 mb 0.00 in0.0 mm 0.00 in0.0 mm 0.00 in0.0 mm
02:25 AM 18.7°F-7.4°C -3.2°F-19.6°C 37% 0.7 mph S1.1 kmh S 4.5 mph7.2 kmh 29.21 in989.2 mb 0.00 in0.0 mm 0.00 in0.0 mm 0.00 in0.0 mm
02:24 AM 18.7°F-7.4°C -3.2°F-19.6°C 37% 1.6 mph S2.6 kmh S 4.5 mph7.2 kmh 29.21 in989.2 mb 0.00 in0.0 mm 0.00 in0.0 mm 0.00 in0.0 mm
02:23 AM 18.9°F-7.3°C -3.0°F-19.4°C 37% 0.7 mph S1.1 kmh S 4.5 mph7.2 kmh 29.21 in989.2 mb 0.00 in0.0 mm 0.00 in0.0 mm 0.00 in0.0 mm
02:22 AM 19.2°F-7.1°C -2.7°F-19.3°C 37% Calm Calm 4.5 mph7.2 kmh 29.21 in989.2 mb 0.00 in0.0 mm 0.00 in0.0 mm 0.00 in0.0 mm
02:21 AM 19.6°F-6.9°C -2.4°F-19.1°C 37% 1.6 mph S2.6 kmh S 4.5 mph7.2 kmh 29.21 in989.2 mb 0.00 in0.0 mm 0.00 in0.0 mm 0.00 in0.0 mm
02:20 AM 19.9°F-6.7°C -2.1°F-18.9°C 37% 3.8 mph S6.1 kmh S 4.5 mph7.2 kmh 29.21 in989.2 mb 0.00 in0.0 mm 0.00 in0.0 mm 0.00 in0.0 mm
02:19 AM 20.3°F-6.5°C -1.7°F-18.7°C 37% 3.1 mph S5.0 kmh S 3.8 mph6.1 kmh 29.21 in989.2 mb 0.00 in0.0 mm 0.00 in0.0 mm 0.00 in0.0 mm
02:18 AM 20.5°F-6.4°C -1.6°F-18.7°C 37% 1.6 mph S2.6 kmh S 2.2 mph3.5 kmh 29.21 in989.2 mb 0.00 in0.0 mm 0.00 in0.0 mm 0.00 in0.0 mm
02:17 AM 20.5°F-6.4°C -1.6°F-18.7°C 37% 1.6 mph S2.6 kmh S 2.2 mph3.5 kmh 29.21 in989.2 mb 0.00 in0.0 mm 0.00 in0.0 mm 0.00 in0.0 mm
02:16 AM 20.5°F-6.4°C -1.6°F-18.7°C 37% 0.7 mph S1.1 kmh S 3.1 mph5.0 kmh 29.21 in989.2 mb 0.00 in0.0 mm 0.00 in0.0 mm 0.00 in0.0 mm
02:15 AM 20.3°F-6.5°C -1.7°F-18.7°C 37% Calm Calm 3.1 mph5.0 kmh 29.21 in989.2 mb 0.00 in0.0 mm 0.00 in0.0 mm 0.00 in0.0 mm
02:14 AM 20.1°F-6.6°C -1.9°F-18.8°C 37% Calm Calm 3.1 mph5.0 kmh 29.22 in989.5 mb 0.00 in0.0 mm 0.00 in0.0 mm 0.00 in0.0 mm
02:13 AM 20.1°F-6.6°C -1.9°F-18.8°C 37% Calm Calm 3.1 mph5.0 kmh 29.21 in989.2 mb 0.00 in0.0 mm 0.00 in0.0 mm 0.00 in0.0 mm
02:12 AM 19.9°F-6.7°C -2.1°F-18.9°C 37% Calm Calm 3.1 mph5.0 kmh 29.21 in989.2 mb 0.00 in0.0 mm 0.00 in0.0 mm 0.00 in0.0 mm
02:11 AM 19.9°F-6.7°C -2.1°F-18.9°C 37% 0.7 mph S1.1 kmh S 3.1 mph5.0 kmh 29.21 in989.2 mb 0.00 in0.0 mm 0.00 in0.0 mm 0.00 in0.0 mm
02:10 AM 19.9°F-6.7°C -2.1°F-18.9°C 37% Calm Calm 3.1 mph5.0 kmh 29.21 in989.2 mb 0.00 in0.0 mm 0.00 in0.0 mm 0.00 in0.0 mm
02:09 AM 19.9°F-6.7°C -2.1°F-18.9°C 37% Calm Calm 3.1 mph5.0 kmh 29.20 in988.8 mb 0.00 in0.0 mm 0.00 in0.0 mm 0.00 in0.0 mm
02:08 AM 19.9°F-6.7°C -2.1°F-18.9°C 37% Calm Calm 3.1 mph5.0 kmh 29.21 in989.2 mb 0.00 in0.0 mm 0.00 in0.0 mm 0.00 in0.0 mm
02:07 AM 20.3°F-6.5°C -1.7°F-18.7°C 37% 1.6 mph S2.6 kmh S 3.1 mph5.0 kmh 29.21 in989.2 mb 0.00 in0.0 mm 0.00 in0.0 mm 0.00 in0.0 mm
02:06 AM 20.3°F-6.5°C -1.7°F-18.7°C 37% 2.2 mph S3.5 kmh S 3.1 mph5.0 kmh 29.21 in989.2 mb 0.00 in0.0 mm 0.00 in0.0 mm 0.00 in0.0 mm
02:05 AM 20.3°F-6.5°C -1.7°F-18.7°C 37% 0.7 mph S1.1 kmh S 3.1 mph5.0 kmh 29.21 in989.2 mb 0.00 in0.0 mm 0.00 in0.0 mm 0.00 in0.0 mm
02:04 AM 20.5°F-6.4°C -1.6°F-18.7°C 37% 0.7 mph S1.1 kmh S 3.1 mph5.0 kmh 29.21 in989.2 mb 0.00 in0.0 mm 0.00 in0.0 mm 0.00 in0.0 mm
02:03 AM 20.5°F-6.4°C -1.6°F-18.7°C 37% 1.6 mph S2.6 kmh S 3.1 mph5.0 kmh 29.22 in989.5 mb 0.00 in0.0 mm 0.00 in0.0 mm 0.00 in0.0 mm
02:02 AM 20.5°F-6.4°C -1.6°F-18.7°C 37% 0.7 mph S1.1 kmh S 3.1 mph5.0 kmh 29.21 in989.2 mb 0.00 in0.0 mm 0.00 in0.0 mm 0.00 in0.0 mm
02:01 AM 20.7°F-6.3°C -1.4°F-18.6°C 37% Calm Calm 3.1 mph5.0 kmh 29.21 in989.2 mb 0.00 in0.0 mm 0.00 in0.0 mm 0.00 in0.0 mm
02:00 AM 20.7°F-6.3°C -1.4°F-18.6°C 37% 0.7 mph S1.1 kmh S 3.1 mph5.0 kmh 29.21 in989.2 mb 0.00 in0.0 mm 0.00 in0.0 mm 0.00 in0.0 mm
01:59 AM 20.7°F-6.3°C -1.4°F-18.6°C 37% 2.2 mph S3.5 kmh S 3.1 mph5.0 kmh 29.22 in989.5 mb 0.00 in0.0 mm 0.00 in0.0 mm 0.00 in0.0 mm
01:58 AM 20.7°F-6.3°C -1.4°F-18.6°C 37% Calm Calm 2.2 mph3.5 kmh 29.21 in989.2 mb 0.00 in0.0 mm 0.00 in0.0 mm 0.00 in0.0 mm
01:57 AM 20.8°F-6.2°C -1.3°F-18.5°C 37% 0.7 mph S1.1 kmh S 2.2 mph3.5 kmh 29.21 in989.2 mb 0.00 in0.0 mm 0.00 in0.0 mm 0.00 in0.0 mm
01:56 AM 20.8°F-6.2°C -1.3°F-18.5°C 37% 0.7 mph S1.1 kmh S 2.2 mph3.5 kmh 29.21 in989.2 mb 0.00 in0.0 mm 0.00 in0.0 mm 0.00 in0.0 mm
01:55 AM 21.0°F-6.1°C -1.1°F-18.4°C 37% 0.7 mph S1.1 kmh S 2.2 mph3.5 kmh 29.21 in989.2 mb 0.00 in0.0 mm 0.00 in0.0 mm 0.00 in0.0 mm
01:54 AM 21.0°F-6.1°C -1.1°F-18.4°C 37% 0.7 mph S1.1 kmh S 2.2 mph3.5 kmh 29.21 in989.2 mb 0.00 in0.0 mm 0.00 in0.0 mm 0.00 in0.0 mm
01:53 AM 20.8°F-6.2°C -1.3°F-18.5°C 37% 0.7 mph S1.1 kmh S 2.2 mph3.5 kmh 29.21 in989.2 mb 0.00 in0.0 mm 0.00 in0.0 mm 0.00 in0.0 mm
01:52 AM 20.8°F-6.2°C -1.3°F-18.5°C 37% Calm Calm 2.2 mph3.5 kmh 29.21 in989.2 mb 0.00 in0.0 mm 0.00 in0.0 mm 0.00 in0.0 mm
01:51 AM 20.8°F-6.2°C -1.3°F-18.5°C 37% Calm Calm 2.2 mph3.5 kmh 29.22 in989.5 mb 0.00 in0.0 mm 0.00 in0.0 mm 0.00 in0.0 mm
01:50 AM 20.8°F-6.2°C -1.3°F-18.5°C 37% 0.7 mph S1.1 kmh S 2.2 mph3.5 kmh 29.22 in989.5 mb 0.00 in0.0 mm 0.00 in0.0 mm 0.00 in0.0 mm
01:49 AM 20.8°F-6.2°C -1.3°F-18.5°C 37% 1.6 mph S2.6 kmh S 2.2 mph3.5 kmh 29.21 in989.2 mb 0.00 in0.0 mm 0.00 in0.0 mm 0.00 in0.0 mm
01:48 AM 20.8°F-6.2°C -1.3°F-18.5°C 37% 1.6 mph S2.6 kmh S 2.2 mph3.5 kmh 29.21 in989.2 mb 0.00 in0.0 mm 0.00 in0.0 mm 0.00 in0.0 mm
01:47 AM 20.7°F-6.3°C -1.4°F-18.6°C 37% Calm Calm 2.2 mph3.5 kmh 29.21 in989.2 mb 0.00 in0.0 mm 0.00 in0.0 mm 0.00 in0.0 mm
01:46 AM 20.7°F-6.3°C -1.4°F-18.6°C 37% Calm Calm 2.2 mph3.5 kmh 29.22 in989.5 mb 0.00 in0.0 mm 0.00 in0.0 mm 0.00 in0.0 mm
01:45 AM 20.7°F-6.3°C -1.4°F-18.6°C 37% Calm Calm 2.2 mph3.5 kmh 29.21 in989.2 mb 0.00 in0.0 mm 0.00 in0.0 mm 0.00 in0.0 mm
01:44 AM 20.7°F-6.3°C -1.4°F-18.6°C 37% 0.7 mph S1.1 kmh S 2.2 mph3.5 kmh 29.21 in989.2 mb 0.00 in0.0 mm 0.00 in0.0 mm 0.00 in0.0 mm
01:43 AM 21.0°F-6.1°C -1.1°F-18.4°C 37% 0.7 mph S1.1 kmh S 2.2 mph3.5 kmh 29.21 in989.2 mb 0.00 in0.0 mm 0.00 in0.0 mm 0.00 in0.0 mm
01:42 AM 21.2°F-6.0°C -0.9°F-18.3°C 37% 1.6 mph S2.6 kmh S 2.2 mph3.5 kmh 29.21 in989.2 mb 0.00 in0.0 mm 0.00 in0.0 mm 0.00 in0.0 mm
01:41 AM 21.4°F-5.9°C -0.8°F-18.2°C 37% 0.7 mph S1.1 kmh S 2.2 mph3.5 kmh 29.21 in989.2 mb 0.00 in0.0 mm 0.00 in0.0 mm 0.00 in0.0 mm
01:40 AM 21.7°F-5.7°C -0.5°F-18.1°C 37% 1.6 mph S2.6 kmh S 2.2 mph3.5 kmh 29.21 in989.2 mb 0.00 in0.0 mm 0.00 in0.0 mm 0.00 in0.0 mm
01:39 AM 21.9°F-5.6°C -0.3°F-17.9°C 37% 1.6 mph S2.6 kmh S 2.2 mph3.5 kmh 29.20 in988.8 mb 0.00 in0.0 mm 0.00 in0.0 mm 0.00 in0.0 mm
01:38 AM 21.9°F-5.6°C -0.3°F-17.9°C 37% 1.6 mph S2.6 kmh S 2.2 mph3.5 kmh 29.20 in988.8 mb 0.00 in0.0 mm 0.00 in0.0 mm 0.00 in0.0 mm
01:37 AM 21.9°F-5.6°C -0.3°F-17.9°C 37% Calm Calm 1.6 mph2.6 kmh 29.21 in989.2 mb 0.00 in0.0 mm 0.00 in0.0 mm 0.00 in0.0 mm
01:36 AM 21.9°F-5.6°C -0.3°F-17.9°C 37% Calm Calm 1.6 mph2.6 kmh 29.21 in989.2 mb 0.00 in0.0 mm 0.00 in0.0 mm 0.00 in0.0 mm
01:35 AM 21.9°F-5.6°C -0.3°F-17.9°C 37% 0.7 mph S1.1 kmh S 1.6 mph2.6 kmh 29.21 in989.2 mb 0.00 in0.0 mm 0.00 in0.0 mm 0.00 in0.0 mm
01:34 AM 21.7°F-5.7°C -0.5°F-18.1°C 37% Calm Calm 1.6 mph2.6 kmh 29.21 in989.2 mb 0.00 in0.0 mm 0.00 in0.0 mm 0.00 in0.0 mm
01:33 AM 21.7°F-5.7°C -0.5°F-18.1°C 37% Calm Calm 1.6 mph2.6 kmh 29.21 in989.2 mb 0.00 in0.0 mm 0.00 in0.0 mm 0.00 in0.0 mm
01:32 AM 21.7°F-5.7°C -0.5°F-18.1°C 37% Calm Calm 1.6 mph2.6 kmh 29.21 in989.2 mb 0.00 in0.0 mm 0.00 in0.0 mm 0.00 in0.0 mm
01:31 AM 21.7°F-5.7°C -0.5°F-18.1°C 37% Calm Calm 1.6 mph2.6 kmh 29.21 in989.2 mb 0.00 in0.0 mm 0.00 in0.0 mm 0.00 in0.0 mm
01:30 AM 21.7°F-5.7°C -0.5°F-18.1°C 37% Calm Calm 1.6 mph2.6 kmh 29.21 in989.2 mb 0.00 in0.0 mm 0.00 in0.0 mm 0.00 in0.0 mm
01:29 AM 21.7°F-5.7°C -0.5°F-18.1°C 37% 0.7 mph S1.1 kmh S 1.6 mph2.6 kmh 29.21 in989.2 mb 0.00 in0.0 mm 0.00 in0.0 mm 0.00 in0.0 mm
01:28 AM 21.7°F-5.7°C -0.5°F-18.1°C 37% Calm Calm 1.6 mph2.6 kmh 29.21 in989.2 mb 0.00 in0.0 mm 0.00 in0.0 mm 0.00 in0.0 mm
01:27 AM 21.7°F-5.7°C -0.5°F-18.1°C 37% Calm Calm 2.2 mph3.5 kmh 29.21 in989.2 mb 0.00 in0.0 mm 0.00 in0.0 mm 0.00 in0.0 mm
01:26 AM 21.7°F-5.7°C -0.5°F-18.1°C 37% Calm Calm 2.2 mph3.5 kmh 29.20 in988.8 mb 0.00 in0.0 mm 0.00 in0.0 mm 0.00 in0.0 mm
01:25 AM 21.7°F-5.7°C -0.5°F-18.1°C 37% Calm Calm 2.2 mph3.5 kmh 29.21 in989.2 mb 0.00 in0.0 mm 0.00 in0.0 mm 0.00 in0.0 mm
01:24 AM 21.9°F-5.6°C -0.3°F-17.9°C 37% Calm Calm 2.2 mph3.5 kmh 29.21 in989.2 mb 0.00 in0.0 mm 0.00 in0.0 mm 0.00 in0.0 mm
01:23 AM 21.9°F-5.6°C -0.3°F-17.9°C 37% Calm Calm 2.2 mph3.5 kmh 29.20 in988.8 mb 0.00 in0.0 mm 0.00 in0.0 mm 0.00 in0.0 mm
01:22 AM 21.9°F-5.6°C -0.3°F-17.9°C 37% 0.7 mph S1.1 kmh S 2.2 mph3.5 kmh 29.21 in989.2 mb 0.00 in0.0 mm 0.00 in0.0 mm 0.00 in0.0 mm
01:21 AM 21.9°F-5.6°C -0.3°F-17.9°C 37% Calm Calm 2.2 mph3.5 kmh 29.20 in988.8 mb 0.00 in0.0 mm 0.00 in0.0 mm 0.00 in0.0 mm
01:20 AM 21.9°F-5.6°C -0.3°F-17.9°C 37% Calm Calm 2.2 mph3.5 kmh 29.21 in989.2 mb 0.00 in0.0 mm 0.00 in0.0 mm 0.00 in0.0 mm
01:19 AM 22.1°F-5.5°C -0.1°F-17.8°C 37% Calm Calm 2.2 mph3.5 kmh 29.21 in989.2 mb 0.00 in0.0 mm 0.00 in0.0 mm 0.00 in0.0 mm
01:18 AM 22.1°F-5.5°C -0.1°F-17.8°C 37% 0.7 mph S1.1 kmh S 2.2 mph3.5 kmh 29.21 in989.2 mb 0.00 in0.0 mm 0.00 in0.0 mm 0.00 in0.0 mm
01:17 AM 22.1°F-5.5°C -0.1°F-17.8°C 37% 1.6 mph S2.6 kmh S 2.2 mph3.5 kmh 29.21 in989.2 mb 0.00 in0.0 mm 0.00 in0.0 mm 0.00 in0.0 mm
01:16 AM 22.1°F-5.5°C -0.1°F-17.8°C 37% Calm Calm 2.2 mph3.5 kmh 29.20 in988.8 mb 0.00 in0.0 mm 0.00 in0.0 mm 0.00 in0.0 mm
01:15 AM 22.1°F-5.5°C -0.1°F-17.8°C 37% Calm Calm 2.2 mph3.5 kmh 29.21 in989.2 mb 0.00 in0.0 mm 0.00 in0.0 mm 0.00 in0.0 mm
01:14 AM 22.1°F-5.5°C -0.1°F-17.8°C 37% 0.7 mph S1.1 kmh S 2.2 mph3.5 kmh 29.21 in989.2 mb 0.00 in0.0 mm 0.00 in0.0 mm 0.00 in0.0 mm
01:13 AM 22.1°F-5.5°C -0.1°F-17.8°C 37% Calm Calm 2.2 mph3.5 kmh 29.20 in988.8 mb 0.00 in0.0 mm 0.00 in0.0 mm 0.00 in0.0 mm
01:12 AM 22.1°F-5.5°C -0.1°F-17.8°C 37% Calm Calm 2.2 mph3.5 kmh 29.21 in989.2 mb 0.00 in0.0 mm 0.00 in0.0 mm 0.00 in0.0 mm
01:11 AM 22.3°F-5.4°C 0.0°F-17.8°C 37% 0.7 mph S1.1 kmh S 2.2 mph3.5 kmh 29.21 in989.2 mb 0.00 in0.0 mm 0.00 in0.0 mm 0.00 in0.0 mm
01:10 AM 22.3°F-5.4°C 0.0°F-17.8°C 37% 1.6 mph S2.6 kmh S 2.2 mph3.5 kmh 29.21 in989.2 mb 0.00 in0.0 mm 0.00 in0.0 mm 0.00 in0.0 mm
01:09 AM 22.3°F-5.4°C 0.0°F-17.8°C 37% 1.6 mph S2.6 kmh S 2.2 mph3.5 kmh 29.22 in989.5 mb 0.00 in0.0 mm 0.00 in0.0 mm 0.00 in0.0 mm
01:08 AM 22.3°F-5.4°C 0.0°F-17.8°C 37% Calm Calm 2.2 mph3.5 kmh 29.21 in989.2 mb 0.00 in0.0 mm 0.00 in0.0 mm 0.00 in0.0 mm
01:07 AM 22.5°F-5.3°C 0.2°F-17.7°C 37% 0.7 mph S1.1 kmh S 2.2 mph3.5 kmh 29.21 in989.2 mb 0.00 in0.0 mm 0.00 in0.0 mm 0.00 in0.0 mm
01:06 AM 22.5°F-5.3°C 0.2°F-17.7°C 37% 0.7 mph S1.1 kmh S 2.2 mph3.5 kmh 29.21 in989.2 mb 0.00 in0.0 mm 0.00 in0.0 mm 0.00 in0.0 mm
01:05 AM 22.5°F-5.3°C 0.2°F-17.7°C 37% 0.7 mph S1.1 kmh S 2.2 mph3.5 kmh 29.21 in989.2 mb 0.00 in0.0 mm 0.00 in0.0 mm 0.00 in0.0 mm
01:04 AM 22.5°F-5.3°C 0.2°F-17.7°C 37% Calm Calm 2.2 mph3.5 kmh 29.21 in989.2 mb 0.00 in0.0 mm 0.00 in0.0 mm 0.00 in0.0 mm
01:03 AM 22.5°F-5.3°C 0.2°F-17.7°C 37% Calm Calm 2.2 mph3.5 kmh 29.21 in989.2 mb 0.00 in0.0 mm 0.00 in0.0 mm 0.00 in0.0 mm
01:02 AM 22.5°F-5.3°C 0.2°F-17.7°C 37% 0.7 mph S1.1 kmh S 2.2 mph3.5 kmh 29.22 in989.5 mb 0.00 in0.0 mm 0.00 in0.0 mm 0.00 in0.0 mm
01:01 AM 22.5°F-5.3°C 0.2°F-17.7°C 37% Calm Calm 1.6 mph2.6 kmh 29.22 in989.5 mb 0.00 in0.0 mm 0.00 in0.0 mm 0.00 in0.0 mm
01:00 AM 22.5°F-5.3°C 0.2°F-17.7°C 37% Calm Calm 1.6 mph2.6 kmh 29.21 in989.2 mb 0.00 in0.0 mm 0.00 in0.0 mm 0.00 in0.0 mm
12:59 AM 22.5°F-5.3°C 0.2°F-17.7°C 37% Calm Calm 1.6 mph2.6 kmh 29.21 in989.2 mb 0.00 in0.0 mm 0.00 in0.0 mm 0.00 in0.0 mm
12:58 AM 22.5°F-5.3°C 0.2°F-17.7°C 37% 0.7 mph S1.1 kmh S 1.6 mph2.6 kmh 29.20 in988.8 mb 0.00 in0.0 mm 0.00 in0.0 mm 0.00 in0.0 mm
12:57 AM 22.5°F-5.3°C 0.2°F-17.7°C 37% 0.7 mph S1.1 kmh S 2.2 mph3.5 kmh 29.21 in989.2 mb 0.00 in0.0 mm 0.00 in0.0 mm 0.00 in0.0 mm
12:56 AM 22.5°F-5.3°C 0.2°F-17.7°C 37% Calm Calm 3.1 mph5.0 kmh 29.22 in989.5 mb 0.00 in0.0 mm 0.00 in0.0 mm 0.00 in0.0 mm
12:55 AM 22.5°F-5.3°C 0.2°F-17.7°C 37% Calm Calm 3.1 mph5.0 kmh 29.21 in989.2 mb 0.00 in0.0 mm 0.00 in0.0 mm 0.00 in0.0 mm
12:54 AM 22.5°F-5.3°C 0.2°F-17.7°C 37% Calm Calm 3.1 mph5.0 kmh 29.22 in989.5 mb 0.00 in0.0 mm 0.00 in0.0 mm 0.00 in0.0 mm
12:53 AM 22.5°F-5.3°C 0.2°F-17.7°C 37% Calm Calm 3.1 mph5.0 kmh 29.21 in989.2 mb 0.00 in0.0 mm 0.00 in0.0 mm 0.00 in0.0 mm
12:52 AM 22.5°F-5.3°C 0.2°F-17.7°C 37% Calm Calm 3.1 mph5.0 kmh 29.21 in989.2 mb 0.00 in0.0 mm 0.00 in0.0 mm 0.00 in0.0 mm
12:51 AM 22.3°F-5.4°C 0.0°F-17.8°C 37% Calm Calm 3.1 mph5.0 kmh 29.21 in989.2 mb 0.00 in0.0 mm 0.00 in0.0 mm 0.00 in0.0 mm
12:50 AM 22.3°F-5.4°C 0.0°F-17.8°C 37% Calm Calm 3.1 mph5.0 kmh 29.22 in989.5 mb 0.00 in0.0 mm 0.00 in0.0 mm 0.00 in0.0 mm
12:49 AM 22.5°F-5.3°C 0.2°F-17.7°C 37% Calm Calm 3.1 mph5.0 kmh 29.21 in989.2 mb 0.00 in0.0 mm 0.00 in0.0 mm 0.00 in0.0 mm
12:48 AM 22.5°F-5.3°C 0.2°F-17.7°C 37% 0.7 mph S1.1 kmh S 3.8 mph6.1 kmh 29.21 in989.2 mb 0.00 in0.0 mm 0.00 in0.0 mm 0.00 in0.0 mm
12:47 AM 22.8°F-5.1°C 0.5°F-17.5°C 37% 2.2 mph S3.5 kmh S 3.8 mph6.1 kmh 29.21 in989.2 mb 0.00 in0.0 mm 0.00 in0.0 mm 0.00 in0.0 mm
12:46 AM 22.8°F-5.1°C 0.5°F-17.5°C 37% 1.6 mph S2.6 kmh S 3.8 mph6.1 kmh 29.21 in989.2 mb 0.00 in0.0 mm 0.00 in0.0 mm 0.00 in0.0 mm
12:45 AM 22.8°F-5.1°C 0.5°F-17.5°C 37% Calm Calm 3.8 mph6.1 kmh 29.21 in989.2 mb 0.00 in0.0 mm 0.00 in0.0 mm 0.00 in0.0 mm
12:44 AM 22.8°F-5.1°C 0.5°F-17.5°C 37% Calm Calm 3.8 mph6.1 kmh 29.21 in989.2 mb 0.00 in0.0 mm 0.00 in0.0 mm 0.00 in0.0 mm
12:43 AM 22.8°F-5.1°C 0.5°F-17.5°C 37% Calm Calm 3.8 mph6.1 kmh 29.22 in989.5 mb 0.00 in0.0 mm 0.00 in0.0 mm 0.00 in0.0 mm
12:42 AM 22.8°F-5.1°C 0.5°F-17.5°C 37% Calm Calm 3.8 mph6.1 kmh 29.22 in989.5 mb 0.00 in0.0 mm 0.00 in0.0 mm 0.00 in0.0 mm
12:41 AM 23.0°F-5.0°C 0.7°F-17.4°C 37% Calm Calm 3.8 mph6.1 kmh 29.21 in989.2 mb 0.00 in0.0 mm 0.00 in0.0 mm 0.00 in0.0 mm
12:40 AM 23.0°F-5.0°C 0.7°F-17.4°C 37% 0.7 mph S1.1 kmh S 3.8 mph6.1 kmh 29.22 in989.5 mb 0.00 in0.0 mm 0.00 in0.0 mm 0.00 in0.0 mm
12:39 AM 23.5°F-4.7°C 1.2°F-17.1°C 37% 3.1 mph S5.0 kmh S 3.8 mph6.1 kmh 29.21 in989.2 mb 0.00 in0.0 mm 0.00 in0.0 mm 0.00 in0.0 mm
12:38 AM 23.7°F-4.6°C 1.3°F-17.1°C 37% 3.1 mph S5.0 kmh S 3.8 mph6.1 kmh 29.21 in989.2 mb 0.00 in0.0 mm 0.00 in0.0 mm 0.00 in0.0 mm
12:37 AM 23.7°F-4.6°C 1.3°F-17.1°C 37% 2.2 mph S3.5 kmh S 3.8 mph6.1 kmh 29.20 in988.8 mb 0.00 in0.0 mm 0.00 in0.0 mm 0.00 in0.0 mm
12:36 AM 23.7°F-4.6°C 1.3°F-17.1°C 37% 0.7 mph S1.1 kmh S 2.2 mph3.5 kmh 29.21 in989.2 mb 0.00 in0.0 mm 0.00 in0.0 mm 0.00 in0.0 mm
12:35 AM 23.7°F-4.6°C 1.3°F-17.1°C 37% Calm Calm 2.2 mph3.5 kmh 29.21 in989.2 mb 0.00 in0.0 mm 0.00 in0.0 mm 0.00 in0.0 mm
12:34 AM 23.9°F-4.5°C 1.5°F-16.9°C 37% Calm Calm 2.2 mph3.5 kmh 29.21 in989.2 mb 0.00 in0.0 mm 0.00 in0.0 mm 0.00 in0.0 mm
12:33 AM 23.9°F-4.5°C 1.5°F-16.9°C 37% Calm Calm 2.2 mph3.5 kmh 29.21 in989.2 mb 0.00 in0.0 mm 0.00 in0.0 mm 0.00 in0.0 mm
12:32 AM 24.1°F-4.4°C 1.6°F-16.9°C 37% Calm Calm 2.2 mph3.5 kmh 29.21 in989.2 mb 0.00 in0.0 mm 0.00 in0.0 mm 0.00 in0.0 mm
12:31 AM 24.3°F-4.3°C 1.8°F-16.8°C 37% 1.6 mph S2.6 kmh S 2.2 mph3.5 kmh 29.21 in989.2 mb 0.00 in0.0 mm 0.00 in0.0 mm 0.00 in0.0 mm
12:30 AM 24.3°F-4.3°C 1.8°F-16.8°C 37% 0.7 mph S1.1 kmh S 1.6 mph2.6 kmh 29.22 in989.5 mb 0.00 in0.0 mm 0.00 in0.0 mm 0.00 in0.0 mm
12:29 AM 24.3°F-4.3°C 1.8°F-16.8°C 37% Calm Calm 1.6 mph2.6 kmh 29.22 in989.5 mb 0.00 in0.0 mm 0.00 in0.0 mm 0.00 in0.0 mm
12:28 AM 24.3°F-4.3°C 1.8°F-16.8°C 37% Calm Calm 1.6 mph2.6 kmh 29.22 in989.5 mb 0.00 in0.0 mm 0.00 in0.0 mm 0.00 in0.0 mm
12:27 AM 24.3°F-4.3°C 1.8°F-16.8°C 37% Calm Calm 1.6 mph2.6 kmh 29.22 in989.5 mb 0.00 in0.0 mm 0.00 in0.0 mm 0.00 in0.0 mm
12:26 AM 24.3°F-4.3°C 1.8°F-16.8°C 37% Calm Calm 1.6 mph2.6 kmh 29.21 in989.2 mb 0.00 in0.0 mm 0.00 in0.0 mm 0.00 in0.0 mm
12:25 AM 24.3°F-4.3°C 1.8°F-16.8°C 37% Calm Calm 1.6 mph2.6 kmh 29.22 in989.5 mb 0.00 in0.0 mm 0.00 in0.0 mm 0.00 in0.0 mm
12:24 AM 24.3°F-4.3°C 1.8°F-16.8°C 37% 0.7 mph S1.1 kmh S 1.6 mph2.6 kmh 29.21 in989.2 mb 0.00 in0.0 mm 0.00 in0.0 mm 0.00 in0.0 mm
12:23 AM 24.3°F-4.3°C 1.8°F-16.8°C 37% Calm Calm 1.6 mph2.6 kmh 29.22 in989.5 mb 0.00 in0.0 mm 0.00 in0.0 mm 0.00 in0.0 mm
12:22 AM 24.1°F-4.4°C 1.6°F-16.9°C 37% 0.7 mph S1.1 kmh S 1.6 mph2.6 kmh 29.22 in989.5 mb 0.00 in0.0 mm 0.00 in0.0 mm 0.00 in0.0 mm
12:21 AM 24.3°F-4.3°C 1.8°F-16.8°C 37% Calm Calm 1.6 mph2.6 kmh 29.21 in989.2 mb 0.00 in0.0 mm 0.00 in0.0 mm 0.00 in0.0 mm
12:20 AM 24.3°F-4.3°C 1.8°F-16.8°C 37% Calm Calm 1.6 mph2.6 kmh 29.21 in989.2 mb 0.00 in0.0 mm 0.00 in0.0 mm 0.00 in0.0 mm
12:19 AM 24.3°F-4.3°C 1.8°F-16.8°C 37% 0.7 mph S1.1 kmh S 1.6 mph2.6 kmh 29.21 in989.2 mb 0.00 in0.0 mm 0.00 in0.0 mm 0.00 in0.0 mm
12:18 AM 24.3°F-4.3°C 1.8°F-16.8°C 37% Calm Calm 1.6 mph2.6 kmh 29.21 in989.2 mb 0.00 in0.0 mm 0.00 in0.0 mm 0.00 in0.0 mm
12:17 AM 24.1°F-4.4°C 1.6°F-16.9°C 37% Calm Calm 3.1 mph5.0 kmh 29.22 in989.5 mb 0.00 in0.0 mm 0.00 in0.0 mm 0.00 in0.0 mm
12:16 AM 24.1°F-4.4°C 1.6°F-16.9°C 37% 0.7 mph S1.1 kmh S 3.1 mph5.0 kmh 29.21 in989.2 mb 0.00 in0.0 mm 0.00 in0.0 mm 0.00 in0.0 mm
12:15 AM 24.1°F-4.4°C 1.6°F-16.9°C 37% Calm Calm 3.1 mph5.0 kmh 29.22 in989.5 mb 0.00 in0.0 mm 0.00 in0.0 mm 0.00 in0.0 mm
12:14 AM 24.1°F-4.4°C 1.6°F-16.9°C 37% 0.7 mph S1.1 kmh S 3.1 mph5.0 kmh 29.21 in989.2 mb 0.00 in0.0 mm 0.00 in0.0 mm 0.00 in0.0 mm
12:13 AM 24.1°F-4.4°C 1.6°F-16.9°C 37% 0.7 mph S1.1 kmh S 3.1 mph5.0 kmh 29.21 in989.2 mb 0.00 in0.0 mm 0.00 in0.0 mm 0.00 in0.0 mm
12:12 AM 24.1°F-4.4°C 1.6°F-16.9°C 37% Calm Calm 3.1 mph5.0 kmh 29.21 in989.2 mb 0.00 in0.0 mm 0.00 in0.0 mm 0.00 in0.0 mm
12:11 AM 24.1°F-4.4°C 1.6°F-16.9°C 37% Calm Calm 3.1 mph5.0 kmh 29.21 in989.2 mb 0.00 in0.0 mm 0.00 in0.0 mm 0.00 in0.0 mm
12:10 AM 24.1°F-4.4°C 1.6°F-16.9°C 37% 0.7 mph S1.1 kmh S 3.1 mph5.0 kmh 29.22 in989.5 mb 0.00 in0.0 mm 0.00 in0.0 mm 0.00 in0.0 mm
12:09 AM 24.1°F-4.4°C 1.6°F-16.9°C 37% 0.7 mph S1.1 kmh S 3.1 mph5.0 kmh 29.21 in989.2 mb 0.00 in0.0 mm 0.00 in0.0 mm 0.00 in0.0 mm
12:08 AM 24.3°F-4.3°C 1.8°F-16.8°C 37% Calm Calm 3.1 mph5.0 kmh 29.21 in989.2 mb 0.00 in0.0 mm 0.00 in0.0 mm 0.00 in0.0 mm
12:07 AM 24.3°F-4.3°C 1.8°F-16.8°C 37% 2.2 mph S3.5 kmh S 3.1 mph5.0 kmh 29.21 in989.2 mb 0.00 in0.0 mm 0.00 in0.0 mm 0.00 in0.0 mm
12:06 AM 24.3°F-4.3°C 1.8°F-16.8°C 37% 2.2 mph S3.5 kmh S 3.1 mph5.0 kmh 29.21 in989.2 mb 0.00 in0.0 mm 0.00 in0.0 mm 0.00 in0.0 mm
12:05 AM 24.3°F-4.3°C 1.8°F-16.8°C 37% 1.6 mph S2.6 kmh S 3.1 mph5.0 kmh 29.21 in989.2 mb 0.00 in0.0 mm 0.00 in0.0 mm 0.00 in0.0 mm
12:04 AM 24.4°F-4.2°C 2.0°F-16.7°C 37% Calm Calm 3.1 mph5.0 kmh 29.21 in989.2 mb 0.00 in0.0 mm 0.00 in0.0 mm 0.00 in0.0 mm
12:03 AM 24.4°F-4.2°C 2.0°F-16.7°C 37% 0.7 mph S1.1 kmh S 3.1 mph5.0 kmh 29.22 in989.5 mb 0.00 in0.0 mm 0.00 in0.0 mm 0.00 in0.0 mm
12:02 AM 24.4°F-4.2°C 2.0°F-16.7°C 37% 1.6 mph S2.6 kmh S 3.8 mph6.1 kmh 29.22 in989.5 mb 0.00 in0.0 mm 0.00 in0.0 mm 0.00 in0.0 mm
12:01 AM 24.4°F-4.2°C 2.0°F-16.7°C 37% Calm Calm 3.8 mph6.1 kmh 29.22 in989.5 mb 0.00 in0.0 mm 0.00 in0.0 mm 0.00 in0.0 mm
12:00 AM 24.4°F-4.2°C 2.0°F-16.7°C 37% 0.7 mph S1.1 kmh S 3.8 mph6.1 kmh 29.21 in989.2 mb 0.00 in0.0 mm 0.00 in0.0 mm 0.00 in0.0 mm